Aviation Digital Data Service (ADDS)

Output produced by METARs form (1842 UTC 19 February 2017)
found at http://aviationweather.gov/adds/metars/
 
K04V 191835Z AUTO 17010G14KT 10SM SCT048 SCT055 07/M02 A2978 RMK AO2
K04W 191832Z AUTO 11004KT 10SM CLR 11/03 A2992 RMK AO2
K05U 191835Z AUTO 20006KT 10SM CLR 07/M01 A2978 RMK A01
K06D 191835Z AUTO 10012KT 10SM SCT006 00/00 A2965 RMK AO2
K08D 191835Z AUTO 11012KT M1/4SM FG OVC002 01/01 A2954 RMK AO2
K0A9 191835Z AUTO 32004KT 10SM BKN024 OVC029 13/08 A3011 RMK AO2
K0CO 191835Z AUTO 18018G27KT 10SM SCT032 SCT043 M03/M08 A2986 RMK AO2
K0E0 191835Z AUTO 22007KT 10SM BKN038 OVC044 09/M01 A2988 RMK AO2 T00871011
K0F2 191835Z AUTO 13006KT 5SM BR OVC006 19/19 A2989 RMK AO2 T01930185
K0J4 191758Z AUTO VRB04KT 10SM CLR 24/13 A3009 RMK AO2 SLP186 60000 T02440133 10244 20117 58011
K0R0 191835Z AUTO 06003KT 10SM CLR 26/13 A3009 RMK AO2
K0R4 191835Z AUTO 17005KT 10SM CLR 23/15 A3004 RMK AO2 T02340148
K0S9 191835Z AUTO 15014G27KT 10SM BKN014 BKN120 07/05 A2942 RMK AO2
K0V4 191835Z AUTO 29005KT 10SM CLR 21/04 A2997 RMK AO1 T02080037
K0VG 191830Z AUTO 24003KT 10SM FEW026 BKN032 15/07 A3013 RMK AO2
K11R 191835Z AUTO 15014G20KT 10SM BKN026 BKN034 OVC041 26/20 A2989 RMK AO2 T02620202
K12N 191754Z AUTO 00000KT 14/02 A2982 RMK AO1 SLP101 T01440017 10156 21011 58001
K14Y 191834Z AUTO 08007KT 10SM CLR 10/05 A2984 RMK AO2
K18A 191835Z AUTO 33009KT 290V350 10SM CLR 22/08 A3004 RMK AO2 T02190083
K19S 191835Z AUTO 18021G31KT 10SM CLR 21/10 A2977 RMK AO2 T02050098
K1A5 191830Z AUTO 34007KT 10SM SCT032 16/06 A3008 RMK AO2 T01590062
K1A6 191835Z AUTO 00000KT 10SM SCT032 16/09 A3012 RMK AO2 T01580087
K1A9 191835Z AUTO 00000KT 10SM SCT047 22/12 A3007 RMK AO2 T02240116
K1F0 191835Z AUTO 15009KT 7SM OVC007 18/16 A2991 RMK AO2
K1H2 191835Z AUTO 12003KT 4SM BR OVC009 13/12 A3010 RMK AO2 T01330115
K1J0 191458Z AUTO 00000KT 4SM BR OVC002 15/15 A3012 RMK AO2 SLP182 T01500150 51020
K1K1 191835Z AUTO 19011G17KT 5SM BR OVC005 12/12 A2991 RMK AO2 T01210118
K1L0 191835Z AUTO 12005KT 10SM SCT008 22/19 A3006 RMK AO2 T02200186
K1M4 191756Z AUTO VRB05KT 10SM FEW035 21/11 A3013 RMK AO2 SLP222 T02060106 10206 20061 58003
K1M5 191835Z AUTO 00000KT 10SM OVC018 15/11 A3011 RMK A01
K1P1 191835Z AUTO 30008G16KT 10SM SCT070 BKN085 11/M01 A2965 RMK AO2 T01091015
K1R7 191835Z AUTO 07004KT 10SM CLR A3007 RMK AO2
K1S5 191835Z AUTO 08004KT 10SM CLR 02/02 A2954 RMK AO2 T00220016
K1V4 191754Z AUTO 08/00 A2966 RMK AO1 SLP049 T00830000 10100 21033 53018
K1YT 191818Z AUTO 26005KT 10SM OVC004 01/01 A2950 RMK AO2 $
K20V 191835Z AUTO 27004KT 10SM SCT070 BKN090 06/M01 A2976 RMK AO2
K21D 191833Z AUTO 14008KT 10SM CLR 13/05 A2993 RMK AO2
K22N 191835Z AUTO 33008KT 278V348 10SM CLR 17/00 A2985 RMK AO2
K24A 191830Z AUTO 00000KT 10SM SCT030 15/06 A3009 RMK AO2 T01510064
K24J 191835Z AUTO VRB04KT 10SM SCT038 SCT050 24/15 A3006 RMK A01
K28J 191835Z AUTO 02004KT 10SM FEW050 25/13 A3004 RMK AO2
K2A0 191835Z AUTO VRB04G10KT 10SM CLR 18/10 A3010 RMK A01
K2C8 191835Z AUTO 07005KT 10SM FEW110 02/00 A2974 RMK AO2
K2DP 191756Z AUTO 35009KT 10SM CLR 21/06 A2990 RMK AO2 LTG DSNT S SLPNO T02080061 10208 20075 58005 $
K2F5 191835Z AUTO 20007KT 10SM CLR 19/03 A2985 RMK AO2
K2G4 191820Z AUTO 26004KT 3/4SM BR OVC002 05/05 A3001 RMK AO1
K2G9 191835Z AUTO 25011G16KT 10SM CLR 11/05 A2998 RMK AO2
K2I0 191835Z AUTO 00000KT 7SM OVC006 13/13 A3012 RMK AO2 T01320129
K2P2 191835Z AUTO 01003KT 10SM CLR 07/M01 A3004 RMK AO2 T00651009
K2V6 191834Z AUTO 18012G16KT 10SM CLR 17/00 A2967 RMK AO2
K2W6 191821Z AUTO 26008KT 10SM SCT090 20/06 A2991 RMK AO1
K2WX 191756Z AUTO 19011KT 14/01 A2940 RMK AO1 SLP955 T01440006 10150 20022 58014
K36U 191836Z AUTO 20016G20KT 4SM DZ SCT019 BKN030 OVC035 06/03 A2969 RMK AO2
K3AU 191835Z AUTO 17010KT 5SM BR OVC006 12/12 A2991 RMK AO2
K3D2 191835Z AUTO 00000KT 10SM CLR 09/00 A3003 RMK AO2 T00870001
K3F3 191835Z AUTO 09005KT 10SM CLR 24/17 A3002 RMK AO2 T02430171 PWINO
K3I2 191835Z AUTO 22005KT 10SM OVC015 12/09 A3010 RMK AO2 T01230090
K3J7 191835Z AUTO 28007KT 240V300 10SM SCT042 22/11 A3001 RMK AO2
K3K3 191835Z AUTO 16014G20KT 10SM CLR 17/08 A2974 RMK AO2
K3LF 191835Z AUTO 19008KT 7SM CLR 14/11 A3006 RMK AO2 T01430111
K3N8 191835Z AUTO 13010G17KT 10SM CLR 07/03 A2976 RMK AO2 T00680026
K3R7 191835Z AUTO 14005KT 10SM OVC013 23/20 A3002 RMK AO2 T02280195
K3T5 191835Z AUTO 15012G19KT 10SM SCT024 BKN029 OVC048 26/21 A2985 RMK AO2 T02600208
K40B 191816Z AUTO 00000KT 02/00 A2953 RMK AO1 SLP016 T00230003 10036 20023 53012 P0000 60000
K40J 191835Z AUTO 30005KT 10SM CLR 25/15 A3006 RMK AO2 T02500145
K42J 191835Z AUTO 35009KT 10SM CLR 25/09 A3004 RMK AO1 TSNO
K46D 191835Z AUTO 12015KT 10SM FEW120 04/02 A2961 RMK AO2
K46U 191820Z AUTO 00000KT 7SM FEW009 FEW013 FEW023 03/02 A2969 RMK A01
K4A6 191835Z AUTO 08007KT 10SM CLR 19/11 A3009 RMK AO2
K4A9 191835Z AUTO 04009G16KT 10SM CLR 19/06 A3007 RMK AO2
K4BM 191836Z AUTO 21007KT 10SM SCT034 BKN040 OVC047 02/M07 A2987 RMK AO2
K4I3 191836Z AUTO 22008KT 10SM CLR 15/07 A3005 RMK AO2
K4I7 191835Z AUTO 19004KT 10SM CLR 15/07 A3008 RMK AO2
K4M9 191835Z AUTO 00000KT 10SM CLR 15/15 A3010 RMK AO2
K4MR 191838Z AUTO 24011KT 10SM SCT095 13/02 A2983 RMK AO2 $
K4O4 191835Z AUTO 09006KT 3SM OVC003 16/15 A2999 RMK AO2
K4R5 191835Z AUTO 06005KT 10SM SCT110 07/00 A2999 RMK AO2 T00671001
K4V0 191835Z AUTO 31004KT 10SM SCT048 OVC060 05/02 A2972 RMK AO2 T00470017
K54J 191835Z AUTO 35006KT 10SM CLR 25/14 A3006 RMK AO2 T02450137
K57C 191835Z AUTO 20003KT 10SM CLR 16/M02 A3004 RMK AO2 T01611017
K5A6 191835Z AUTO 00000KT 10SM CLR 23/13 A3008 RMK AO2 T02280133
K5C1 191835Z AUTO 16013KT 10SM BKN018 BKN033 OVC055 23/18 A2986 RMK AO1
K5H4 191835Z AUTO 13009KT 10SM 02/02 A2960 RMK AO2 PWINO PNO
K5M9 191835Z AUTO 19003KT 7SM OVC004 12/12 A3011 RMK AO2 T01150115
K5R8 191835Z AUTO 13008KT 10SM OVC016 23/19 A3000 RMK AO2 T02300191
K5T9 191835Z AUTO 12008KT 9SM BKN035 27/18 A2978 RMK A01
K65S 191835Z AUTO 00000KT 8SM UP BKN020 02/00 A2952 RMK AO2
K66R 191835Z AUTO 15013G16KT 10SM BKN027 BKN032 OVC041 25/19 A2989 RMK AO2 T02520192
K6A1 191835Z AUTO 33006KT 10SM 22/14 A3007 RMK AO2 T02210140
K6A2 191835Z AUTO 02005KT 10SM BKN034 21/13 A3007 RMK AO2
K6B0 191835Z AUTO 34012G18KT 10SM OVC060 10/M08 A2972 RMK AO2 T00971084
K6B9 191835Z AUTO 30007G12KT 10SM CLR 10/01 A2985 RMK AO2
K6I2 191830Z AUTO 29003KT 10SM BKN022 17/10 A3010 RMK AO2
K6L4 191835Z AUTO 00000KT 10SM OVC031 11/08 A3010 RMK AO2
K6R3 191835Z AUTO 15008G14KT 120V190 5SM HZ OVC012 23/20 A2995 RMK AO2 T02260201
K6R6 191753Z AUTO 03003KT 21/10 A2986 RMK AO1 SLP084 T02060100 10206 20150 50008
K74V 191835Z AUTO 00000KT 10SM OVC004 03/02 A2975 RMK AO2
K79J 191756Z AUTO 29010KT 10SM CLR 26/13 A3007 RMK AO2 SLP179 T02560133 10261 20122 58010
K7BM 191835Z AUTO 11013G17KT 10SM BKN050 BKN055 05/M05 A2977 RMK AO2
K7L2 191815Z AUTO 13006KT 10SM 03/03 A2954 RMK AO2
K7N0 191756Z AUTO VRB04KT 10SM 22/18 A3008 RMK AO2 SLP184 6//// T02220178 10222 20161 58002 TSNO PNO $
K7W4 191835Z AUTO 20003KT 10SM CLR 21/08 A2992 RMK AO1 T02100077
K7W6 191830Z AUTO 33011KT 10SM CLR 20/06 A2991 RMK AO2 T02000060
K82C 191835Z AUTO 13006KT 10SM CLR 16/02 A3000 RMK AO2 T01550024
K82V 191835Z AUTO 16007KT 10SM CLR 13/M02 A2967 RMK AO2
K8A0 191835Z AUTO 33006KT 10SM CLR 19/12 A3009 RMK AO2
K8D3 191756Z AUTO 17013KT 07/05 A2970 RMK AO1 SLP068 T00720050 10072 20017 58016
K8W2 191835Z AUTO 28007G14KT 10SM CLR 19/05 A2995 RMK AO1 T01900049
K9A5 191835Z AUTO 01007KT 10SM CLR 19/09 A3010 RMK AO2 T01870087
K9L2 191758Z AUTO 22015G21KT 8SM CLR 12/04 A2985 RMK AO2 SLP103 T01160044 10117 20065 52020
K9MN 191834Z AUTO 13010KT 10SM CLR 11/05 A2994 RMK AO1 T01120053
K9V9 191835Z AUTO 16009KT 10SM CLR 16/07 A2960 RMK AO2 T01620070
KA08 191835Z AUTO 01006G15KT 10SM SCT037 22/14 A3008 RMK AO2 T02220136
KA39 191835Z AUTO 18008KT 10SM SCT020 BKN025 OVC042 13/10 A2999 RMK AO2
KAAA 191835Z AUTO 16004KT 10SM CLR 14/11 A3005 RMK AO2 T01440109
KAAF 191753Z AUTO VRB03KT 10SM CLR 26/16 A3007 RMK AO2 SLP182 T02560156 10256 20117 58009 $
KAAO 191818Z AUTO 17013KT 5SM BR OVC006 12/12 A2991 RMK AO2 T01220122
KAAT 191755Z AUTO 19013KT 10SM FEW028 SCT037 BKN060 06/01 A2964 RMK AO2 SLP034 60000 T00560006 10056 20000 51016 TSNO
KABE 191751Z 28012KT 10SM CLR 18/02 A2983 RMK AO2 SLP103 T01780022 10183 20061 58006
KABH 191756Z AUTO 19016G22KT CLR A2972 RMK AO2 SLPNO 58008 $
KABI 191819Z 16013KT 5SM HZ FEW022 BKN041 OVC048 19/16 A2986 RMK AO2 T01940161
KABQ 191752Z 19009KT 10SM FEW018 BKN021 BKN029 07/04 A2989 RMK AO2 SLP098 MTNS OBSC NE 60001 T00720039 10078 20039 50006
KABR 191753Z AUTO 15016KT 10SM CLR 11/06 A2963 RMK AO2 SLP038 T01110056 10117 20039 58019
KABY 191753Z VRB06KT 10SM SCT036 23/13 A3008 RMK AO2 SLP184 T02280133 10228 20139 58015
KACB 191835Z AUTO 27006KT 10SM CLR 08/00 A3004 RMK AO2 T00830000
KACJ 191835Z AUTO 31008KT 10SM CLR 22/08 A3007 RMK AO2
KACK 191753Z 27017G24KT 10SM CLR 12/02 A2973 RMK AO2 SLP068 T01170022 10150 20061 50002
KACP 191835Z AUTO 11007KT 10SM OVC015 23/18 A3002 RMK AO2 T02280183
KACQ 191834Z AUTO 14014G17KT 10SM CLR 12/06 A2990 RMK AO2
KACT 191751Z 14014KT 6SM HZ BKN018 BKN024 OVC047 23/19 A2987 RMK AO2 SLP110 T02330194 10233 20189 58006
KACV 191839Z AUTO 22009KT 2 1/2SM R32/5000VP6000FT -RA BR BKN007 OVC022 11/09 A2968 RMK AO2 P0003 T01060094
KACY 191754Z 21006KT 10SM CLR 20/04 A2983 RMK AO2 SLP099 T02000039 10211 20122 58010
KADC 191834Z AUTO 12013KT 10SM CLR 07/04 A2981 RMK AO2
KADF 191756Z AUTO 07003KT 10SM OVC015 19/16 A3006 RMK AO2 SLP181 T01940161 10200 20117 55007 TSNO
KADG 191753Z AUTO 31009KT 10SM CLR 16/M01 A3002 RMK AO2 SLP170 T01561006 10156 20022 50006
KADH 191835Z AUTO 14008KT 4SM BR OVC003 16/16 A2994 RMK AO2
KADM 191755Z 15009KT 4SM BR OVC010 19/17 A2993
KADS 191847Z AUTO 11009KT 5SM HZ BKN018 OVC030 21/18 A2991
KADW 191805Z AUTO 28013KT 10SM CLR 20/06 A2989 RMK AO2 WSHFT 01
KAEG 191747Z 17008KT 10SM BKN015 BKN024 07/04 A2989
KAEJ 191455Z AUTO 25006KT 10SM BKN080 02/M02 A2981 RMK AO2 T00221024
KAEL 191833Z AUTO 15012G16KT 10SM CLR 12/06 A2990 RMK AO2
KAEX 191753Z 12005KT 6SM HZ FEW018 22/17 A3004 RMK AO2 SLP175 T02170167 10217 20150 58000 $
KAFF 191758Z AUTO 20008KT 10SM FEW180 SCT210 12/M05 A2972 RMK AO2 SLP036 T01201054 10125 21017 57010
KAFJ 191835Z AUTO 27011G17KT 10SM CLR 15/06 A3002 RMK AO1
KAFK 191835Z AUTO 18012G17KT 10SM CLR 19/07 A2988 RMK AO2 T01860074
KAFN 191752Z AUTO 27007KT 10SM CLR 12/M01 A2966 RMK AO2 SLP053 T01221006 10122 20000 58008
KAFO 191835Z AUTO 26010KT 10SM RA SCT015 BKN022 OVC029 01/00 A2968 RMK AO2
KAFP 191830Z AUTO 31010KT 10SM CLR 21/07 A3000 RMK AO2 T02060065
KAFW 191753Z 14008KT 1SM R16L/P6000FT -RA BR OVC010 20/18 A2989 RMK AO2 SFC VIS 2 1/2 RAB22 CIG 007V013 SLP117 P0000 60000 T02000183 10200 20156 58003
KAGC 191753Z 24008KT 220V300 10SM CLR 14/05 A2998 RMK AO2 SLP157 T01440050 10150 20067 58001
KAGS 191753Z 33014KT 10SM CLR 24/09 A3002 RMK AO2 SLP165 T02390089 10239 20072 58006
KAHN 191751Z 31010KT 10SM FEW042 21/09 A3005 RMK AO2 SLP174 T02110094 10217 20067 58005
KAHQ 191835Z AUTO 17020G24KT 10SM CLR 20/09 A2983 RMK AO2 T01970088
KAIA 191753Z AUTO 17008KT 10SM CLR 11/00 A2965 RMK AO2 SLP033 T01060000 10106 21050 53000
KAIB 191835Z AUTO 18003KT 10SM SCT039 SCT044 OVC050 04/01 A2986 RMK AO2
KAIG 191835Z AUTO 03003KT 10SM CLR 05/00 A3001 RMK AO2 T00531001
KAIK 191835Z AUTO 34009KT 10SM BKN050 20/08 A3005 RMK AO2
KAIO 191835Z AUTO 18012G18KT 10SM CLR 19/11 A2988 RMK AO2
KAIT 191833Z AUTO 10005KT 10SM CLR 11/M01 A2988 RMK AO2
KAIZ 191756Z AUTO 15011KT 10SM CLR 22/10 A3002 RMK AO2 SLP949 60000 T02220100 10222 20039 58011
KAJG 191835Z AUTO 20004KT 5SM HZ OVC007 12/09 A3011 RMK AO2 T01150091
KAJO 191756Z AUTO 29003KT FEW020 OVC037 14/10 A2995 RMK AO2 SLP155 6//// T01390100 10139 20083 51028 PWINO $
KAJR 191835Z AUTO 33006KT 10SM SCT035 18/08 A3006 RMK AO2 T01800082
KAJZ 191835Z AUTO 23005KT 10SM SCT070 BKN080 BKN120 09/03 A2975 RMK AO2 T00920028
KAKH 191754Z AUTO 35007KT 10SM FEW044 20/06 A3003 RMK AO2 SLP167 T02000056 10200 20050 50003
KAKO 191753Z AUTO 20008KT 10SM CLR 16/M02 A2969 RMK AO2 SLP019 T01611022 10161 20056 58003
KAKQ 191754Z AUTO VRB03KT 10SM CLR 22/07 A2991 RMK AO2 SLP129 T02170072 10228 20067 58002
KAKR 191754Z AUTO 27010KT 10SM CLR 17/03 A2999 RMK AO2 SLP155 T01720033 10172 20056 51007 TSNO
KALB 191751Z 27019G27KT 10SM FEW050 FEW210 11/00 A2977 RMK AO2 PK WND 27028/1700 SLP082 4/005 933012 T01060000 10106 21006 58004
KALI 191833Z AUTO 12014G20KT 10SM BKN026 OVC033 27/21 A2979 RMK AO2 T02720206
KALK 191756Z AUTO 21010KT FEW026 BKN034 09/02 A2998 RMK AO2 RAB42E53 SLP110 P0000 60000 T00890022 10089 20022 51017 $
KALM 191835Z AUTO 20011G15KT 10SM CLR 13/M01 A2992 RMK AO2
KALN 191745Z 18005KT 10SM SKC 14/11 A3008
KALO 191754Z 14010KT 10SM CLR 14/04 A2997 RMK AO2 SLP154 I6001 T01390044 10144 21033 58009 $
KALS 191752Z AUTO VRB05KT 10SM BKN060 07/M02 A2980 RMK AO2 SLP062 T00671017 10067 21006 58004
KALW 191753Z 16006KT 10SM -RA BKN055 OVC070 06/03 A2954 RMK AO2 RAB27 SLP009 P0000 60001 T00560033 10061 20022 53018
KALX 191835Z AUTO 35009KT 10SM CLR 21/09 A3007 RMK AO2 T02110087
KAMA 191753Z 16015KT 10SM FEW016 16/11 A2984 RMK AO2 SLP081 T01560106 10156 20056 58000
KAMG 191753Z AUTO 29010KT 8SM SCT028 SCT037 23/14 A3004 RMK AO2 SLP171 T02330144 10233 20139 58015
KAMN 191832Z AUTO 28011G15KT 260V320 10SM CLR 15/M02 A3001 RMK AO2 T01481022
KAMW 191753Z AUTO 16009KT 10SM CLR 17/09 A2994 RMK AO2 SLP138 I6000 T01670094 10167 21011 58009 $
KANB 191753Z AUTO 01010KT 10SM CLR 19/10 A3010 RMK AO2 SLP190 T01940100 10194 20111 58009
KAND 191756Z AUTO 27010KT 10SM BKN050 19/07 A3004 RMK AO2 SLP170 T01940072 10206 20089 50001
KANE 191845Z 14011KT 10SM FEW250 15/03 A2992
KANJ 191755Z AUTO 31008KT 10SM CLR 06/M01 A2998 RMK AO2 SLP156 T00611011 10061 20000 51016
KANK 191835Z AUTO 19020G32KT 10SM CLR 11/M05 A2978 RMK AO1 T01101050
KANQ 191855Z AUTO 31005KT 10SM CLR 17/12 A3003 RMK
KANW 191835Z AUTO 20015G19KT 10SM CLR 17/06 A2964 RMK AO2 T01730060
KAOH 191753Z AUTO 24010KT 10SM CLR 14/07 A3004 RMK AO2 SLP173 T01440067 10144 20072 50003 $
KAOO 191753Z AUTO 27012G21KT 10SM CLR 16/05 A2992 RMK AO2 SLP132 T01560050 10156 20083 58010
KAPA 191753Z COR VRB04KT 10SM FEW090 FEW120 BKN150 BKN220 15/M07 A2968 RMK AO2 SLP013 T01501072 10161 20061 58009
KAPC 191754Z 00000KT 10SM SCT050 OVC065 13/09 A2984 RMK AO2 SLP096 60005 T01280089 10128 20094 51008
KAPF 191753Z 28010KT 10SM CLR 27/22 A3005 RMK AO2 SLP175 T02670217 10272 20217 58009
KAPG 191758Z AUTO 29011KT 10SM FEW230 21/05 A2987 RMK AO2 SLP118 T02100052 10214 20150 58005
KAPN 191754Z AUTO 33008KT 280V350 10SM CLR 10/00 A2999 RMK AO2 SLP161 T01000000 10100 20017 51014
KAPY 191835Z AUTO 13009G16KT 7SM CLR 27/17 A2974 RMK AO2 T02760176
KAQO 191830Z AUTO 14009G14KT 10SM SCT030 BKN036 BKN041 24/18 A2987 RMK AO2
KAQP 191835Z AUTO 13013G17KT 10SM CLR 13/06 A2976 RMK AO2
KAQR 191835Z AUTO 13006KT 5SM OVC007 17/16 A2996 RMK AO2
KAQV 191756Z AUTO VRB06KT 10SM CLR 24/15 A3000 RMK AO2 SLP158 T02390150 10239 20156 58010 $
KAQW 191752Z AUTO 26016G22KT 10SM CLR 11/M01 A2972 RMK AO2 SLP067 T01111011 10111 20056 56009
KAQX 191835Z AUTO 32008KT 10SM CLR 23/09 A3000 RMK AO2
KARA 191819Z 08007KT 10SM BKN015 23/18 A3004 RMK AO2 T02330183 $
KARB 191753Z 25010KT 10SM CLR 16/00 A3000 RMK AO2 SLP160 T01610000 10161 20044 50007
KARG 191835Z AUTO 00000KT 10SM CLR 16/13 A3009 RMK AO1
KARM 191830Z AUTO 13019G22KT 10SM SCT021 BKN031 OVC037 25/19 A2990 RMK AO2 T02500190
KARR 191752Z 17007KT 10SM CLR 18/02 A3006 RMK AO2 SLP181 T01780017 10183 21017 50002
KART 191756Z AUTO 25010G17KT 10SM CLR 07/03 A2982 RMK AO2 SLP100 T00670028 10078 20017 51004
KARV 191835Z AUTO 12003KT 10SM CLR 11/M01 A2999 RMK AO2 T01101007
KARW 191835Z AUTO 29011G16KT 7SM CLR 23/10 A3000 RMK AO2 LTG DSNT E
KASD 191753Z AUTO 18004KT 10SM CLR 25/14 A3007 RMK AO2 SLP181 T02500144 10256 20094 58006
KASE 191753Z 35006KT 10SM BKN070 07/M02 A2971 RMK AO2 SLP006 T00671022 10067 21039 58014
KASG 191748Z 16008KT 10SM SKC 21/15 A3002
KASH 191756Z VRB06KT 10SM CLR 13/02 A2965 RMK AO2 SLP051 T01280017 10128 20011 58014
KASJ 191830Z AUTO 01006KT 10SM 20/07 A2992 RMK AO2 T02020073
KASL 191835Z AUTO 15005KT 10SM SCT028 24/17 A2998 RMK AO1 T02400168
KASN 191835Z AUTO 06004KT 10SM SCT035 20/11 A3009 RMK AO2 T01950109
KAST 191811Z AUTO 16014G19KT 10SM -RA SCT019 BKN025 OVC038 07/04 A2942 RMK AO2 P0000 T00670039
KASW 191835Z AUTO 26006KT 10SM CLR 14/05 A3006 RMK AO2
KASX 191753Z AUTO 35006KT 10SM CLR 07/01 A3000 RMK AO2 SLP168 T00720006 10078 21028 58001
KATL 191752Z 32010KT 10SM OVC033 18/10 A3010 RMK AO2 SLP189 T01780100 10183 20117 58001
KATP 191835Z AUTO 12013KT 8SM CLR 23/22 A3002 RMK A01
KATS 191835Z AUTO 22014G22KT 10SM CLR 15/M01 A2987 RMK AO2
KATT 191751Z AUTO 16007G18KT 130V190 9SM SCT025 SCT034 BKN043 26/19 A2986 RMK AO2 SLP101 T02560194 10261 20206 58006
KATW 191745Z 13006KT 10SM SCT120 12/00 A3003
KATY 191753Z AUTO 15016G24KT 10SM CLR 10/06 A2971 RMK AO2 SLP070 T01000056 10100 20039 58007
KAUG 191753Z AUTO 23006KT 10SM BKN065 OVC080 11/M01 A2957 RMK AO2 SLP016 T01111006 10117 20011 56008
KAUH 191835Z AUTO 18017G23KT 10SM CLR 19/09 A2978 RMK AO2 T01890093
KAUM 191837Z AUTO 16008KT 10SM CLR 12/06 A2992 RMK AO2
KAUN 191835Z AUTO 15007KT 10SM BKN060 09/04 A2986 RMK AO1
KAUO 191756Z AUTO 36010KT 10SM SCT040 21/11 A3009 RMK AO2 SLP208 60000 T02110106 10211 20128 58007
KAUS 191753Z 15018KT 9SM BKN027 BKN035 OVC250 26/19 A2984 RMK AO2 SLP097 T02610194 10267 20206 58007
KAUW 191754Z AUTO 00000KT 10SM CLR 11/M01 A3000 RMK AO2 SLP170 T01111006 10111 21017 50003
KAVC 191836Z AUTO 19005KT 10SM CLR 21/07 A2999 RMK AO2 T02060072
KAVK 191830Z AUTO 14011KT 7SM OVC010 15/15 A2987 RMK AO2
KAVL 191754Z 32018KT 10SM SCT030 14/05 A3010 RMK AO2 PK WND 32027/1741 SLP186 T01440050 10150 20078 50013
KAVP 191754Z 25009KT 9SM CLR 14/04 A2983 RMK AO2 SLP099 T01440044 10144 20078 58005
KAVQ 191835Z AUTO 17003KT 10SM BKN030 OVC070 13/07 A2997 RMK AO2 T01280074
KAVX 191759Z AUTO 25006KT 4SM BR BKN007 OVC011 10/09 A2995 RMK AO2 CIG 004V010 T01000089 TSNO
KAWG 191835Z AUTO 14009KT 9SM CLR 21/05 A2999 RMK AO2
KAWM 191753Z AUTO 17006KT 10SM CLR 21/14 A3009 RMK AO2 SLP188 T02060139 10206 20067 58001 $
KAWO 191835Z AUTO 13009G14KT 10SM FEW039 SCT049 BKN055 08/02 A2947 RMK AO1
KAXA 191835Z AUTO 14013KT 10SM CLR 15/11 A2987 RMK AO2
KAXH 191835Z AUTO 12012G19KT 10SM OVC019 24/20 A2993 RMK AO2 T02350195
KAXN 191753Z AUTO 13012KT 10SM CLR 09/05 A2982 RMK AO2 SLP109 T00890050 10089 20028 58010
KAXS 191835Z AUTO 15007KT 5SM BR OVC008 17/14 A2991 RMK AO2 T01670143
KAXV 191834Z AUTO 26008KT 7SM CLR 16/M01 A3005 RMK AO2
KAXX 191835Z AUTO 26018G23KT 10SM SCT038 BKN049 OVC090 04/M02 A2982 RMK AO2 T00401020
KAYS 191835Z AUTO 34010KT 10SM BKN041 BKN048 25/16 A3003 RMK AO2 T02510157
KAZC 191835Z AUTO 21008KT 10SM -DZ OVC017 07/05 A2988 RMK AO2
KAZE 191835Z AUTO 33003KT 10SM BKN040 BKN047 BKN050 24/14 A3002 RMK AO2 T02370143
KAZO 191753Z 29008KT 10SM CLR 16/M04 A3004 RMK AO2 SLP176 T01611039 10161 21011 50003
KBAB 191758Z AUTO 15014KT 10SM FEW018 BKN036 OVC060 11/07 A2984 RMK AO2 SLP108 T01110072 10111 20080 52014 $
KBAC 191835Z AUTO 13013KT 10SM CLR 05/05 A2965 RMK AO2
KBAD 191828Z AUTO 12008KT 10SM SCT014 20/16 A3001 RMK AO2 SLP165
KBAF 191753Z 27011KT 10SM CLR 13/M01 A2972 RMK AO2 SLP068 T01281006 10133 21033 58006
KBAK 191747Z 20005KT 6SM BR OVC008 10/09 A3011
KBAN 191752Z AUTO 23012G20KT 10SM 04/M04 A2977 RMK AO2 SLP064 60000 T00441044 10044 20006 53020 $
KBAX 191837Z AUTO 32008KT 10SM CLR 11/01 A2999 RMK AO2 T01100005
KBAZ 191751Z 16014G22KT 9SM SCT025 BKN032 OVC040 25/19 A2985 RMK AO2 SLP101 T02500189 10261 20200 58003
KBBB 191834Z AUTO 17014G19KT 10SM CLR 13/04 A2980 RMK AO2
KBBF 191835Z AUTO 15022KT 5SM BR BKN015 OVC021 23/21 A2986 RMK A01
KBBG 191745Z 14005KT 10SM FEW030 SCT250 20/14 A3004
KBBW 191753Z AUTO 19021G34KT 10SM CLR 16/08 A2969 RMK AO2 PK WND 20034/1751 SLP058 T01560078 10161 20028 58013
KBCB 191835Z AUTO 28009KT 10SM SCT026 14/06 A3008 RMK AO2 LTG DSNT SE T01410062
KBCE 191753Z AUTO 14007KT M1/4SM FG VV003 01/M01 A2980 RMK AO2 SNB19E47 SLP049 P0000 60004 T00061006 10006 20000 53017 TSNO
KBCK 191835Z AUTO 16007KT 10SM CLR 16/M03 A2998 RMK AO2 T01601029
KBCT 191750Z 31009G22KT 10SM FEW 040 29/18 3002
KBDE 191753Z AUTO 11007KT 10SM BKN110 04/M01 A2987 RMK AO2 SLP129 T00391011 10039 21006 58008
KBDG 191835Z AUTO 19010KT 10SM SCT019 BKN024 OVC036 05/02 A2990 RMK AO1 T00490017
KBDH 191835Z AUTO 14004G19KT 10SM CLR 13/08 A2982 RMK AO2
KBDL 191751Z 29015G22KT 10SM FEW180 SCT220 13/M01 A2973 RMK AO2 SLP067 4/008 T01281011 10133 20017 58011 $
KBDN 191835Z AUTO 18008KT 4SM -SN SCT002 BKN009 BKN014 02/00 A2955 RMK AO2
KBDR 191752Z 28007KT 10SM CLR 17/02 A2976 RMK AO2 SLP077 T01720017 10172 20033 58011
KBDU 191836Z AUTO 00000KT 10SM CLR 13/M04 A2965 RMK AO2
KBEA 191835Z AUTO 15015G26KT 10SM BKN022 BKN026 OVC040 26/22 A2983 RMK AO2 T02570217
KBED 191756Z 24010KT 10SM CLR 12/M01 A2966 RMK AO2 SLP056 T01171011 10122 20061 58012
KBEH 191753Z AUTO VRB03KT 10SM CLR 13/M01 A3006 RMK AO2 SLP183 T01281006 10128 21022 50008
KBFD 191753Z AUTO 30013G19KT 10SM CLR 13/01 A2991 RMK AO2 SLP126 T01280011 10128 20050 50002
KBFF 191753Z AUTO 15006KT 10SM CLR 09/M01 A2968 RMK AO2 SLP039 T00941006 10094 21022 51006
KBFI 191753Z 15006KT 10SM FEW055 SCT075 BKN090 07/06 A2945 RMK AO2 RAB06E16 SLP973 P0000 60004 T00720056 10078 20039 51015
KBFL 191754Z 00000KT 10SM OVC039 12/06 A2996 RMK AO2 SLP144 T01220056 10122 20100 53019
KBFM 191753Z 04005KT 10SM CLR 22/17 A3010 RMK AO2 SLP193 T02220167 10222 20139 58005
KBFW 191745Z AUTO 12004KT 10SM CLR 07/M01 A2998 RMK AO2
KBGD 191751Z AUTO 18017G22KT 10SM CLR 19/11 A2981 RMK AO2 PK WND 18029/1659 SLP073 T01890111 10189 20078 58008
KBGE 191835Z AUTO 31006KT 10SM SCT045 SCT050 25/15 A3006 RMK AO2 PWINO
KBGF 191835Z AUTO 03005KT 10SM CLR 18/09 A3010 RMK
KBGM 191753Z 30010G15KT 270V340 10SM CLR 11/M01 A2982 RMK AO2 SLP100 T01061011 10106 20039 58001
KBGR 191753Z 26006KT 10SM FEW030 BKN080 10/M01 A2956 RMK AO2 SLP010 4/025 T01001006 10111 21028 55006
KBHB 191756Z AUTO 23011KT 10SM FEW055 BKN080 12/01 A2956 RMK AO2 SLP014 T01170006 10117 20022 56010
KBHC 191835Z AUTO 29007KT 10SM BKN037 BKN049 23/16 A3002 RMK AO2 PNO
KBHK 191751Z AUTO 12008KT 10SM CLR 07/02 A2946 RMK AO2 SLP989 T00720022 10072 21017 56007
KBHM 191753Z 33007KT 10SM FEW040 21/10 A3012 RMK AO2 SLP196 T02060100 10206 20078 58007
KBID 191756Z AUTO 26014KT 10SM CLR 13/03 A2976 RMK AO2 SLP082 T01280033 10133 20078 58006
KBIE 191835Z AUTO 19013G22KT 10SM CLR 21/11 A2985 RMK AO2 T02050113
KBIF 191758Z AUTO 26015KT 10SM CLR 12/M01 A2993 RMK AO2 SLP103 T01221007 10122 20052 52009 $
KBIH 191756Z AUTO 00000KT 10SM CLR 08/02 A2982 RMK AO2 SLP087 T00830022 10083 21017 51024
KBIJ 191835Z AUTO 00000KT 10SM SCT042 SCT050 25/13 A3006 RMK AO2
KBIL 191753Z 23016KT 10SM FEW090 FEW150 SCT250 10/01 A2943 RMK AO2 SLP966 T01000011 10100 20011 58004 $
KBIS 191752Z 11005KT 10SM CLR 04/01 A2954 RMK AO2 SLP017 T00440011 10044 20011 58016
KBIV 191753Z AUTO 25005KT 10SM CLR 14/01 A3005 RMK AO2 SLP178 T01390006 10139 20006 50007
KBIX 191758Z AUTO 12003KT 10SM CLR 25/15 A3008 RMK AO2 SLP189 T02480148 10248 20119 57006
KBJC 191749Z 00000KT 30SM FEW080 SCT120 BKN200 13/M04 A2969
KBJI 191834Z AUTO 11008KT 10SM SCT095 05/00 A2984 RMK AO2 T00460000
KBJJ 191756Z AUTO 30015KT 10SM CLR 16/03 A3001 RMK AO2 SLP165 T01560028 10156 20044 50006
KBKB 191825Z AUTO 10SM FEW009 BKN014 24/18 A2999 RMK AO2 T02390178 $
KBKD 191835Z AUTO 19010KT 3SM HZ SCT027 BKN041 OVC049 24/16 A2986 RMK AO2 T02350158
KBKE 191753Z AUTO 15009KT 10SM FEW070 05/M01 A2955 RMK AO2 SLP016 60000 T00501006 10050 20006 50010
KBKF 191758Z 32006KT 10SM FEW100 SCT150 BKN220 15/M03 A2967 RMK AO2A SLP000 T01481034 10148 20051 58010
KBKL 191753Z 28011KT 10SM CLR 08/02 A3001 RMK AO2 SLP163 T00780022 10106 20061 50012
KBKS 191835Z AUTO 14014G22KT 10SM SCT038 30/19 A2978 RMK AO1 T03020192
KBKT 191835Z AUTO 17004KT 10SM CLR A2994 RMK AO1
KBKV 191753Z 33008KT 10SM CLR 27/13 A3006 RMK AO2 SLP179 T02670133 10267 20150 58010
KBKW 191800Z AUTO 29006KT 7SM OVC010 08/06 A3009 RMK AO2 T00830061
KBKX 191756Z AUTO 16017G23KT 10SM CLR 12/06 A2974 RMK AO2 SLP091 T01170061 10117 20033 58005
KBLF 191752Z AUTO 31006G16KT 10SM BKN008 OVC013 07/06 A3010 RMK AO2 CIG 006V010 SLP189 T00720056 10078 20050 51010
KBLH 191834Z AUTO 21010KT 10SM BKN021 BKN028 16/12 A2991 RMK AO2 T01560122
KBLI 191753Z 12009KT 10SM -RA BKN027 OVC031 07/04 A2942 RMK AO2 RAB14 SLP971 P0001 60001 T00670044 10072 20033 53011
KBLM 191756Z AUTO 28012KT 10SM CLR 19/02 A2982 RMK AO2 SLP103 T01890022 10211 20133 58006 $
KBLU 191752Z AUTO 16010KT 10SM BKN026 OVC034 01/M04 A2982 RMK AO2 SLP098 60001 T00061044 10011 21022 53016 TSNO
KBLV 191828Z AUTO 09005KT 9SM OVC005 12/12 A3007 RMK AO2
KBMC 191835Z AUTO 19009KT 10SM 09/04 A2970 RMK AO1 T00910037
KBMG 191753Z 14004KT 5SM HZ OVC006 11/08 A3010 RMK AO2 SLP192 T01060078 10106 20083 50001
KBMI 191756Z 20007KT 10SM CLR 14/09 A3007 RMK AO2 SLP212 60000 T01390089 10139 20017 58001
KBML 191752Z AUTO 31006G16KT 10SM BKN035 OVC045 08/M01 A2962 RMK AO2 SLP040 T00781006 10094 20056 53012
KBMQ 191753Z AUTO 15012G24KT 8SM FEW021 BKN036 OVC048 23/17 A2988 RMK AO2 SLP102 T02330172 10233 20189 58005
KBMT 191835Z AUTO 12011G18KT 10SM OVC013 24/20 A2997 RMK AO2 T02430196
KBNA 191753Z 04005KT 10SM OVC020 17/10 A3012 RMK AO2 SLP198 T01670100 10178 20072 58006
KBNL 191835Z AUTO 31010KT 10SM CLR 23/10 A3001 RMK AO2
KBNO 191833Z AUTO 19005KT 3SM -SN BR BKN017 OVC032 01/00 A2960 RMK AO2 SNB1758 P0002 T00060000 $
KBNW 191835Z AUTO 16012KT 10SM CLR 17/11 A2990 RMK AO2
KBOI 191753Z 14009KT 10SM FEW065 BKN090 BKN110 08/03 A2960 RMK AO2 SLP023 T00780028 10078 20033 50003
KBOK 191756Z AUTO VRB05KT 10SM -RA FEW019 BKN047 OVC055 09/06 A2964 RMK AO2 RAB48 SLP053 P0000 60008 T00940061 10094 20072 51016
KBOS 191754Z 25019G27KT 10SM SCT160 BKN200 13/01 A2967 RMK AO2 PK WND 25027/1753 SLP047 T01330011 10139 20050 58013
KBOW 191747Z 29009KT 10SM BKN025 25/17 A3006
KBPC 191835Z AUTO 17017G23KT 10SM CLR 18/10 A2980 RMK AO2
KBPG 191835Z AUTO 23007KT 10SM CLR 20/05 A2987 RMK AO2 T01980053
KBPI 191753Z AUTO 19015KT BKN110 01/00 A2965 RMK AO2 SLP027 60000 T00060000 10006 21017 50000 $
KBPK 191753Z AUTO 16008KT 130V190 10SM OVC018 19/13 A3005 RMK AO2 SLP170 T01890133 10189 20061 50003
KBPT 191753Z 13012G20KT 10SM OVC009 23/19 A2998 RMK AO2 SLP153 T02330194 10233 20194 58000 $
KBQK 191835Z AUTO 26011G16KT 10SM SCT040 25/15 A3003 RMK AO2
KBQP 191835Z AUTO 00000KT 10SM CLR 22/15 A3005 RMK AO2 T02240150
KBQX 191835Z AUTO 11007KT 5SM HZ SCT015 A2991 RMK A01
KBRD 191753Z AUTO 11005KT 10SM SCT110 07/02 A2987 RMK AO2 SLP127 I6000 T00720017 10078 21028 58015
KBRL 191753Z AUTO 17006KT 10SM CLR 18/08 A3002 RMK AO2 SLP167 T01780083 10178 20017 50002
KBRO 191753Z 16022G29KT 10SM OVC024 27/22 A2983 RMK AO2 PK WND 15034/1738 SLP101 T02720217 10283 20233 58002
KBTA 191835Z AUTO 16016G19KT 10SM CLR 19/10 A2984 RMK AO2 T01860104
KBTL 191753Z 27008KT 10SM CLR 15/M01 A3003 RMK AO2 SLP172 T01501011 10156 20039 50004
KBTM 191753Z AUTO 13009KT 10SM FEW070 OVC100 02/M02 A2952 RMK AO2 SLP995 60000 T00171017 10033 20011 51012
KBTP 191835Z AUTO 27010G15KT 250V310 10SM CLR 16/05 A2998 RMK AO1
KBTR 191809Z 08005KT 10SM BKN012 21/16 A3007 RMK AO2 T02060161
KBTV 191754Z 32009KT 10SM BKN050 BKN060 09/M01 A2971 RMK AO2 SLP062 4/008 T00891006 10100 20050 53013
KBUF 191754Z 23013KT 10SM FEW130 FEW170 FEW250 08/03 A2991 RMK AO2 SLP133 T00780028 10078 20011 50002
KBUR 191804Z 13010KT 10SM -RA BKN007 BKN020 OVC025 12/10 A2995 RMK AO2 CIG 007V012 P0000 T01170100
KBUU 191835Z AUTO 21007KT 180V240 10SM CLR 17/00 A3005 RMK AO2 T01730000
KBUY 191754Z AUTO 34011KT 10SM CLR 21/06 A2998 RMK AO2 SLP150 T02060061 10211 20072 57001 TSNO
KBVE 191751Z AUTO 07007KT 10SM OVC006 20/19 A3008 RMK AO2 SLP186 T02000194 10206 20156 58003
KBVN 191835Z AUTO 18013G23KT 10SM CLR 17/09 A2976 RMK AO2 T01730093
KBVO 191825Z AUTO 18007KT 9SM OVC010 17/13 A2995 RMK AO2 T01720133 TSNO
KBVS 191835Z AUTO 13011G22KT 10SM FEW031 BKN037 BKN090 08/04 A2944 RMK A01
KBVU 191835Z AUTO 15011KT 10SM 13/10 A2987 RMK AO2
KBVX 191835Z AUTO 15007KT 10SM OVC022 19/13 A3007 RMK AO1
KBVY 191753Z 24011KT 10SM CLR 12/01 A2966 RMK AO2 SLP038 T01170011 10117 20044 58012
KBWD 191835Z AUTO 14011KT 5SM HZ FEW025 OVC049 22/18 A2985 RMK AO2
KBWG 191753Z AUTO 21007KT 9SM OVC017 16/11 A3012 RMK AO2 SLP196 T01610111 10161 20083 58004
KBWI 191754Z 28012G18KT 10SM FEW100 SCT250 21/06 A2988 RMK AO2 SLP118 60000 T02060061 10206 20133 58004
KBWP 191835Z AUTO 13016G20KT 10SM CLR 10/05 A2971 RMK AO1
KBWW 191835Z AUTO 20007KT 10SM CLR 12/03 A2936 RMK AO2
KBXA 191835Z AUTO 00000KT 10SM CLR 26/12 A3008 RMK AO2 T02640123
KBXK 191835Z AUTO 18007KT 8SM BKN014 BKN028 BKN035 13/13 A2995 RMK AO1
KBYG 191753Z AUTO 16012G17KT 10SM CLR 14/M02 A2946 RMK AO2 PK WND 17026/1704 SLP942 T01391017 10139 20061 56009
KBYI 191753Z AUTO 21004KT 10SM FEW041 SCT070 SCT080 08/03 A2965 RMK AO2 RAB07E25 SLP026 P0000 60003 T00830028 10083 20039 51009 $
KBYL 191835Z AUTO 15005KT 10SM SCT024 15/09 A3012 RMK AO1
KBYS 191755Z AUTO 23005KT 10SM CLR 12/05 A2987 RMK AO2 SLP124 WND DATA ESTMD 60001 T01190046 10081 20050 52027
KBYY 191835Z AUTO 13013G19KT 10SM OVC017 25/21 A2990 RMK AO2 T02510211
KBZN 191756Z 30014KT 10SM -RA OVC055 02/01 A2952 RMK AO2 RAB32 SLP011 P0001 60001 T00220011 10039 20011 53018
KC07 191835Z AUTO 22006KT 10SM SCT041 BKN047 02/M07 A2979 RMK AO2
KC09 191835Z AUTO 00000KT 10SM CLR 18/05 A3004 RMK AO2 T01790049
KC29 191835Z AUTO 21004KT 10SM CLR 16/01 A3004 RMK AO1 T01560009
KC35 191835Z AUTO 17006KT 10SM CLR 16/00 A3002 RMK AO2 T01550004
KC62 191835Z AUTO 30005KT 10SM CLR 16/01 A3004 RMK AO2 T01600009
KC75 191835Z AUTO 23006KT 10SM CLR 19/03 A3003 RMK AO2 T01880034
KCAD 191835Z AUTO 29003KT 10SM CLR 11/00 A3000 RMK AO2 T01131005
KCAE 191756Z 32009G16KT 10SM FEW045 21/09 A3002 RMK AO2 SLP165 T02060089 10211 20078 58000
KCAG 191753Z AUTO 29003KT 10SM SCT085 05/M01 A2972 RMK AO2 SLP071 T00501006 10050 21033 57007
KCAK 191751Z 29011KT 10SM FEW200 16/04 A3000 RMK AO2 SLP160 T01610044 10161 20022 50005
KCAO 191755Z AUTO 17013KT 10SM OVC100 10/06 A2981 RMK AO2 SLP070 T01000056 10106 20056 55001
KCAR 191838Z AUTO 31005KT 1 3/4SM -SN FEW015 OVC032 01/M03 A2956 RMK AO2 SNB1757 P0001 T00061028
KCAV 191835Z AUTO 15012KT 10SM CLR 15/13 A2990 RMK AO2 PWINO
KCBE 191822Z AUTO 25004G08KT 10SM SCT039 17/06 A3001 RMK AO1
KCBF 191835Z AUTO 17015G22KT 10SM CLR 18/11 A2985 RMK AO2
KCBG 191835Z AUTO 14006KT 10SM CLR 15/04 A2989 RMK AO2
KCBK 191835Z AUTO 19019G26KT 10SM CLR 19/06 A2973 RMK AO2
KCBM 191758Z AUTO 02004KT 10SM CLR 20/13 A3011 RMK AO2 SLP199 T02020127 10202 20071 50000 $
KCCA 191835Z AUTO 00000KT 6SM HZ OVC011 16/14 A3006 RMK AO2
KCCO 191835Z AUTO 04008KT 350V050 10SM SCT037 20/12 A3006 RMK AO2 T01970115
KCCR 191753Z 18009KT 10SM SCT030 BKN070 OVC100 13/09 A2984 RMK AO2 SLP091 60004 T01280089 10128 20094 51006
KCCU 191835Z AUTO 15012G18KT 10SM SCT030 SCT036 SCT044 01/M07 A2983 RMK AO2
KCCY 191835Z AUTO 14012KT 10SM CLR 14/09 A2994 RMK AO2
KCDA 191835Z AUTO 25011G19KT 210V270 10SM BKN035 BKN041 OVC048 06/00 A2968 RMK AO2 T00631004
KCDC 191753Z AUTO 21011KT 10SM OVC050 06/02 A2979 RMK AO2 SLP065 T00610017 10061 20028 53018
KCDD 191825Z AUTO 00000KT 10SM CLR 07/M01 A2995 RMK AO2
KCDH 191835Z AUTO 23003KT 10SM CLR 24/14 A3004 RMK AO2
KCDI 191832Z AUTO 24005KT 10SM CLR 14/07 A3005 RMK AO2 T01430067
KCDJ 191752Z AUTO 16007KT 19/11 A2999 RMK AO1 SLP157 T01890111 10189 20022 58006
KCDN 191835Z AUTO 29009G14KT 10SM CLR 20/09 A3002 RMK AO2
KCDR 191753Z AUTO 27003KT 10SM CLR 17/01 A2959 RMK AO2 SLP012 T01720006 10172 20006 56009
KCDS 191753Z AUTO 17012KT 10SM CLR 17/12 A2986 RMK AO2 SLP101 T01720122 10172 20094 58005
KCDW 191753Z 31008KT 10SM CLR 17/02 A2981 RMK AO2 SLP099 T01670022 10167 20033 58004
KCEC 191756Z AUTO A2965 RMK AO2 SLPNO 52020 PWINO $
KCEF 191758Z 30015G23KT 10SM FEW250 13/M01 A2970 RMK AO2A SLP065 4/006 T01261007 10129 20026 58008
KCEU 191754Z AUTO 33006KT 10SM SCT050 20/06 A3005 RMK AO2 SLP171 T02000061 10211 20094 50003
KCEW 191753Z AUTO 10SM CLR 24/14 A3009 RMK AO2 SLP186 T02390139 10250 20111 58012
KCEY 191615Z AUTO 00000KT 10SM BKN006 14/14 A3011 RMK AO1
KCEZ 191753Z AUTO 10SM FEW022 BKN036 OVC045 03/03 A2986 RMK AO2 RAE09B34E45UPB09E50 SLP082 P0001 60009 T00330028 10050 20017 52018
KCFD 191835Z AUTO 13018G24KT 10SM OVC028 26/19 A2990 RMK AO2 T02560193
KCFE 191834Z AUTO 12006KT 10SM CLR 14/04 A2989 RMK AO2 T01350038
KCFS 191835Z AUTO 30005KT 10SM CLR 13/02 A3000 RMK AO2 T01310020
KCFV 191813Z AUTO 18014KT 8SM OVC015 18/13 A2997 RMK AO2 T01780133
KCGC 191835Z AUTO 29004KT 10SM SCT032 25/17 A3005 RMK AO2
KCGE 191817Z AUTO 31006KT 10SM CLR 18/07 A2988 RMK AO1
KCGF 191745Z 30012G22KT 20SM SKC 12/04 A3002
KCGI 191753Z 17003KT 8SM OVC005 13/11 A3011 RMK AO2 SLP195 T01280111 10128 20094 50002
KCGS 191821Z AUTO 25006KT 10SM CLR 19/05 A2989 RMK AO1
KCHA 191753Z 02008KT 10SM FEW024 SCT035 17/09 A3012 RMK AO2 SLP195 60000 T01720094 10172 20106 58006
KCHD 191747Z 13012KT 10SM FEW015 OVC030 13/10 A2996
KCHK 191835Z AUTO 18009KT 21/16 A2988 RMK AO2 SKY OBSCURED PWINO
KCHO 191753Z 33010KT 10SM CLR 22/06 A2994 RMK AO2 SLP132 T02170061 10222 20111 56002
KCHS 191756Z 31008G19KT 10SM SCT046 23/09 A2999 RMK AO2 SLP156 T02330089 10233 20094 58013
KCIC 191812Z 11010G18KT 5SM -RABR BKN018 OVC038 08/08 A2984
KCID 191752Z 16009KT 10SM CLR 17/04 A2999 RMK AO2 SLP158 I6001 T01670039 10172 21022 58004
KCIN 191835Z AUTO 16013KT 10SM CLR 19/11 A2986 RMK AO2
KCIR 191835Z AUTO 15003KT 5SM BR OVC003 11/11 A3011 RMK AO2 T01130113
KCIU 191756Z AUTO 33009KT 10SM CLR 05/M02 A2999 RMK AO2 SLP186 T00501017 10050 20006 51015
KCJR 191835Z AUTO 28006KT 10SM CLR 22/07 A2993 RMK AO2 T02210074
KCKB 191753Z 25007KT 7SM OVC012 10/07 A3006 RMK AO2 SLP175 T01000072 10106 20083 50005
KCKC 191833Z AUTO 15005KT 10SM BKN110 04/M04 A3000 RMK AO2
KCKF 191835Z AUTO 00000KT 10SM SCT035 SCT042 23/13 A3006 RMK AO2 T02320129
KCKI 191835Z AUTO 34004KT 10SM CLR 21/08 A2999 RMK AO2
KCKN 191835Z AUTO 14013KT 10SM CLR 06/03 A2974 RMK AO2
KCKP 191835Z AUTO 17015G22KT 10SM CLR 18/11 A2982 RMK AO2 T01800110
KCKV 191804Z AUTO 00000KT 10SM FEW017 17/12 A3011 RMK AO2 T01670117 $
KCKZ 191835Z AUTO 31009G15KT 250V330 10SM CLR 18/02 A2984 RMK AO2
KCLE 191751Z 29013KT 10SM FEW250 17/01 A3002 RMK AO2 SLP167 T01670006 10167 20067 50008
KCLI 191835Z AUTO 21004KT 10SM CLR 11/00 A3003 RMK AO2
KCLK 191855Z AUTO 17009KT 4SM BR BKN004 BKN007 OVC018 15/14 A2990 RMK AO2
KCLL 191806Z 14018G26KT 9SM BKN026 BKN035 OVC044 26/19 A2988 RMK AO2 PK WND 15026/1758 T02560194
KCLM 191823Z AUTO 00000KT 10SM BKN011 BKN065 07/04 A2937 RMK AO2 T00670044
KCLS 191835Z AUTO 18009G14KT 7SM -RA SCT020 SCT029 BKN035 06/05 A2947 RMK AO2
KCLT 191752Z 02007KT 10SM FEW046 20/06 A3004 RMK AO2 SLP168 T02000061 10200 20039 50005
KCLW 191835Z AUTO 31007KT 10SM CLR 23/18 A3005 RMK AO2
KCMA 191755Z 00000KT 10SM CLR 14/11 A2994 RMK AO2 SLP146 T01440106 10144 20089 53025
KCMD 191835Z AUTO 00000KT 10SM CLR 20/09 A3013 RMK AO2 T01960094
KCMH 191829Z 23009KT 7SM BKN015 13/07 A3007 RMK AO2 T01280067
KCMI 191753Z 20004KT 8SM CLR 14/09 A3008 RMK AO2 SLP185 T01440089 10144 20083 58003
KCMR 191835Z AUTO 20010G19KT 10SM BKN013 BKN045 BKN050 04/01 A2990 RMK AO2
KCMX 191753Z AUTO 00000KT 10SM CLR 07/M03 A3002 RMK AO2 SLP173 T00721028 10072 21033 51019
KCMY 191835Z AUTO 17009KT 10SM CLR 16/M01 A3001 RMK AO2 T01621008
KCNB 191835Z AUTO 19008G16KT 170V250 10SM CLR 17/08 A2975 RMK AO2 T01720078
KCNC 191835Z AUTO 20011KT 10SM CLR 20/10 A2994 RMK AO2
KCNI 191835Z AUTO 28006KT 10SM BKN032 OVC039 17/06 A3008 RMK AO2
KCNK 191755Z AUTO 17009KT 8SM CLR 16/12 A2987 RMK AO2 SLP110 T01560122 10156 20078 57002
KCNM 191753Z AUTO 26010KT 10SM CLR 15/01 A2987 RMK AO2 SLP083 T01500011 10150 20100 50010
KCNO 191753Z 26004KT 10SM SCT017 BKN030 BKN060 15/10 A2995 RMK AO2 SLP141 T01500100 10150 20117 51029
KCNU 191752Z AUTO 19014KT 9SM OVC010 16/13 A2997 RMK AO2 SLP147 T01610128 10161 20061 56003 $
KCNY 191812Z AUTO 36005KT 10SM BKN012 OVC019 06/06 A2975 RMK AO2 T00610056
KCOD 191756Z AUTO 27011G17KT 10SM CLR 10/M03 A2951 RMK AO2 SLP990 T01001028 10100 21017 58000
KCOE 191828Z AUTO 15006KT 10SM FEW004 OVC017 03/01 A2955 RMK AO2
KCOF 191758Z AUTO 34008KT 10SM FEW028 23/18 A3005 RMK AO2 SLP180 60003 T02340180 10234 20195 58007 $
KCOM 191835Z AUTO 16013KT 7SM BKN019 BKN024 BKN060 21/17 A2986 RMK AO2 T02140166
KCON 191751Z AUTO 29010G14KT 10SM CLR 12/M01 A2964 RMK AO2 SLP038 T01221006 10128 21033 58010
KCOQ 191835Z AUTO 09006KT 10SM CLR 07/M02 A2994 RMK AO2
KCOS 191754Z 14013KT 10SM FEW090 BKN200 BKN250 12/M05 A2973 RMK AO2 SLP038 T01171050 10122 20006 58010
KCOT 191753Z AUTO 15007KT 7SM FEW025 BKN036 26/18 A2981 RMK AO2 SLP087 T02610183 10261 20222 50006 $
KCOU 191754Z 14010KT 10SM CLR 21/11 A3002 RMK AO2 SLP162 T02110106 10211 20067 58005
KCPC 191830Z AUTO 28003KT 10SM CLR 21/08 A2996 RMK AO2 T02070082
KCPK 191835Z AUTO 35005KT 10SM CLR 20/06 A2991 RMK AO2 LTG DSNT S T02030056
KCPR 191753Z 21028G39KT 10SM CLR 12/M01 A2958 RMK AO2 PK WND 21040/1734 SLP987 T01221006 10128 20028 56010
KCPS 191753Z 14005KT 10SM CLR 17/11 A3007 RMK AO2 SLP183 T01720111 10172 20039 50000
KCPT 191835Z AUTO 13013KT 5SM BR BKN017 BKN027 BKN049 23/21 A2989 RMK AO2
KCPU 191835Z AUTO 16009KT 10SM OVC070 11/04 A2988 RMK AO2 T01050041
KCPW 191835Z AUTO 20019G28KT M1/4SM +SN OVC003 M07/M07 A2989 RMK AO2
KCQB 191835Z AUTO 19009G17KT 10SM OVC017 18/16 A2992 RMK AO2
KCQC 191753Z AUTO 25016KT 10SM FEW020 04/M03 A2988 RMK AO2 PK WND 23027/1705 SLP098 T00441028 10050 21006 50008
KCQF 191835Z AUTO 00000KT 10SM CLR 26/16 A3006 RMK AO2
KCQM 191836Z AUTO 15005KT 10SM CLR 10/M02 A2992 RMK AO2
KCQT 191812Z AUTO 00000KT 10SM SCT029 OVC035 14/11 A2996 RMK AO2 T01390106
KCQW 191835Z AUTO 32010KT 10SM CLR 19/03 A3000 RMK AO2
KCQX 191752Z AUTO 21005KT 10SM CLR 11/04 A2972 RMK AO2 SLP063 T01060039 10161 20078 50000
KCRE 191753Z 32008KT 10SM CLR 21/09 A2996 RMK AO1 SLP146 T02060089 10211 20089 58014
KCRG 191753Z 36008KT 10SM CLR 23/14 A3005 RMK AO2 SLP175 T02280139 10228 20161 58013
KCRP 191751Z 15019G29KT 9SM BKN017 BKN027 OVC036 26/21 A2984 RMK AO2 PK WND 15030/1654 SLP103 T02560211 10267 20228 50001 $
KCRQ 191837Z AUTO 24008KT 10SM FEW018 SCT024 OVC033 13/10 A2999 RMK AO2 RAE18 P0000 T01330100
KCRS 191833Z AUTO 15010KT 6SM HZ SCT020 BKN025 OVC030 23/19 A2991 RMK AO2 T02280189
KCRW 191833Z 23007KT 8SM SCT009 OVC019 12/07 A3009 RMK AO2 T01170072
KCRX 191835Z AUTO VRB03KT 10SM CLR 21/11 A3010 RMK AO2
KCSG 191751Z 02007KT 330V050 10SM SCT038 21/11 A3007 RMK AO2 SLP180 T02110111 10211 20117 58008
KCSM 191832Z AUTO 18014KT 10SM BKN006 OVC012 16/13 A2988 RMK AO2 CIG 003V008 T01610133
KCSQ 191835Z AUTO 17012G18KT 10SM CLR 19/10 A2992 RMK AO2
KCSV 191753Z AUTO 00000KT 10SM CLR 14/07 A3013 RMK AO2 SLP197 T01440072 10144 20089 58002
KCTB 191756Z AUTO 25015KT 10SM CLR 07/M02 A2941 RMK AO2 SLP973 T00671022 10067 21006 51016
KCTJ 191835Z AUTO 36007KT 10SM SCT035 19/11 A3011 RMK AO2 T01930105
KCTY 191835Z AUTO 34003KT 10SM CLR 25/14 A3005 RMK AO2
KCTZ 191830Z AUTO 29010G14KT 10SM CLR 21/08 A2996 RMK AO2 T02080077
KCUB 191753Z AUTO 31007G14KT 10SM CLR 21/08 A3003 RMK AO2 SLP169 T02060078 10206 20078 58002
KCUH 191835Z AUTO 18012G19KT 10SM OVC016 20/15 A2991 RMK AO2 T01970145
KCUL 191835Z AUTO 16004KT 3SM BR OVC004 11/11 A3011 RMK AO2 T01130109
KCUT 191753Z AUTO 24015G22KT 10SM CLR 12/M02 A2961 RMK AO2 SLP993 T01221022 10122 20056 53001
KCVB 191835Z AUTO 14015KT 10SM SCT024 SCT034 SCT041 26/18 A2983 RMK AO2 T02590181
KCVC 191835Z AUTO 33011KT 10SM SCT042 21/09 A3004 RMK AO2
KCVG 191752Z 24003KT 8SM BKN010 OVC011 11/08 A3010 RMK AO2 SLP190 T01110078 10111 20089 50004
KCVH 191825Z AUTO 15010KT 10SM FEW043 FEW085 12/08 A2992 RMK AO1
KCVN 191835Z AUTO 20004KT 10SM FEW110 13/04 A2984 RMK AO1
KCVO 191835Z 17015KT 10SM 08/05 A2954 RMK AO1
KCVS 191758Z AUTO 20004KT 10SM BKN100 OVC130 14/05 A2984 RMK AO2 SLP076 T01370052 10137 20039 53000 $
KCVW 191840Z AUTO 11012G17KT 10SM FEW006 FEW010 21/20 A2999 RMK A01
KCVX 191834Z AUTO 29006KT 10SM CLR 06/01 A3007 RMK AO2 T00640010
KCWA 191745Z 00000KT 10SM SCT200 09/01 A3003
KCWC 191835Z AUTO 17011KT 10SM SCT037 BKN044 OVC050 22/17 A2989 RMK AO2 T02160165
KCWF 191750Z 11011KT 7SM OVC010 22/20 A3002
KCWI 191756Z AUTO 18005KT 10SM CLR 16/06 A3005 RMK AO2 SLP204 T01610056 10161 21028 50004
KCWN 191758Z AUTO 12009KT 10SM BKN180 10/M05 A2969 RMK AO2 SLP929 T01041048 10104 20041 55007
KCWV 191835Z AUTO 25008G14KT 10SM SCT041 SCT050 22/14 A3002 RMK AO2 T02220140
KCXE 191835Z AUTO 32006KT 10SM CLR 20/05 A2996 RMK AO1 T02030047
KCXO 191826Z 14011G20KT 3SM BR OVC010 22/20 A2994 RMK AO2 CIG 007V015 T02170200
KCXU 191835Z AUTO 34003KT 10SM BKN039 BKN048 25/16 A3006 RMK AO2 T02540155
KCXY 191756Z 31013KT 10SM CLR 20/03 A2987 RMK AO2 SLP115 T02000028 10200 20122 58007
KCYS 191753Z 16011KT 10SM SCT120 11/M03 A2970 RMK AO2 SLP035 T01061033 10117 20028 50004
KCZL 191835Z AUTO 01006KT 10SM SCT029 18/09 A3009 RMK AO2 T01790087
KCZT 191835Z AUTO 13004KT 7SM SCT029 25/18 A2978 RMK AO2
KCZZ 191752Z AUTO 23009KT 08/07 A2992 RMK AO1 SLP121 60002 T00830067 10083 20061 53022
KD07 191756Z AUTO 16014KT 11/03 A2949 RMK AO1 SLP995 T01060028 10111 20028 56012
KD25 191835Z AUTO 00000KT 10SM CLR 09/M02 A2998 RMK AO2 T00881017
KD39 191832Z AUTO 12011G16KT 10SM CLR 11/05 A2983 RMK AO2 T01090052
KD50 191835Z AUTO 10016KT 10SM OVC004 00/00 A2956 RMK AO2
KD57 191835Z AUTO VRB04KT 10SM CLR 07/01 A2949 RMK AO2
KD60 191815Z AUTO 10011KT 3/4SM BR OVC002 00/00 A2953 RMK AO2
KD95 191834Z AUTO 28008KT 10SM CLR 14/01 A3000 RMK AO2 T01360008
KDAA 191758Z AUTO VRB06KT 10SM CLR 20/07 A2991 RMK AO2 SLP132 T01970067 10197 20108 58001
KDAB 191753Z 01006KT 10SM BKN032 BKN045 23/15 A3005 RMK AO2 SLP176 60000 T02330150 10244 20172 58010
KDAG 191750Z AUTO 26013G20KT 10SM BKN038 BKN047 14/06 A2986 RMK AO2 SLP100 T01390061 10144 20072 52028
KDAL 191802Z 14010KT 5SM HZ SCT012 BKN021 OVC029 22/18 A2990 RMK AO2 T02220183
KDAN 191753Z AUTO 36009KT 10SM CLR 19/07 A2999 RMK AO2 SLP147 T01940072 10194 20050 50004
KDAW 191751Z AUTO 10SM CLR 13/01 A2962 RMK AO2 SLP027 T01330006 10133 20033 58013
KDAY 191824Z 23006KT 6SM HZ SCT012 12/07 A3008 RMK AO2 T01220072
KDBN 191835Z AUTO 30009KT 10SM SCT032 SCT039 SCT050 21/11 A3006 RMK AO2
KDBQ 191753Z 20009KT 10SM CLR 14/04 A3003 RMK AO2 SLP173 T01440044 10144 21006 50004
KDCA 191752Z 35006KT 10SM FEW110 20/07 A2991 RMK AO2 SLP127 T02000067 10206 20128 58003
KDCM 191835Z AUTO 00000KT 10SM SCT045 19/06 A3004 RMK AO2 LTG DSNT E AND SE
KDCU 191753Z AUTO VRB03KT 10SM CLR 19/12 A3012 RMK AO2 SLP197 T01940117 10194 20050 58004
KDCY 191835Z AUTO 19004KT 7SM OVC011 12/09 A3011 RMK AO2 T01220088
KDDC 191752Z AUTO 16014KT 9SM CLR 17/09 A2982 RMK AO2 SLP086 T01670089 10172 20061 58012
KDDH 191754Z AUTO 25007G18KT 210V280 10SM CLR 10/00 A2973 RMK AO2 SLP068 T01000000 10100 20056 58007
KDEC 191754Z 21005KT 9SM FEW007 13/09 A3007 RMK AO2 SLP185 T01280094 10128 20078 50001
KDED 191835Z AUTO 33006KT 10SM SCT032 SCT039 BKN047 23/15 A3004 RMK AO2
KDEH 191835Z AUTO 14008KT 10SM CLR 12/06 A2996 RMK AO2
KDEN 191753Z VRB03KT 10SM FEW120 SCT150 BKN220 14/M04 A2967 RMK AO2 SLP005 T01391039 10139 20017 58013
KDEQ 191753Z AUTO 09007KT 3SM BR OVC005 17/17 A3001 RMK AO2 SLP160 T01670167 10167 20139 58001
KDET 191753Z 28009KT 10SM CLR 17/M01 A2998 RMK AO2 SLP152 T01671006 10167 20056 50004
KDEW 191753Z AUTO 15004KT 8SM OVC003 01/00 A2953 RMK AO2 SNE05 SLP015 P0000 60008 T00060000 10006 20000 51013
KDFI 191753Z AUTO 24009KT 10SM CLR 14/04 A3004 RMK AO2 SLP174 T01390039 10139 20011 50002
KDFW 191829Z 14014KT 5SM HZ SCT015 BKN034 OVC047 23/19 A2988 RMK AO2 T02330189
KDGW 191753Z AUTO 23012G23KT 10SM CLR 13/M01 A2959 RMK AO2 PK WND 22029/1713 SLP994 T01331011 10139 20033 58010 $
KDHN 191753Z 34008KT 10SM BKN040 23/15 A3010 RMK AO2 SLP190 T02330150 10233 20128 56010
KDHT 191753Z AUTO 18014KT 10SM BKN110 14/06 A2981 RMK AO2 SLP067 T01440056 10144 20022 58004
KDIJ 191837Z AUTO 16008KT 9SM -SN FEW005 BKN022 OVC070 01/00 A2968 RMK AO2 P0001
KDIK 191756Z AUTO 12005KT 10SM CLR 07/02 A2946 RMK AO2 SLP993 I6005 T00720017 10072 21028 56014
KDKB 191835Z AUTO 18006KT 10SM CLR 17/03 A3006 RMK AO2 T01700029
KDKK 191753Z AUTO 24014KT 10SM CLR 10/03 A2994 RMK AO2 SLP139 T01000033 10106 20056 50003
KDKR 191835Z AUTO 15009KT 6SM HZ OVC014 22/19 A2996 RMK AO2
KDLH 191755Z 13009KT 10SM CLR 06/M01 A2996 RMK AO2 SLP161 T00561006 10056 21022 50002
KDLL 191835Z AUTO 19007KT 10SM CLR 14/00 A3002 RMK AO2 T01420001
KDLN 191801Z AUTO VRB05KT 9SM SCT017 03/01 A2953 RMK AO2 SNE1756 P0000 T00280006
KDLO 191835Z AUTO 00000KT 10SM BKN038 10/03 A2996 RMK AO2
KDLP 191835Z AUTO 08013KT 7SM CLR 21/21 A3004 RMK A01
KDLS 191837Z AUTO 00000KT 6SM BR FEW007 BKN014 05/03 A2957 RMK AO2 T00500033
KDLZ 191837Z AUTO 22007KT 10SM CLR 15/07 A3005 RMK AO2
KDMA 191832Z AUTO 18004KT 10SM FEW026 SCT200 12/06 A2997 RMK AO2 DZE1759RAB1759E24DZB24E32
KDMH 191754Z AUTO 21/05 A2988 RMK AO1 SLP119 T02060050 10206 20161 58005
KDMN 191753Z AUTO 21011KT 10SM FEW027 BKN039 09/02 A2997 RMK AO2 SLP120 T00940022 10094 20028 51005
KDMO 191753Z AUTO 14010KT 10SM CLR 23/10 A3000 RMK AO2 SLP154 T02280100 10233 20056 58010
KDMW 191820Z AUTO 28012G16KT 10SM CLR 19/07 A2989 RMK AO2
KDNL 191753Z AUTO 32007KT 10SM FEW046 22/09 A3004 RMK AO2 SLP169 T02220094 10222 20122 58005
KDNN 191835Z AUTO 03009KT 10SM BKN028 16/11 A3010 RMK AO2
KDNS 191835Z AUTO 17015G22KT 10SM CLR 17/11 A2982 RMK AO2
KDNV 191835Z AUTO 00000KT 7SM RA CLR 14/08 A3005 RMK AO2 T01390082
KDOV 191758Z VRB06KT 10SM CLR 20/08 A2984 RMK AO2A SLP108 T02020080 10202 20119 58007 $
KDPA 191752Z 19004KT 10SM CLR 18/M01 A3005 RMK AO2 SLP178 T01781011 10178 21011 51003 $
KDQH 191835Z AUTO 30007KT 280V340 10SM SCT040 23/11 A3005 RMK AO2
KDRA 191755Z AUTO 23018KT 10SM OVC050 11/07 A2982 RMK AO2 SLP079 T01060067 10106 20072 51023
KDRI 191835Z AUTO 13007G16KT 10SM BKN025 24/17 A3002 RMK AO2 T02440171
KDRM 191836Z AUTO 29005KT 10SM CLR 06/M02 A2998 RMK AO2 T00621016
KDRO 191818Z AUTO 24005KT 10SM FEW008 BKN014 OVC031 03/02 A2986 RMK AO2 RAE12 P0001 T00280022
KDRT 191753Z AUTO 16008KT 6SM HZ FEW023 FEW028 FEW035 24/18 A2979 RMK AO2 SLP075 T02440178 10244 20200 50000
KDSM 191754Z 17009KT 10SM BKN300 19/09 A2994 RMK AO2 SLP140 T01940094 10194 20050 58009 $
KDSV 191754Z AUTO 29008KT 240V310 10SM CLR 16/01 A2987 RMK AO2 SLP124 T01560011 10156 20006 58001
KDTA 191835Z AUTO 18016G21KT 10SM SCT037 OVC044 10/03 A2973 RMK AO1
KDTL 191834Z AUTO 14014KT 10SM CLR 07/03 A2978 RMK AO2
KDTN 191839Z 14011KT 10SM SCT015 21/16 A2999 RMK AO2 T02060156
KDTO 191826Z 14009KT 4SM BR BKN010 OVC015 21/19 A2989 RMK AO2 T02060189
KDTS 191753Z AUTO 01004KT 10SM CLR 24/16 A3007 RMK AO2 SLP183 T02440161 10244 20150 58010
KDTW 191753Z 29009KT 10SM FEW200 17/00 A3000 RMK AO2 SLP160 T01670000 10172 20033 50008
KDUA 191835Z AUTO 11009KT 7SM OVC009 18/16 A2995 RMK AO2
KDUB 191835Z AUTO 34009KT 1/2SM -SN BKN006 OVC011 00/00 A2960 RMK AO2
KDUC 191835Z AUTO 15011KT BKN026 OVC033 21/16 A2989 RMK AO2 PWINO TSNO
KDUG 191756Z AUTO 19011KT 10SM SCT028 BKN060 11/02 A2998 RMK AO2 SLP130 T01060022 10106 20017 51013
KDUH 191834Z AUTO 29006KT 260V330 10SM CLR 17/02 A3001 RMK AO2 T01710017
KDUJ 191753Z AUTO 25013KT 10SM CLR 14/04 A2992 RMK AO2 SLP131 T01390044 10139 20044 58005
KDUX 191835Z AUTO 19013KT 10SM CLR 15/06 A2980 RMK AO2 T01460062
KDVK 191835Z AUTO 16003KT 10SM SCT029 16/08 A3011 RMK AO2
KDVL 191756Z AUTO 12012KT 10SM FEW110 03/01 A2965 RMK AO2 SLP070 T00330011 10033 20011 56015
KDVN 191752Z AUTO 16007KT 10SM CLR 18/02 A3003 RMK AO2 SLP172 I6000 T01830022 10183 21011 50001
KDVO 191835Z AUTO 15011KT 10SM FEW029 BKN046 OVC050 12/08 A2984 RMK AO2
KDVP 191834Z AUTO 16014KT 10SM CLR 15/11 A2980 RMK AO2 T01520110
KDVT 191829Z 14007KT 10SM BKN010 BKN014 OVC027 11/11 A2994 RMK AO2 T01110106
KDWH 191753Z 13013G19KT 9SM -RA OVC012 23/20 A2994 RMK AO2 RAB17 SLP136 P0000 60000 T02280200 10239 20211 58003
KDWU 191835Z AUTO 27005KT 10SM OVC017 12/08 A3009 RMK AO1
KDWX 191835Z AUTO 22010G14KT 10SM 09/00 A2973 RMK AO2 T00871004
KDXR 191753Z 27008KT 10SM CLR 13/01 A2978 RMK AO2 SLP085 T01330006 10139 21017 58006
KDYA 191835Z AUTO 31007KT 280V010 10SM 23/13 A3008 RMK AO2 T02310125
KDYB 191835Z AUTO 34007KT 10SM CLR 22/08 A3000 RMK AO1 LTG DSNT E
KDYL 191754Z AUTO 29008G15KT 10SM CLR 19/04 A2983 RMK AO2 SLP100 T01890039 10194 20133 58006 TSNO
KDYS 191813Z AUTO 22010KT 10SM BKN019 BKN024 OVC038 20/16 A2985 RMK AO2 CIG 019V038 SLP088 $
KDYT 191833Z AUTO 00000KT 10SM CLR 03/01 A2999 RMK AO2
KDZB 191835Z AUTO 17009G21KT 10SM SCT028 BKN043 OVC049 24/18 A2986 RMK AO2 T02410177
KE11 191835Z AUTO 26021G28KT 10SM CLR 20/00 A2986 RMK AO2 T01961002
KE16 191835Z AUTO 14009KT 10SM BKN080 BKN090 10/07 A2993 RMK AO2 PWINO PNO
KE38 191835Z AUTO 23012G18KT 10SM BKN065 BKN075 OVC085 15/M01 A2999 RMK AO2 T01491010
KE80 191835Z AUTO 22005KT 10SM SCT033 10/00 A2988 RMK AO2 T01010001
KEAN 191835Z AUTO 23012G17KT 10SM CLR 16/M04 A2961 RMK AO2 T01621038
KEAR 191835Z AUTO 19021G25KT 10SM CLR 19/07 A2976 RMK AO1
KEAT 191755Z AUTO 07003KT 4SM BR OVC002 01/01 A2951 RMK AO2 SNB1657E33 SLP002 P0000 60000 T00060006 10006 20000 51007
KEAU 191756Z 16010KT 10SM CLR 12/03 A2998 RMK AO2 SLP158 I6001 T01220028 10122 21039 58005
KEBA 191835Z AUTO 32005KT 10SM CLR 23/08 A3005 RMK AO2 T02260082
KEBG 191835Z AUTO 15017G23KT 10SM SCT034 SCT042 32/18 A2977 RMK AO2 LTG DSNT W T03210184
KECG 191754Z 34005KT 10SM CLR 21/07 A2991 RMK AO2 SLP127 T02110067 10211 20083 50003
KECP 191753Z 32005KT 10SM CLR 24/14 A3007 RMK AO2 SLP193 T02440139 10244 20111 58011
KECS 191835Z AUTO 14013G19KT 10SM CLR 13/M01 A2958 RMK AO2
KECU 191835Z AUTO 17011G14KT 6SM HZ FEW022 SCT028 23/17 A2986 RMK AO2
KEDC 191835Z AUTO 15015G22KT 10SM BKN027 BKN040 25/19 A2987 RMK AO2
KEDE 191830Z AUTO 34009KT 10SM CLR 22/08 A2991 RMK AO2 T02210078
KEDJ 191815Z AUTO 24008KT 10SM CLR 14/06 A3005 RMK AO1
KEDN 191835Z AUTO 34005KT 10SM SCT046 23/14 A3006 RMK AO2 T02290140
KEDU 191840Z AUTO 16013KT 10SM BKN038 OVC070 11/08 A2989 RMK AO1
KEDW 191758Z 23024KT 90SM FEW040 FEW120 11/05 A2984 RMK AO2A PK WND 24031/53 SLP102 T01120051 10112 20063 52017
KEED 191825Z AUTO 14004KT 10SM FEW018 SCT026 OVC033 15/11 A2990 RMK AO2 T01500106
KEEN 191756Z AUTO 24007KT 10SM CLR 13/M02 A2968 RMK AO2 SLP071 60000 T01331017 10133 21061 56007
KEEO 191753Z AUTO 00000KT 10SM OVC100 05/M01 A2972 RMK AO2 SLP049 T00501006 10050 21022 56007
KEET 191753Z AUTO VRB05KT 10SM CLR 22/10 A3009 RMK AO2 SLP185 T02170100 10217 20094 58009 $
KEFD 191750Z 10012KT 4SM BR OVC005 23/21 A2996
KEFK 191835Z AUTO 27010G19KT 10SM BKN024 OVC032 05/00 A2969 RMK AO2 T00480000
KEFT 191835Z AUTO 15007KT 10SM CLR 16/03 A3003 RMK AO2
KEGE 191750Z 00000KT 10SM BKN085 04/M02 A2977
KEGI 191758Z AUTO 00000KT 10SM CLR 24/14 A3007 RMK AO2 SLP184 T02370144 10238 20097 58013 $
KEGV 191835Z AUTO 00000KT 10SM CLR 10/M03 A3000 RMK AO2 T01041033
KEHA 191828Z AUTO 17018KT 17/06 RMK AO1 /PK WND 23 M T01720056
KEHC 191835Z AUTO 12016KT 5SM HZ BKN014 24/21 A2997 RMK A01
KEHO 191835Z AUTO 34007KT 10SM SCT050 19/07 A3003 RMK AO2 T01930066
KEHR 191835Z 00000KT 10SM OVC008 13/09 A3010 RMK AO1
KEHY 191835Z AUTO 25008KT 10SM CLR 08/M03 A2966 RMK AO2
KEIK 191834Z AUTO 02003KT 10SM CLR 13/M04 A2965 RMK AO2 T01301044
KEIR 191835Z AUTO 14010KT 100V160 5SM BR OVC009 22/21 A3003 RMK A01
KEKM 191752Z 27006KT 10SM CLR 17/M01 A3005 RMK AO2
KEKN 191751Z AUTO 25006KT 10SM OVC013 09/06 A3006 RMK AO2 SLP189 T00940056 10094 20072 50007
KEKO 191756Z AUTO 18010KT 10SM BKN038 BKN070 07/00 A2970 RMK AO2 SLP049 T00670000 10067 20011 50009
KEKQ 191756Z AUTO VRB06KT 10SM CLR 16/09 A3014 RMK AO2 SLP233 T01610089 10161 20056 58004
KEKS 191835Z AUTO 20015G21KT 10SM BKN035 OVC045 06/M02 A2960 RMK A01
KEKY 191756Z AUTO 02007KT 10SM CLR 21/09 A3011 RMK AO2 SLP211 T02060094 10206 20083 58007
KELD 191802Z AUTO 10005KT 10SM SCT016 20/15 A3005 RMK AO2 T02000150
KELK 191835Z AUTO 18010KT 7SM OVC003 14/14 A2986 RMK AO2 T01380138
KELM 191753Z 30019G24KT 10SM CLR 16/M01 A2984 RMK AO2 SLP108 T01611006 10161 21006 58009
KELN 191804Z AUTO 09003KT 4SM UP BR FEW008 OVC021 02/00 A2949 RMK AO2 UPB04SNE04 P0000 T00220000 $
KELO 191834Z AUTO 11003KT 10SM CLR 08/M02 A2994 RMK AO2
KELP 191751Z 25015KT 10SM FEW040 FEW250 12/M01 A2994 RMK AO2 SLP102 T01221011 10122 20067 51009
KELY 191753Z AUTO 21008KT 10SM SCT024 BKN060 06/01 A2977 RMK AO2 SLP056 60002 T00560011 10056 20006 51019
KELZ 191756Z AUTO 31014G23KT 10SM CLR 14/00 A2988 RMK AO2 SLP121 T01390000 10139 20061 58002
KEMK 191835Z AUTO 15019KT 5SM BR CLR 23/21 A2994 RMK A01
KEMM 191830Z AUTO 24011KT 10SM 02/00 A2968 RMK AO2
KEMP 191753Z AUTO 17014KT 5SM BR OVC005 13/12 A2994 RMK AO2 SLP140 T01330122 10133 20056 57002
KEMT 191745Z 00000KT 10SM FEW020 BKN030 14/09 A2997
KEMV 191835Z AUTO 28006KT 10SM CLR 21/07 A2994 RMK AO2 LTG DSNT SE
KEND 191818Z AUTO 16015KT 10SM BKN011 16/16 A2988 RMK AO2 BKN V OVC SLP118 $
KENL 191835Z AUTO 19004KT 7SM CLR 18/12 A3007 RMK AO2 T01780121
KENV 191835Z AUTO 12003KT 10SM CLR 09/02 A2971 RMK AO1
KENW 191753Z 09006KT 10SM CLR 16/M01 A3005 RMK AO2 SLP181 T01561006 10161 20000 50005
KEOK 191835Z AUTO 20003KT 10SM CLR 21/09 A2999 RMK AO2
KEPH 191837Z AUTO 04003KT 5SM BR SCT006 OVC015 01/M01 A2953 RMK AO2 RAB00E04B35E36UPB04E05B25E35SNE00B05E07 P0000 T00111011
KEQA 191835Z AUTO 20011KT 10SM OVC008 16/12 A2991 RMK AO2
KEQY 191753Z AUTO 33010KT 10SM CLR 19/06 A3002 RMK AO2 SLP174 T01940061 10194 20056 50003
KERI 191751Z 27010KT 10SM CLR 09/03 A2997 RMK AO2 SLP151 T00940028 10100 20078 50007
KERV 191835Z AUTO 16014G18KT 7SM BKN020 OVC027 23/19 A2985 RMK AO2 T02310193
KERY 191835Z AUTO 34008KT 290V360 10SM SCT034 06/M02 A3001 RMK AO2 T00581019
KESC 191756Z AUTO 11004KT 10SM CLR 07/M01 A3005 RMK AO2 SLP201 T00721006 10078 20028 51014
KESF 191826Z AUTO VRB03KT 10SM SCT021 23/17 A3004 RMK AO2 T02280172
KEST 191752Z AUTO 15012KT 10SM CLR 11/08 A2985 RMK AO2 SLP117 T01110078 10111 21006 58013
KETB 191835Z AUTO 15005KT 10SM CLR 15/M01 A3004 RMK AO2
KETH 191836Z AUTO 13020G23KT 10SM CLR 10/06 A2972 RMK AO2
KEUF 191758Z AUTO 32006KT 10SM SCT035 23/14 A3006 RMK AO2 SLP177 I1000 I6/// T02330139 10233 20139 58012
KEUG 191754Z 18016KT 10SM BKN035 BKN045 08/05 A2956 RMK AO2 SLP011 60002 T00830050 10089 20056 51018
KEUL 191756Z AUTO 13011G19KT 6SM -RA BR FEW029 BKN047 OVC060 06/03 A2962 RMK AO2 RAB39 SLP037 P0002 60002 T00560033 10067 20000 53008
KEVB 191747Z 05006KT 10SM SCT030 22/18 A3006
KEVM 191834Z AUTO 15006KT 10SM CLR 10/M05 A2994 RMK AO2 T01001049
KEVU 191835Z AUTO 19015KT 10SM CLR 21/04 A2991 RMK AO2
KEVV 191824Z 14003KT 9SM BR OVC010 13/09 A3012 RMK AO2 T01280094
KEVW 191806Z AUTO 22011KT 1/4SM FG BKN003 OVC095 01/M01 A2969 RMK AO2 T00061011 $
KEWB 191753Z 26010KT 10SM CLR 16/02 A2971 RMK AO2 SLP060 T01560022 10161 20072 58002
KEWK 191838Z AUTO 18013KT 7SM OVC006 13/12 A2989 RMK AO2
KEWN 191754Z 33009KT 10SM CLR 21/06 A2993 RMK AO2 SLP134 T02110061 10217 20094 58010 $
KEWR 191751Z 27011G19KT 10SM BKN220 BKN260 19/02 A2981 RMK AO2 SLP092 T01890017 10189 20106 58005 $
KEYE 191753Z AUTO 16004KT 9SM CLR 14/08 A3008 RMK AO2 SLP187 T01390078 10139 20094 50002
KEYF 191835Z AUTO 30009G16KT 10SM CLR 21/08 A2996 RMK AO2 T02090077
KEYW 191753Z 24009KT 10SM CLR 27/22 A3007 RMK AO2 SLP182 T02670222 10272 20233 58009
KEZF 191835Z AUTO 33006KT 10SM CLR 21/09 A2991 RMK AO2 T02110085
KEZM 191835Z AUTO 36007KT 10SM SCT038 24/06 A3007 RMK AO2 T02370061
KEZS 191835Z AUTO 05003KT 10SM CLR 11/00 A3003 RMK AO2 T01050002
KF00 191835Z AUTO 09009KT 5SM BR OVC008 19/17 A2994 RMK AO2
KF05 191835Z AUTO 21008KT 10SM BKN050 20/13 A2988 RMK AO1 T01990131
KF17 191835Z AUTO 14005KT 10SM SCT029 27/19 A2998 RMK AO2 T02660186
KF44 191835Z AUTO 15014G17KT 7SM OVC017 21/17 A2992 RMK AO2
KF46 191835Z AUTO 14007KT 100V160 7SM OVC019 22/19 A2991 RMK AO2 T02210189
KF70 191835Z AUTO 19006KT 10SM SCT011 OVC018 11/08 A2998 RMK AO1
KFAF 191758Z AUTO 29006KT 10SM CLR 23/08 A2988 RMK AO2 SLP121 T02260076 10226 20094 58001
KFAM 191756Z AUTO 17007KT 10SM CLR 20/12 A3007 RMK AO2 SLP181 60000 T02000122 10200 20072 58006
KFAR 191753Z 13017G25KT 10SM CLR 09/04 A2971 RMK AO2 SLP068 T00940044 10094 20039 57018
KFAT 191753Z 00000KT 10SM FEW060 SCT090 SCT130 12/04 A2995 RMK AO2 SLP139 MTNS OBSCD DSNT N-NE-SE T01170044 10117 20089 51021
KFAY 191753Z AUTO 30008KT 10SM CLR 22/07 A2997 RMK AO2 SLP143 T02170072 10217 20100 56007
KFBG 191756Z AUTO 34007KT 10SM CLR 22/06 A2996 RMK AO2 SLP147 T02150062 10216 20096 58005
KFBL 191834Z AUTO 13014KT 10SM CLR 14/06 A2991 RMK AO2
KFBR 191835Z AUTO 24015G18KT 10SM SCT007 BKN030 OVC045 02/02 A2972 RMK AO2 T00200020
KFCH 191835Z AUTO 19003KT 10SM CLR 13/05 A2994 RMK A01
KFCI 191755Z AUTO 03004KT 10SM CLR 21/03 A2994 RMK AO1 10220 20080 54000
KFCM 191753Z 12008KT 10SM CLR 13/04 A2990 RMK AO2 SLP129 I6000 T01330039 10133 21006 56011
KFCS 191758Z AUTO 15005KT 10SM FEW190 12/M04 A2972 RMK AO2 SLP062 T01221043 10124 20017 57007 $
KFDK 191747Z 31012G17KT 10SM SKC 19/07 A2994
KFDR 191827Z AUTO 20003KT 9SM FEW022 BKN034 BKN044 19/16 A2985 RMK AO2 T01940156
KFDW 191835Z AUTO 35010KT 10SM CLR 20/09 A3002 RMK AO1
KFDY 191753Z AUTO 25012KT 10SM CLR 16/06 A3003 RMK AO2 SLP166 T01560056 10156 20056 50005
KFEP 191835Z AUTO 15006KT 10SM CLR 17/05 A3005 RMK AO2 T01660047
KFET 191835Z AUTO 15014G20KT 10SM CLR 19/10 A2983 RMK AO2 T01870099
KFEW 191758Z AUTO 18011KT 10SM BKN120 10/M05 A2972 RMK AO2 SLP056 T01041048 10117 20009 50004 $
KFFC 191753Z AUTO 32005KT 10SM BKN037 BKN046 18/11 A3010 RMK AO2 SLP190 T01830106 10183 20094 58003
KFFL 191835Z AUTO 15005KT 10SM CLR 20/08 A2997 RMK AO2 PWINO
KFFM 191834Z AUTO 13015KT 10SM CLR 11/04 A2976 RMK AO2
KFFO 191758Z 20007KT 5SM BR OVC011 10/09 A3008 RMK AO2A SLP191 T01040089 10104 20072 50006
KFFT 191753Z AUTO VRB05KT 10SM OVC011 12/08 A3010 RMK AO2 SLP194 T01220083 10122 20094 50003
KFFX 191835Z AUTO 29005KT 10SM CLR 15/M02 A3003 RMK AO2 T01451017
KFFZ 191747Z 12010KT 10SM SCT009 BKN020 OVC040 A2992
KFGN 191833Z AUTO 09006KT 10SM SCT095 04/M02 A2987 RMK AO2
KFGX 191815Z AUTO 26005KT 10SM OVC009 10/09 A3012 RMK AO2 T01030086
KFHB 191835Z AUTO 14007KT 10SM SCT034 SCT043 BKN050 22/16 A3002 RMK AO1
KFHR 191753Z AUTO 14014G24KT 10SM OVC018 07/03 A2940 RMK AO2 SLP955 T00720033 10072 20067 53007
KFHU 191758Z AUTO 22008G16KT 10SM BKN035 09/01 A2997 RMK AO2 SLP128 T00900012 10091 20015 52017
KFIG 191754Z AUTO A2991 RMK AO2 SLPNO 57010 PWINO FZRANO $
KFIN 191750Z 04008KT 10SM SCT036 22/17 A3005
KFIT 191752Z AUTO 27006G15KT 10SM CLR 13/00 A2967 RMK AO2 SLP049 T01280000 10133 20028 58009
KFKA 191833Z AUTO 15009KT 10SM CLR 11/04 A2995 RMK AO2 T01090041
KFKL 191835Z 27013G17KT 10SM CLR 14/02 A2998 RMK AO1
KFKN 191835Z AUTO 00000KT 10SM CLR 22/07 A2991 RMK AO2 LTG DSNT S T02150074
KFKR 191835Z AUTO 29005KT 7SM SCT110 17/10 A3009 RMK AO2 T01700095
KFKS 191835Z AUTO 27007KT 10SM CLR 10/01 A3004 RMK AO2 T00980014
KFLD 191753Z AUTO 17003KT 10SM CLR 13/02 A3004 RMK AO2 SLP175 T01280022 10128 21006 50004
KFLG 191819Z 22012KT 2 1/2SM -SN BR SCT008 BKN016 OVC030 00/M01 A2990 RMK AO2 P0000 T00001011
KFLL 191753Z 26013G19KT 10SM SCT044 30/19 A3001 RMK AO2 SLP161 T03000189 10300 20217 58018
KFLO 191753Z VRB05KT 10SM CLR 20/09 A3000 RMK AO2 SLP158 T02000089 10200 20100 58008
KFLP 191835Z 14005KT 10SM BKN024 21/12 A3001 RMK AO1
KFME 191821Z AUTO 28008KT 10SM CLR 20/05 A2991 RMK AO1
KFMH 191835Z 10SM CLR 15/02 A2970 RMK AO2 PWINO FZRANO TSNO WEA/ WIND E30008KT
KFMM 191835Z AUTO 14005KT 10SM CLR 13/M04 A2967 RMK AO2 T01311038
KFMN 191753Z 27007KT 10SM BKN042 08/M01 A2984 RMK AO2 SLP087 60000 T00831006 10083 20044 51016
KFMY 191753Z 31011KT 10SM FEW037 28/19 A3005 RMK AO2 SLP176 T02830194 10294 20206 58011
KFNB 191753Z AUTO 17009KT 10SM CLR 18/10 A2992 RMK AO2 SLP129 T01830100 10183 20050 58003
KFNL 191756Z AUTO VRB03KT 10SM CLR 11/M03 A2969 RMK AO2 SLP036 T01111028 10111 20000 58004
KFNT 191753Z 27007KT 10SM CLR 12/02 A3002 RMK AO2 SLP169 T01220017 10128 20011 51009
KFOA 191835Z AUTO 00000KT 4SM BR OVC007 13/11 A3010 RMK AO2 T01320109
KFOD 191835Z AUTO 18010G14KT 10SM CLR 17/10 A2989 RMK AO1
KFOE 191815Z 16015KT 10SM BKN020 18/12 A2993 RMK AO2 T01830117
KFOK 191753Z 27009KT 10SM CLR 16/01 A2979 RMK AO2 SLP086 T01610011 10167 20022 58008
KFOT 191835Z AUTO 11008KT 1 3/4SM SCT022 10/09 A2969 RMK AO1 P0002
KFOZ 191745Z AUTO 15005KT 10SM CLR 08/M02 A2990 RMK AO2
KFPK 191835Z AUTO 29006KT 10SM CLR 16/00 A3000 RMK AO2 T01631001
KFPR 191753Z VRB06KT 10SM FEW024 BKN033 25/19 A3003 RMK AO2 SLP169 T02500194 10272 20211 58016
KFQD 191830Z AUTO 35008KT 10SM CLR 20/06 A3004 RMK AO2 T01980058
KFRG 191753Z 30009G15KT 10SM CLR 17/01 A2979 RMK AO2 SLP089 T01720011 10172 20044 58007
KFRI 191758Z AUTO 16011KT 10SM OVC012 16/14 A2991 RMK AO2 SLP125 T01570142 10160 20077 58003 $
KFRM 191756Z AUTO 16014KT 10SM CLR 12/07 A2987 RMK AO2 SLP124 T01220072 10122 20000 56014
KFRR 191835Z AUTO 28007KT 10SM CLR 19/06 A2993 RMK AO1
KFSD 191756Z 18016G21KT 10SM BKN200 BKN250 14/09 A2978 RMK AO2 SLP092 T01390094 10139 20044 58002
KFSE 191834Z AUTO 12014KT 10SM CLR 06/01 A2977 RMK AO2
KFSI 191802Z AUTO 16010KT 10SM SCT015 BKN022 BKN029 21/17 A2987 RMK AO2 CIG 012V027 SLP111 $
KFSM 191753Z VRB03KT 10SM FEW027 21/13 A3002 RMK AO2 SLP162 T02060128 10211 20094 50000
KFSO 191835Z AUTO 30005KT 10SM SCT036 SCT060 SCT080 08/00 A2972 RMK AO2 T00840002
KFST 191753Z AUTO 23011KT 10SM SCT110 19/01 A2988 RMK AO2 RAB04E17 SLP082 P0000 60000 T01940011 10194 20094 58002
KFTG 191647Z 00000KT 10SM SCT120 BKN220 14/M03 A2970
KFTK 191823Z AUTO 23003KT 10SM OVC011 13/11 A3008 RMK AO2
KFTN 191835Z AUTO 00000KT 10SM FEW031 28/18 A2977 RMK A01
KFTW 191840Z 13009KT 4SM HZ BKN017 OVC024 23/18 A2987 RMK AO2 T02280183
KFTY 191803Z 31010G16KT 10SM SCT029 SCT038 17/09 A3009 RMK AO2 T01720089
KFUL 191753Z 15006KT 10SM BKN021 OVC037 14/10 A2995 RMK AO2 SLP142 T01440100 10150 20117 51032
KFVE 191753Z AUTO 32006KT 3SM -SN FEW009 SCT012 OVC036 M02/M04 A2954 RMK AO2 SNB39 SLP012 P0000 60000 T10171044 11017 21033 51005
KFVX 191835Z AUTO 00000KT 10SM SCT060 23/06 A2993 RMK AO2 T02280064
KFWA 191754Z 24007KT 7SM CLR 13/07 A3006 RMK AO2 SLP182 T01330072 10133 20061 50004
KFWB 191815Z AUTO 11009G15KT 10SM CLR 22/13 A3001 RMK AO2
KFWC 191835Z AUTO 18003KT 3SM BR OVC006 12/11 A3010 RMK AO1 T01180108
KFWN 191753Z AUTO 29006KT 10SM CLR 15/02 A2981 RMK AO2 SLP095 T01500017 10150 21017 58002
KFWS 191750Z 14010KT 4SM BR OVC011 21/19 A2991
KFWZ 191835Z AUTO 24012G20KT 7SM OVC005 00/00 A2958 RMK AO2
KFXE 191753Z 29010KT 10SM SCT034 SCT060 SCT090 30/17 A3002 RMK AO2 SLP167 T03000172 10311 20217 58018
KFXY 191835Z AUTO 15012KT 10SM CLR 13/08 A2990 RMK AO2
KFYE 191835Z AUTO 00000KT 10SM CLR 22/12 A3009 RMK A01
KFYG 191835Z AUTO 00000KT 10SM CLR 19/11 A3002 RMK AO2
KFYJ 191835Z AUTO 33004KT 10SM SCT080 BKN110 22/05 A2991 RMK AO2 T02160048
KFYM 191835Z AUTO 27004KT 10SM SCT030 19/11 A3010 RMK A01
KFYV 191810Z 17012KT 10SM CLR 21/14 A3001 RMK AO2 WSHFT 1750 T02110144
KFZG 191835Z AUTO 33009KT 10SM SCT036 24/14 A3007 RMK AO2 T02350143
KFZY 191754Z AUTO 29012KT 10SM CLR 09/01 A2985 RMK AO2 SLP109 T00890006 10089 20056 50001
KGAD 191756Z AUTO VRB04KT 10SM CLR 19/13 A3010 RMK AO2 SLP212 T01890128 10189 20094 58011
KGAF 191835Z AUTO 11007KT 10SM CLR 02/02 A2975 RMK AO2
KGAG 191753Z AUTO 19018KT 10SM CLR 16/10 A2987 RMK AO2 SLP103 T01610100 10167 20094 50000 TSNO
KGAI 191835Z AUTO 30012G20KT 10SM CLR 19/06 A2994 RMK AO1
KGAO 191835Z AUTO 09004KT 10SM OVC003 21/19 A3006 RMK AO2 T02110187
KGBD 191809Z AUTO 17015KT 10SM SCT009 15/10 A2985 RMK AO2
KGBG 191835Z AUTO 16004KT 10SM CLR 20/05 A3002 RMK AO2 T01990052
KGBK 191835Z AUTO 09007G12KT 050V110 10SM OVC015 24/22 A3000 RMK A01
KGCC 191753Z AUTO 21027G36KT 10SM CLR 12/01 A2946 RMK AO2 PK WND 23036/1747 SLP959 T01170006 10117 20067 58012 $
KGCD 191835Z AUTO 00000KT 10SM OVC040 06/M01 A2957 RMK AO2 T00571008
KGCK 191754Z 17016G22KT 10SM CLR 19/07 A2978 RMK AO2 SLP073 T01890072 10189 20050 58018
KGCM 191835Z AUTO 18012KT 10SM OVC016 18/14 A2998 RMK AO2
KGCN 191754Z 22011KT 6SM -SN BR OVC005 01/01 A2988 RMK AO2 UPB05E44SNE05B20E31B44 SLP106 P0001 60007 T00060006 10006 20000 51019
KGDB 191832Z AUTO 14014KT 10SM CLR 15/09 A2979 RMK AO2 T01510092
KGDJ 191835Z AUTO 12010G15KT 5SM HZ SCT016 BKN028 OVC033 23/19 A2988 RMK AO2 T02300185
KGDP 191751Z AUTO 24024G33KT 10SM CLR 11/M01 A2992 RMK AO2 PK WND 24035/1739 SLP086 T01111011 10111 20061 51012
KGDV 191756Z AUTO 06004KT 10SM CLR 04/01 A2946 RMK AO2 SLP995 T00390006 10039 21017 56007
KGED 191754Z AUTO 00000KT 10SM FEW120 19/06 A2987 RMK AO2 SLP115 T01940056 10194 20128 58004
KGEG 191825Z 14008KT 1/2SM R21/P6000FT BR OVC002 01/01 A2952 RMK AO2 SFC VIS 1 1/2 VIS NE-E 3/4 T00110006
KGEU 191747Z 06003KT 10SM SCT010 BKN020 OVC030 12/11 A2995
KGEV 191840Z AUTO 29006G14KT 10SM BKN021 11/05 A3007 RMK AO2 T01060045
KGEY 191753Z AUTO 15011KT 10SM CLR 08/01 A2950 RMK AO2 SLP991 T00780006 10083 20017 55001
KGEZ 191839Z AUTO 24004KT 8SM SCT012 13/08 A3008 RMK AO2 T01280078
KGFA 191758Z AUTO 23021G25KT 10SM CLR 11/M02 A2944 RMK AO2 PK WND 23028/15 SLP978 T01051024 10105 20062 52011 TSNO $
KGFK 191753Z 14011KT 10SM BKN120 OVC200 04/00 A2973 RMK AO2 SLP076 4/003 933008 T00440000 10044 20022 58010
KGFL 191753Z AUTO 06004KT 10SM CLR 13/01 A2971 RMK AO2 SLP062 T01330011 10133 21050 58008
KGGE 191835Z AUTO 29007KT 260V330 10SM CLR 22/08 A2998 RMK AO2
KGGG 191753Z 15010KT 10SM BKN026 24/18 A2996 RMK AO2 SLP142 T02390183 10244 20150 56010
KGGI 191835Z AUTO 15008KT 10SM CLR 19/09 A2996 RMK AO2 T01860088
KGGP 191835Z AUTO 22005KT 7SM CLR 13/08 A3008 RMK AO2
KGGW 191828Z AUTO 13008G15KT 2 1/2SM BR OVC002 01/00 A2945 RMK AO2 T00110000 $
KGHB 191835Z AUTO VRB05G12KT 5SM BR CLR 23/23 A3000 RMK A01
KGHG 191835Z AUTO 26008G15KT 230V290 10SM CLR 16/01 A2967 RMK AO2
KGHW 191834Z AUTO 13015G19KT 10SM CLR 11/06 A2981 RMK AO2
KGIC 191835Z AUTO 08003KT 10SM SCT026 SCT034 OVC080 05/03 A2954 RMK AO1
KGIF 191753Z AUTO 31007KT 10SM SCT033 26/16 A3007 RMK AO2 SLP179 60000 T02610161 10261 20189 58009
KGJT 191753Z 29005KT 10SM OVC080 08/03 A2972 RMK AO2 SLP047 T00830033 10083 20017 56004
KGKJ 191753Z AUTO 27008KT 10SM CLR 12/03 A2996 RMK AO2 SLP147 T01220033 10122 20056 50008
KGKT 191835Z AUTO 00000KT 10SM BKN035 OVC042 14/07 A3012 RMK
KGKY 191753Z 14012KT 7SM BKN016 OVC028 22/18 A2989 RMK AO2 SLP117 T02220183 10222 20150 55008
KGLD 191753Z AUTO 19021G27KT 10SM CLR 19/03 A2971 RMK AO2 PK WND 19027/1744 SLP040 T01940028 10194 20067 58002
KGLE 191835Z AUTO 13009KT 1 1/2SM BR OVC002 18/18 A2992 RMK AO2 T01800175
KGLH 191753Z 17005KT 10SM CLR 22/14 A3007 RMK AO2 SLP191 T02170139 10222 20094 58003
KGLR 191753Z AUTO 27005KT 10SM CLR 08/M02 A2999 RMK AO2 SLP165 T00831017 10089 21006 50011
KGLS 191752Z 12014KT 9SM CLR 23/21 A2996 RMK AO2 SLP144 T02330206 10233 20206 58003
KGLW 191830Z AUTO 24006KT 10SM BKN022 17/10 A3010 RMK AO2 T01690099
KGLY 191835Z AUTO 18010KT 10SM CLR 22/09 A2998 RMK AO2
KGMJ 191835Z AUTO 21009G15KT 10SM CLR 23/15 A2998 RMK AO2
KGMU 191753Z 35009KT 10SM -RA BKN045 19/07 A3005 RMK AO2 RAB47 SLP174 P0000 60000 T01940072 10206 20067 50006
KGNA 191756Z AUTO 00000KT 04/01 A3004 RMK AO1 SLP179 T00440006 10050 20000 53012 $
KGNC 191835Z AUTO 24015G22KT 10SM OVC095 19/00 A2986 RMK AO2 T01911002
KGNR 191756Z AUTO 00000KT 03/03 A2952 RMK AO1 SLP009 P0002 60002 T00280028 10061 20028 53007
KGNT 191835Z AUTO 26011KT 10SM SCT038 BKN048 OVC060 06/M04 A2990 RMK AO2 T00641038
KGNV 191753Z 03004KT 10SM FEW041 24/13 A3006 RMK AO2 SLP176 60000 T02440133 10256 20167 58013
KGOK 191753Z AUTO 17012KT 8SM BKN015 19/14 A2991 RMK AO2 SLP125 T01890139 10189 20122 58005
KGON 191756Z 23009KT 10SM CLR 11/04 A2975 RMK AO2 SLP074 T01060039 10139 21006 58005
KGOO 191835Z AUTO 14006KT 10SM BKN039 OVC045 05/03 A2984 RMK AO1
KGOP 191830Z AUTO 15009KT 7SM SCT019 SCT025 BKN047 23/19 A2988 RMK AO2
KGOV 191834Z AUTO 25008KT 10SM CLR 09/00 A3001 RMK AO2 T00931005
KGPI 191755Z 23005KT 10SM OVC090 02/01 A2950 RMK AO2 SLP009 60000 T00220006 10039 20000 53010 $
KGPM 191750Z 12010KT 5SM BR BKN013 BKN021 22/18 A2991
KGPT 191753Z 00000KT 10SM CLR 25/13 A3007 RMK AO2 SLP182 T02500133 10256 20117 58008 $
KGPZ 191756Z AUTO 13006KT 10SM CLR 09/M01 A2992 RMK AO2 SLP144 T00891011 10089 21028 58009
KGRB 191753Z 13003KT 10SM CLR 12/02 A3004 RMK AO2 SLP177 T01220017 10133 20000 51005
KGRD 191756Z AUTO VRB05KT 10SM BKN050 20/08 A3004 RMK AO2 SLP171 T02000083 10200 20083 $
KGRF 191825Z 15009KT 10SM FEW026 SCT031 BKN055 07/07 A2945 RMK AO2A RAE25
KGRI 191753Z 18017KT 10SM CLR 17/11 A2978 RMK AO2 SLP088 T01720106 10172 20072 58012
KGRK 191818Z AUTO 13016KT 7SM BKN020 BKN040 OVC047 24/19 A2985 RMK AO2 CIG 019V028 SLP101
KGRR 191753Z 29008KT 10SM FEW200 14/00 A3002 RMK AO2 SLP170 T01440000 10144 20011 50002
KGRY 191840Z AUTO 14013KT 6SM BR CLR 23/22 A3002 RMK A01
KGSB 191758Z AUTO 34006KT 10SM CLR 21/05 A2992 RMK AO2 SLP134 T02120048 10213 20085 58005 $
KGSH 191753Z AUTO 22008KT 10SM CLR 15/04 A3004 RMK AO2 SLP177 T01500044 10150 20017 58000
KGSO 191754Z 31009KT 10SM SCT065 SCT250 19/06 A2999 RMK AO2 SLP152 T01940061 10194 20078 51001
KGSP 191753Z 33012G21KT 10SM FEW055 18/07 A3004 RMK AO2 SLP169 T01830067 10189 20072 50007
KGTB 191758Z AUTO 26009G18KT 10SM BKN060 08/00 A2979 RMK AO2 SLP092 T00790004 10082 20032 50005 $
KGTF 191753Z 24017KT 10SM CLR 10/M03 A2943 RMK AO2 SLP967 T01001028 10106 20056 51009
KGTR 191755Z 00000KT 10SM SKC 21/12 A3008
KGTU 191750Z 150012G22KT 10SM BKN024 BKN033 0VC050 24/18 A2986
KGUC 191756Z AUTO VRB03KT 10SM BKN060 03/M04 A2975 RMK AO2 SLP085 T00281044 10028 21078 58014
KGUL 191835Z AUTO 13017KT 5SM HZ CLR 23/21 A2995 RMK A01
KGUP 191753Z AUTO 25017KT 10SM FEW024 SCT029 06/M01 A2989 RMK AO2 SLP098 60001 T00561006 10061 20006 51011
KGUR 191835Z AUTO 11009KT 10SM CLR 18/02 A2962 RMK AO2 T01780019 PWINO
KGUS 191755Z VRB05KT 10SM CLR 14/08 A3006 RMK AO2 SLP186 T01330084 10133 20072 50001
KGUY 191753Z AUTO 18018G25KT 10SM CLR 18/09 A2977 RMK AO2 PK WND 19026/1737 SLP056 T01780094 10183 20039 58018
KGVE 191835Z AUTO 36003KT 10SM CLR 22/07 A2993 RMK AO1 T02170067
KGVL 191753Z AUTO 32011KT 10SM SCT033 18/09 A3008 RMK AO2 SLP180 T01830089 10183 20094 58002
KGVT 191835Z AUTO 12013G16KT 7SM 22/17 A2993 RMK AO2
KGWB 191835Z AUTO 26008KT 10SM CLR 16/02 A3005 RMK AO2
KGWO 191753Z AUTO 00000KT 10SM CLR 23/12 A3009 RMK AO2 SLP186 60000 T02330122 10233 20067 58003
KGWR 191835Z AUTO 10014KT 10SM CLR 08/06 A2965 RMK AO1
KGWW 191835Z AUTO 32008KT 10SM CLR 21/06 A2995 RMK AO2 T02070060
KGXA 191755Z AUTO 10003KT 10SM FEW016 12/07 A2988 RMK AO2 SLP131 WND DATA ESTMD T01160065 10088 20058 52021 TSNO $
KGXF 191828Z AUTO 21012KT 10SM BKN025 BKN040 OVC047 15/10 A2993 RMK AO2 CIG 025V047 BKN025 V SCT
KGXY 191756Z AUTO 00000KT 10SM CLR 09/M03 A2968 RMK AO2 SLP057 T00941028 10094 21028 58009
KGYB 191835Z AUTO 16011G21KT 10SM SCT026 SCT030 OVC049 A2988 RMK AO2
KGYH 191747Z 00000KT 10SM SCT055 19/07 A3005
KGYI 191835Z AUTO 11007KT 4SM BR OVC007 20/18 A2994 RMK AO2 T01950175
KGYL 191836Z AUTO 13008KT 10SM CLR 14/08 A2987 RMK AO2 T01410077
KGYR 191747Z 11004KT 10SM FEW010 BKN020 OVC025 12/09 A2995
KGYY 191745Z 00000KT 20SM FEW250 16/M02 A3008
KGZH 191753Z AUTO 01006KT 10SM CLR 25/13 A3007 RMK AO2 SLP182 T02500128 10250 20100 58013
KGZN 191820Z AUTO 17016G25KT 9SM BKN024 BKN030 OVC048 22/16 A2987 RMK AO2
KGZS 191835Z AUTO 31005KT 10SM CLR 20/11 A3010 RMK A01
KH78 191415Z 09010KT 12SM SKC 23/20 A3006 RMK SEAS 1-2
KHAE 191835Z AUTO 12004KT 10SM CLR 23/07 A3002 RMK AO2
KHAF 191835Z AUTO 16012KT 3SM HZ SCT033 BKN044 12/09 A2987 RMK AO2 P0001
KHAI 191835Z AUTO 28006KT 10SM CLR 18/M02 A3004 RMK AO2 T01751017
KHAO 191753Z AUTO VRB04KT 8SM OVC011 11/08 A3011 RMK AO2 SLP197 T01110083 10111 20083 50003
KHBE 191835Z AUTO 00000KT 10SM CLR 14/07 A3009 RMK AO2 PWINO
KHBG 191753Z AUTO 00000KT 10SM CLR 23/14 A3010 RMK AO2 SLP191 T02330144 10233 20111 58008
KHBI 191840Z AUTO 35007KT 10SM SCT055 20/06 A3002 RMK AO2 T01960060
KHBR 191804Z AUTO 21008KT 5SM BR OVC005 16/14 A2989 RMK AO2 CIG 003V009 T01610144
KHBV 191835Z AUTO 18008G14KT 10SM CLR 26/18 A2980 RMK AO2 T02610180
KHCD 191832Z AUTO 13012G18KT 10SM CLR 14/07 A2986 RMK AO2 T01360071
KHCO 191834Z AUTO 10010KT 10SM CLR 04/01 A2975 RMK AO2
KHDC 191835Z AUTO 00000KT 10SM CLR 24/16 A3006 RMK AO2
KHDE 191835Z AUTO 18018G24KT 10SM CLR 18/08 A2976 RMK AO2 T01750075
KHDN 191835Z AUTO 07004KT 10SM FEW048 SCT055 02/M04 A2972 RMK AO1
KHDO 191751Z AUTO 8SM 26/20 A2983 RMK AO2 RAE02 SLP088 P0000 60000 T02560200 10256 20206 58009 $
KHEF 191756Z AUTO 33013G17KT 10SM CLR 21/07 A2993 RMK AO2 SLP145 6//// T02060072 10206 20100 50001 PNO $
KHEI 191753Z AUTO 10003KT 10SM CLR 09/02 A2949 RMK AO2 SLP001 T00890022 10089 21022 56016
KHEQ 191835Z AUTO 17006KT 10SM CLR 16/00 A2968 RMK AO2
KHEY 191837Z AUTO 33006KT 10SM SCT049 24/13 A3005 RMK AO2 SLP177
KHEZ 191835Z AUTO 14007KT 10SM CLR 24/12 A3005 RMK AO1
KHFD 191753Z 30009G16KT 10SM CLR 15/00 A2974 RMK AO2 SLP071 T01500000 10150 21017 58009
KHFF 191756Z AUTO 31011G16KT 10SM CLR 20/07 A2999 RMK AO2 SLP170 T02030069 10204 20079 55001
KHFJ 191830Z AUTO 15007KT 120V180 10SM CLR 21/15 A2998 RMK AO2
KHFY 191835Z AUTO 21005KT 10SM CLR 14/09 A3008 RMK AO2 T01440092
KHGR 191753Z 27009G15KT 10SM CLR 18/06 A2991 RMK AO2 SLP136 T01830056 10189 20128 58005
KHHF 191835Z AUTO 17007G19KT 10SM SCT021 19/12 A2983 RMK AO2 T01890123
KHHG 191835Z AUTO 25005KT 10SM CLR 15/06 A3005 RMK AO2 T01480060
KHHR 191753Z 00000KT 10SM OVC023 13/11 A2997 RMK AO2 SLP147 60000 T01330106 10133 20111 53038
KHHV 191840Z AUTO 12012G21KT 090V150 4SM HZ CLR 26/22 A2990 RMK A01
KHHW 191835Z AUTO 11009KT 7SM OVC004 18/16 A2996 RMK AO2 T01810160
KHIB 191753Z AUTO 12010KT 10SM CLR 06/M02 A2993 RMK AO2 SLP150 I6000 T00561017 10056 21039 58010
KHIE 191752Z AUTO 29018G27KT 10SM FEW043 OVC055 08/M01 A2965 RMK AO2 PK WND 29027/1748 SLP048 I6000 T00781011 10106 21028 53014
KHIF 191833Z 19008KT 10SM BKN029 OVC037 08/04 A2970 RMK AO2A
KHII 191835Z AUTO 13011KT 10SM SCT020 OVC032 14/10 A2990 RMK AO2
KHIO 191805Z 17012G17KT 10SM BKN018 BKN023 OVC031 07/05 A2950 RMK AO2 RAE1757 P0000 T00720050
KHJH 191835Z AUTO 17018G22KT 10SM CLR 20/10 A2982 RMK AO2 T02000102
KHJO 191753Z AUTO 00000KT 10SM CLR 12/05 A2996 RMK AO2 SLP146 T01220050 10122 20089 51020
KHKA 191753Z AUTO 10SM CLR 20/14 A3011 RMK AO2 SLP194 T02000139 10200 20078 50001 $
KHKS 191753Z VRB03KT 10SM CLR 23/14 A3009 RMK AO2 SLP184 T02330139 10233 20100 58004
KHKY 191753Z 32009G16KT 290V360 10SM SCT049 19/06 A3003 RMK AO2 SLP155 T01890056 10189 20044 50004
KHLC 191753Z AUTO 19014G21KT 9SM CLR 17/09 A2980 RMK AO2 SLP084 T01720089 10172 20072 58006 TSNO
KHLG 191753Z 27009G17KT 9SM CLR 14/06 A3001 RMK AO2 SLP165 T01440061 10144 20083 50000
KHLN 191753Z 00000KT 10SM BKN120 03/02 A2948 RMK AO2 SLP005 60001 T00330017 10050 20022 53005
KHLR 191823Z AUTO 16015G22KT 8SM FEW018 SCT025 OVC042 24/19 A2983 RMK AO2 SLP093
KHLX 191835Z AUTO 33015G18KT 10SM SCT021 12/06 A3004 RMK AO2 T01220060
KHMN 191828Z AUTO 25013G17KT 10SM SCT055 13/M01 A2995 RMK AO2 WSHFT 23
KHMP 191835Z AUTO 34007KT 10SM SCT037 20/12 A3007 RMK AO2 T02010124
KHMZ 191835Z AUTO 29010G18KT 10SM CLR 16/04 A2993 RMK AO2 T01640036
KHNB 191835Z 17004KT 7SM OVC010 12/09 A3011 RMK AO2 SLP302 PWINO FZRANO RVRNO
KHND 191756Z 20016KT 10SM SCT030 BKN065 14/07 A2984 RMK AO2 SLP100 T01390067 10139 20078 53019
KHNR 191835Z AUTO 17016KT 6SM HZ CLR 18/12 A2989 RMK AO2
KHNZ 191835Z AUTO 00000KT 10SM CLR 19/05 A2997 RMK AO2 T01910048
KHOB 191750Z 25016G22KT 10SM SKC 17/00 A2988
KHOE 191835Z AUTO 31007KT SCT041 SCT050 BKN065 25/15 A3004 RMK AO2 PWINO
KHON 191755Z AUTO 16014G21KT 10SM CLR 14/07 A2964 RMK AO2 PK WND 15027/1745 SLP041 T01390067 10139 20033 58020
KHOP 191758Z AUTO 17003KT 10SM CLR 18/13 A3010 RMK AO2 SLP194 T01760126 10176 20066 57007
KHOT 191753Z AUTO 10005KT 10SM OVC016 19/15 A3004 RMK AO2 SLP172 T01890150 10194 20139 58008
KHOU 191753Z 13008G18KT 7SM BKN009 BKN014 OVC025 22/20 A2994 RMK AO2 SLP144 60000 T02220200 10222 20206 58001
KHPN 191756Z 30015KT 10SM CLR 15/01 A2978 RMK AO2 SLP084 T01500011 10156 20072 58003
KHQG 191835Z AUTO 19021G24KT 10SM CLR 22/09 A2977 RMK AO2 T02160089
KHQI 191835Z AUTO 11019KT 5SM HZ FEW017 23/21 A2996 RMK A01
KHQM 191837Z AUTO 10017KT 7SM FEW015 BKN025 OVC039 07/06 A2939 RMK AO2 RAE20 P0000 T00720061
KHQU 191835Z AUTO 30004KT 10SM SCT049 21/12 A3007 RMK AO1 T02140122
KHQZ 191650Z 13010KT 4SM BR OVC012 21/18 A2994
KHRI 191753Z AUTO 26004KT 3/4SM BR OVC002 02/02 A2956 RMK AO2 RAE00B03E30 SLP013 P0000 60000 T00170017 10017 20000 53026 $
KHRJ 191830Z AUTO 36005KT 10SM CLR 21/07 A2997 RMK AO2 T02100071
KHRL 191752Z 15024KT 10SM CLR 30/21 A2979 RMK AO2 PK WND 17030/1722 SLP088 T03000211 10300 20239 58000
KHRO 191753Z AUTO 15013G18KT 10SM FEW016 21/14 A3003 RMK AO2 SLP163 T02060144 10206 20067 50001 $
KHRT 191758Z AUTO 19006KT 9SM CLR 22/08 A3006 RMK AO2 RAB1658E39 SLP181 P0000 60001 T02240075 10236 20108 58010 $
KHRX 191835Z AUTO 22004KT 10SM CLR 15/06 A2983 RMK AO2 T01500064
KHSA 191750Z 00000KT 7SM CLR 24/11 A3008
KHSB 191835Z AUTO 18003KT 4SM BR OVC005 12/11 A3011 RMK AO2 T01220114
KHSD 191835Z AUTO 17012KT 10SM BKN020 20/15 A2988 RMK A01
KHSE 191751Z AUTO VRB06KT 5SM HZ CLR 17/08 A2991 RMK AO2 PRESFR SLP127 T01670078 10172 20139 58010 TSNO
KHSG 191835Z AUTO 17016G22KT 10SM CLR 12/00 A2949 RMK AO2 T01200000
KHSI 191753Z AUTO 18015G29KT 10SM CLR 18/08 A2980 RMK AO2 PK WND 19029/1750 SLP085 T01830083 10183 20067 58013
KHSP 191835Z AUTO 27011G17KT 10SM SCT023 12/02 A3004 RMK AO2
KHST 191758Z AUTO 29009KT 10SM SCT044 31/22 A3001 RMK AO2 SLP165 T03140223 10314 20192 57021
KHSV 191753Z 01005KT 10SM SCT030 20/12 A3011 RMK AO2 SLP193 T02000117 10200 20072 58004
KHTL 191753Z AUTO 27007KT 10SM CLR 09/M01 A3000 RMK AO2 SLP170 T00891006 10089 21022 50011
KHTO 191835Z AUTO 26011KT 10SM CLR 16/02 A2976 RMK AO2 T01620019
KHTS 191751Z 23007KT 6SM BR OVC013 11/08 A3010 RMK AO2 SLP194 T01110078 10111 20089 50005
KHUA 191758Z AUTO 36007KT 10SM CLR 19/11 A3010 RMK AO2 SLP192 T01940105 10194 20073 58004
KHUF 191753Z VRB03KT 10SM SCT012 14/08 A3009 RMK AO2 SLP190 T01440083 10144 20100 50000
KHUL 191753Z AUTO 36006KT 7SM OVC020 02/M01 A2954 RMK AO2 SLP009 T00171006 10039 20006 53005
KHUM 191753Z 04007KT 5SM BR SCT010 OVC014 22/21 A3006
KHUT 191752Z 18016KT 4SM BR OVC003 11/11 A2990 RMK AO2 SLP117 T01110106 10111 20072 58002 $
KHVE 191835Z AUTO 16007KT 10SM OVC025 07/05 A2978 RMK AO2
KHVN 191753Z 20005KT 10SM CLR 12/03 A2976 RMK AO2 SLP077 T01170033 10133 20000 58009
KHVR 191753Z AUTO 00000KT 7SM UP BKN060 OVC080 02/00 A2943 RMK AO2 UPB1658E13B37 SLP984 P0000 60001 T00170000 10017 21011 51010
KHVS 191835Z AUTO 28004KT 10SM CLR 21/07 A3000 RMK AO2
KHWD 191754Z 15015G21KT 10SM FEW065 BKN100 13/05 A2985 RMK AO2 SLP118 60001 T01280050 10128 20100 52006
KHWO 191753Z 29012G17KT 10SM SCT041 31/18 A3003 RMK AO2 SLP169 T03060178 10306 20200 58018
KHWV 191756Z AUTO 28010KT 10SM -RA CLR 16/02 A2978 RMK AO2 RAB26 SLP085 P0000 60000 T01560022 10161 20050 58007 TSNO
KHWY 191835Z AUTO 31010G15KT 10SM CLR 23/03 A2992 RMK AO2 T02250032
KHXD 191830Z 36012KT 10SM SCT040 24/12 A3001
KHYA 191756Z 21007KT 10SM CLR 13/03 A2969 RMK AO2 SLP055 T01280033 10161 20078 58002
KHYI 191746Z 15017G21KT 4SM BR SCT024 BKN033 BKN039 25/19 A2986
KHYR 191753Z AUTO VRB05KT 10SM CLR 12/M02 A2998 RMK AO2 SLP160 T01171022 10117 21039 58001
KHYS 191756Z AUTO 15014KT 10SM CLR 17/09 A2982 RMK AO2 SLP096 60000 T01720094 10172 20017 58010
KHYW 191835Z AUTO 34005KT 7SM CLR 20/08 A2997 RMK AO2 LTG DSNT E
KHYX 191836Z AUTO 26004KT 10SM CLR 15/M01 A3000 RMK AO2
KHZD 191835Z AUTO VRB04G14KT 10SM CLR 20/13 A3010 RMK A01
KHZE 191835Z AUTO 07006KT A2952 RMK AO2
KHZL 191835Z AUTO 28007G16KT 10SM CLR 15/03 A2988 RMK AO2
KHZR 191835Z AUTO 14005KT 7SM OVC009 18/16 A3006 RMK AO2 T01840164
KHZX 191833Z AUTO 12006KT 10SM BKN120 10/00 A2991 RMK AO2
KHZY 191753Z AUTO 28009KT 10SM CLR 13/04 A2999 RMK AO2 SLP155 T01280044 10128 20022 50008 TSNO
KI16 191835Z AUTO 10SM OVC018 11/06 A3015 RMK AO2 T01140061
KI19 191829Z AUTO 28003KT 7SM OVC008 10/08 A3009 RMK AO2 T01000076
KI35 191835Z AUTO 19006KT 10SM BKN029 16/07 A3011 RMK AO1
KI63 191835Z AUTO 00000KT 10SM CLR 21/10 A3001 RMK AO2 T02070097
KI67 191835Z AUTO 20003KT 10SM OVC015 12/07 A3009 RMK AO1
KI69 191835Z AUTO 24003KT 10SM OVC014 12/08 A3008 RMK AO2 T01170079
KI75 191835Z AUTO 16010G14KT 7SM CLR 20/10 A2993 RMK AO2 T02040101
KIAB 191833Z AUTO 20012KT 9SM OVC005 13/13 A2990 RMK AO2 SLP127
KIAD 191752Z 30012KT 10SM FEW050 FEW110 19/06 A2993 RMK AO2 SLP133 T01940061 10194 20133 58000
KIAG 191753Z 26015KT 10SM CLR 14/02 A2989 RMK AO2 SLP128 T01440022 10144 20006 50002
KIAH 191753Z 14018G24KT 3SM BR BKN009 OVC017 22/20 A2995 RMK AO2 SFC VIS 5 SLP140 60000 T02220200 10222 20211 58003 $
KIBM 191835Z AUTO 10005KT 10SM CLR 15/01 A2966 RMK AO2 T01500008
KICL 191835Z AUTO 19013KT 10SM CLR 20/11 RMK AO2 PWINO
KICR 191753Z AUTO 21015G23KT 10SM CLR 17/04 A2960 RMK AO2 SLP021 T01670044 10167 20083 56009
KICT 191753Z 18016KT 6SM BR OVC005 12/12 A2991 RMK AO2 SLP127 T01220117 10122 20072 58003
KIDA 191753Z 18013KT 10SM BKN006 OVC010 02/02 A2966 RMK AO2 RAE50 SLP050 P0000 60003 T00170017 10022 20000 51004
KIDI 191835Z AUTO 26012KT 10SM CLR 15/06 A2998 RMK A01
KIDP 191835Z AUTO 18015KT 10SM OVC015 17/13 A2994 RMK AO2
KIEN 191752Z AUTO 20008KT 10SM CLR 12/02 A2960 RMK AO2 SLP015 T01220022 10122 20022 56006
KIER 191835Z AUTO 10005KT 10SM CLR 24/16 A3001 RMK AO2 T02370163
KIFA 191835Z AUTO 15012KT 10SM CLR 17/09 A2993 RMK AO2 T01650094
KIFP 191835Z AUTO 18011KT 10SM FEW021 BKN036 OVC090 15/11 A2989 RMK AO2
KIGM 191751Z AUTO 11006KT 10SM FEW010 BKN015 OVC035 09/06 A2988 RMK AO2 RAE23 SLP084 P0000 60001 T00890056 10089 20039 51020
KIGQ 191835Z AUTO 19003KT 10SM CLR 18/04 A3005 RMK AO2 T01780038
KIGX 191756Z AUTO 31007KT 10SM CLR 20/06 A2998 RMK AO2 SLP150 T02000061 10200 20100 50002
KIIB 191835Z AUTO 15009KT 10SM 16/06 A2997 RMK AO2
KIIY 191835Z AUTO 29009KT 10SM SCT046 23/11 A3003 RMK AO2
KIJD 191752Z AUTO 28006G14KT 10SM CLR 15/01 A2974 RMK AO2 SLP070 T01500006 10150 21022 58009
KIJX 191835Z AUTO 17004KT 10SM CLR 19/09 A3003 RMK AO2 T01940093
KIKG 191835Z AUTO 12014KT 10SM BKN028 BKN032 28/22 A2979 RMK AO2 T02830222
KIKK 191835Z AUTO 00000KT 10SM CLR 16/05 A3007 RMK AO2 T01550053
KIKT 191835Z AUTO 11007KT 8SM CLR 24/21 A3006 RMK A01
KIKV 191835Z AUTO 15009KT 10SM CLR 19/10 A2992 RMK AO2
KIKW 191834Z AUTO 28008KT 7SM CLR 14/00 A3000 RMK AO2 T01401004
KILE 191756Z AUTO 15015G19KT 10SM BKN016 BKN027 OVC039 23/19 A2986 RMK AO2 SLP121 T02330194 10233 20189 58008
KILG 191751Z 30012G19KT 10SM CLR 19/06 A2986 RMK AO2 SLP111 60000 T01940056 10211 20144 58005
KILM 191753Z 28010KT 10SM CLR 21/08 A2993 RMK AO2 SLP134 T02110083 10217 20089 58021
KILN 191754Z AUTO 27006KT 4SM BR OVC007 09/08 A3009 RMK AO2 SLP200 T00890078 10094 20072 50009
KIML 191753Z AUTO 17005KT 10SM CLR 13/03 A2971 RMK AO2 SLP060 T01280028 10128 20067 50001
KIMS 191831Z AUTO 15003KT 7SM OVC011 12/08 A3011 RMK AO1
KIMT 191754Z AUTO 00000KT 10SM CLR 07/M02 A3002 RMK AO2 SLP173 T00671022 10072 21017 50009
KIND 191754Z VRB05KT 9SM FEW011 13/08 A3009 RMK AO2 SLP191 T01330078 10133 20089 50003
KINF 191835Z AUTO 35005KT 10SM SCT035 25/17 A3005 RMK AO2
KINJ 191835Z AUTO 14012KT 7SM SCT019 BKN027 OVC049 23/19 A2989 RMK AO2 T02310194
KINK 191753Z AUTO 28013KT 10SM OVC085 18/00 A2987 RMK AO2 SLP087 T01780000 10189 20089 53005
KINL 191755Z AUTO 12009KT 10SM CLR 05/M01 A2991 RMK AO2 SLP145 T00501011 10050 21017 58007
KINS 191823Z AUTO 10005KT 10SM SCT032 OVC040 10/06 A2982 RMK AO2
KINT 191754Z 31010G15KT 10SM CLR 19/04 A3001 RMK AO2 SLP158 T01890044 10194 20083 50001
KINW 191756Z AUTO 23010KT 10SM -RA BKN041 OVC050 09/01 A2988 RMK AO2 RAB48 SLP098 P0000 60000 T00890011 10089 20028 51012
KIOB 191835Z AUTO 24004KT 10SM OVC009 10/08 A3013 RMK AO2
KIOW 191752Z AUTO 15009KT 10SM CLR 18/04 A3002 RMK AO2 SLP167 T01830044 10183 21017 58006
KIPJ 191840Z AUTO 30004KT 10SM SCT049 20/05 A3003 RMK AO2 T01980047
KIPL 191753Z AUTO 00000KT 10SM 13/12 A2991 RMK AO2 SLP127 T01280122 10128 20078 51023 $
KIPT 191754Z 25010KT 10SM CLR 16/05 A2985 RMK AO2 SLP111 T01610050 10161 21006 58012
KIRK 191755Z AUTO 21008KT 10SM CLR 20/11 A3002 RMK AO2 SLP167 T02000106 10206 20017 58001
KIRS 191835Z AUTO 28003KT 10SM CLR 16/01 A3003 RMK AO2 T01620006
KISM 191756Z 30009KT 10SM BKN030 26/17 A3006 RMK AO2 SLP182 T02560167 10256 20178 58009
KISN 191752Z AUTO 10008KT 6SM BR OVC005 02/00 A2952 RMK AO2 SLP015 T00170000 10017 20000 56012
KISO 191756Z 32009G14KT 10SM CLR 22/04 A2994 RMK AO2
KISP 191756Z 27010KT 10SM SCT100 SCT180 BKN250 17/02 A2978 RMK AO2 SLP082 T01670022 10172 20050 58007 $
KISQ 191835Z AUTO 33004KT 10SM CLR 06/00 A3003 RMK AO2 T00621002
KISW 191754Z AUTO VRB03KT 10SM CLR 14/01 A3003 RMK AO2 SLP176 T01390006 10139 21028 50003
KITH 191756Z 29016KT 10SM CLR 13/02 A2985 RMK AO2 SLP110 T01280017 10133 20044 57001
KITR 191753Z AUTO 19024G34KT 10SM CLR 19/02 A2971 RMK AO2 PK WND 21037/1714 SLP028 T01890017 10189 20094 58001
KIWA 191747Z COR 14009KT 10SM SCT021 OVC030 11/09 A2996
KIWD 191756Z AUTO 08004KT 10SM CLR 09/M01 A3000 RMK AO2 SLP168 T00891011 10089 21033 58000
KIWI 191753Z AUTO 21008KT 10SM CLR 12/01 A2959 RMK AO2 SLP020 T01220006 10122 21033 58014
KIXA 191840Z AUTO 07005KT 10SM CLR 21/07 A2993 RMK AO2
KIXD 191753Z 16010KT 10SM CLR 18/12 A2996 RMK AO2 SLP142 T01830117 10183 20056 58008
KIYA 191834Z AUTO 13010G14KT 7SM OVC015 24/22 A3002 RMK AO2
KIZA 191835Z AUTO 00000KT 10SM SCT017 11/07 A2997 RMK AO2
KIZG 191754Z AUTO 30013G21KT 270V340 10SM BKN075 12/M02 A2960 RMK AO2 SLP025 T01221022 10144 20061 53002
KJAC 191751Z 24006KT 10SM SCT050 BKN060 02/01 A2963
KJAN 191754Z 00000KT 10SM FEW040 24/14 A3009 RMK AO2 SLP187 T02390144 10244 20089 58005
KJAQ 191835Z AUTO 16008KT 120V190 10SM OVC065 10/05 A2986 RMK AO1 T01020050
KJAS 191835Z AUTO 14007KT 7SM OVC018 24/20 A3000 RMK AO2 T02370196
KJAU 191835Z AUTO 00000KT 10SM BKN031 16/08 A3015 RMK A01
KJAX 191756Z 28008KT 10SM SCT034 23/13 A3004 RMK AO2 SLP173 T02280133 10239 20133 58017
KJBR 191753Z AUTO 12004KT 10SM CLR 19/14 A3010 RMK AO2 SLP191 T01890139 10189 20078 50003 $
KJCA 191835Z AUTO 30010G14KT 10SM SCT041 20/10 A3005 RMK AO2
KJCT 191830Z AUTO 16011KT 8SM FEW028 BKN033 OVC049 23/17 A2983 RMK AO2 T02330172
KJDD 191835Z AUTO 14010KT 10SM BKN022 OVC038 24/18 A2993 RMK AO2
KJDN 191748Z AUTO 00000KT 08/02 A2942 RMK AO1 SLP978 T00830017 10083 21011 58002
KJEF 191753Z 11006KT 10SM CLR 18/10 A3002 RMK AO2 SLP157 T01830100 10183 20000 58008
KJER 191753Z AUTO A2965 RMK AO2 SLPNO 6//// PWINO FZRANO $
KJES 191835Z AUTO 32006KT 10SM BKN037 BKN048 23/12 A3003 RMK AO2
KJFK 191751Z 26007KT 10SM FEW130 SCT230 BKN260 17/04 A2981 RMK AO2 SLP094 T01720039 10178 20089 58005
KJFX 191835Z AUTO 00000KT 10SM CLR 24/11 A3010 RMK AO2 PWINO
KJFZ 191835Z AUTO 29003KT 10SM BKN014 OVC019 09/07 A3010 RMK AO2 T00940068
KJGG 191835Z AUTO 34005KT 10SM SCT070 26/08 A2991 RMK AO1
KJHN 191835Z AUTO 16019G25KT 10SM CLR 18/07 A2975 RMK AO2 T01810068
KJHW 191835Z AUTO 30015KT 10SM 11/01 A2993 RMK AO1
KJKA 191835Z AUTO 00000KT 10SM CLR 24/13 A3007 RMK AO2 T02440133
KJKJ 191834Z AUTO 14017G22KT 10SM CLR 11/05 A2970 RMK AO2
KJKL 191833Z AUTO 32004KT 10SM FEW017 13/07 A3010 RMK AO2 T01280072 $
KJLN 191753Z COR 17007KT 10SM CLR 22/14 A2998 RMK AO2 SLP148 T02170139 10222 20067 58003
KJMR 191835Z AUTO 13006KT 10SM CLR 10/02 A2992 RMK AO2
KJMS 191756Z AUTO 14015KT 10SM CLR 06/02 A2961 RMK AO2 SLP038 T00560022 10056 20017 58020
KJNX 191845Z AUTO 34005KT 10SM CLR 22/05 A2996 RMK AO2 LTG DSNT SE
KJOT 191835Z AUTO 14003KT 10SM CLR 19/05 A3005 RMK AO2 T01860048
KJQF 191753Z 36006KT 10SM SCT047 19/06 A3006
KJRB 191835Z 00000KT 10SM CLR 18/02 A2980 RMK AO2 SLP298 PWINO FZRANO RVRNO
KJSO 191835Z AUTO 14008G16KT 7SM OVC017 21/18 A2996 RMK AO2 T02180189
KJST 191754Z AUTO 29015G19KT 10SM CLR 12/05 A2994 RMK AO2 SLP143 T01220050 10128 20067 56003
KJSV 191835Z AUTO 09004KT 10SM BKN025 21/15 A2999 RMK AO2
KJTC 191835Z AUTO 20014KT 10SM SCT042 SCT050 07/M05 A2991 RMK AO2
KJVL 191745Z 15004KT 10SM SKC 17/M01 A3005
KJWG 191835Z AUTO 20012G17KT 10SM OVC014 17/16 A2990 RMK AO2
KJWN 191835Z AUTO 00000KT 10SM BKN024 16/11 A3012 RMK
KJWY 191835Z AUTO 14010KT 5SM BR BKN016 OVC023 22/20 A2991 RMK AO2 T02200197
KJXI 191835Z AUTO 13009KT 10SM BKN029 OVC038 24/17 A2995 RMK AO2 T02350174
KJXN 191756Z 30011G16KT 10SM CLR 16/M01 A3001 RMK AO2 SLP167 T01561011 10161 20006 50005
KJYG 191835Z AUTO 13009KT 10SM CLR 12/08 A2986 RMK AO2
KJYL 191835Z AUTO 28006G16KT 10SM SCT048 A3003 RMK AO2
KJYM 191835Z AUTO 28007KT 10SM CLR 15/00 A3001 RMK AO2
KJYO 191835Z AUTO 29014G17KT 10SM CLR 20/08 A2993 RMK AO2
KJYR 191835Z AUTO 18016G26KT 10SM CLR 18/10 A2980 RMK AO2
KJZI 191835Z AUTO 30009KT 10SM CLR 24/11 A2999 RMK AO2
KK02 191835Z AUTO 11007KT 10SM SCT009 17/14 A3006 RMK AO2 T01730139
KK88 191835Z AUTO 17011KT 10SM OVC013 17/13 A2997 RMK AO1 T01710132
KKLS 191756Z AUTO 16010G18KT BKN017 OVC055 07/04 A2950 RMK AO2 SLP994 P0001 60008 T00670044 10067 20056 53013 PWINO $
KL35 191835Z AUTO 27011KT 10SM SCT015 02/00 A2992 RMK AO2
KL38 191835Z AUTO 00000KT 10SM OVC010 21/17 A3005 RMK AO2 T02100172
KLAA 191753Z AUTO 16010KT 10SM CLR 16/03 A2971 RMK AO2 SLP029 T01610028 10167 20078 58013
KLAF 191754Z 26005KT 8SM CLR 14/09 A3007 RMK AO2 SLP184 T01390089 10139 20078 50003
KLAL 191750Z 34006G14KT 10SM BKN032 25/17 A3006
KLAM 191835Z AUTO 17012G16KT 10SM SCT019 BKN026 OVC045 05/00 A2986 RMK AO2 T00480000
KLAN 191753Z 31007KT 10SM CLR 14/00 A3003 RMK AO2 SLP170 T01440000 10144 20028 50005 $
KLAR 191753Z AUTO 20005KT 10SM BKN100 06/M02 A2971 RMK AO2 SLP038 T00611022 10061 21044 58002
KLAS 191756Z 20010KT 10SM FEW010 SCT037 BKN065 14/06 A2981 RMK AO2 SLP087 60000 T01390056 10144 20094 53020
KLAW 191837Z 17012KT 10SM FEW024 BKN038 OVC050 23/16 A2986 RMK AO2 T02330156
KLAX 191753Z VRB04KT 10SM -RA BKN020 OVC026 13/10 A2996 RMK AO2 RAE02B51 SLP144 P0000 60001 T01330100 10133 20106 53037 $
KLBB 191753Z 19006KT 9SM SCT190 SCT250 BKN300 19/03 A2984 RMK AO2 SLP077 T01890033 10189 20078 58002
KLBE 191750Z 24014KT 10SM FEW026 14/07 A3000
KLBF 191753Z AUTO 21013G17KT 10SM CLR 17/05 A2971 RMK AO2 SLP059 T01670050 10167 20067 58002
KLBL 191835Z 17020G24KT 10SM CLR 21/12 A2978 RMK AO1
KLBT 191754Z AUTO 31009G17KT 10SM CLR 21/08 A2997 RMK AO2 SLP147 T02060078 10211 20094 58011
KLBX 191753Z AUTO 13013KT 10SM BKN015 BKN020 OVC026 24/21 A2994 RMK AO2 SLP138 T02390206 10244 20211 58005
KLCG 191835Z AUTO 17014KT 10SM CLR 16/11 A2978 RMK AO2 T01640105
KLCH 191753Z 11010KT 7SM OVC010 22/19 A3001 RMK AO2 SLP169 T02220194 10233 20189 58002 $
KLCI 191756Z AUTO 10SM BKN060 13/M01 A2963 RMK AO2 SLP053 T01281006 10128 20050 56005 $
KLCK 191835Z AUTO 26009KT 7SM OVC008 09/07 A3008 RMK AO2 T00900074
KLCQ 191835Z AUTO 33006KT 10SM CLR 23/13 A3005 RMK AO2
KLDM 191835Z AUTO 27003KT 10SM CLR 12/01 A3004 RMK AO2 T01190011
KLEB 191753Z 28017G23KT 10SM BKN065 12/M01 A2966 RMK AO2 SLP047 T01171011 10122 21061 53003
KLEE 191753Z 34004KT 10SM CLR 24/15 A3007 RMK AO2 SLP181 T02440150 10250 20172 58008
KLEW 191756Z AUTO 23005KT 10SM OVC070 12/01 A2958 RMK AO2 SLP034 T01170011 10122 21039 55008
KLEX 191754Z 26006KT 9SM OVC010 12/09 A3011 RMK AO2 SLP198 T01170089 10122 20089 50002
KLFI 191758Z AUTO 05009KT 10SM CLR 21/07 A2989 RMK AO2 SLP128 T02120073 10212 20107 50000 $
KLFK 191753Z AUTO 14013KT 7SM BKN018 OVC023 22/18 A2996 RMK AO2 SLP143 T02220183 10222 20178 58005
KLFT 191753Z 09004KT 10SM OVC011 23/19 A3004 RMK AO2 SLP172 6//// T02280189 10228 20189 58003 PNO $
KLGA 191751Z 30010KT 10SM FEW065 SCT120 BKN160 BKN250 18/01 A2979 RMK AO2 SLP089 T01780011 10178 20122 58005 $
KLGB 191753Z 20006KT 10SM BKN027 OVC036 15/09 A2996 RMK AO2 PRESRR SLP145 T01500089 10156 20094 51034
KLGC 191835Z AUTO 03005KT 10SM SCT036 SCT043 21/13 A3007 RMK AO2 T02140133
KLGD 191835Z AUTO 17014KT 10SM FEW075 07/01 A2953 RMK AO1
KLGU 191751Z AUTO 12005KT 10SM -RA FEW025 BKN037 OVC050 07/03 A2969 RMK AO2 SLP043 P0003 60028 T00670033 10083 20050 53012
KLHB 191835Z AUTO 13010G20KT 10SM BKN026 BKN032 OVC041 25/20 A2988 RMK AO2 T02510195
KLHM 191835Z AUTO 15011KT 10SM SCT065 OVC080 12/06 A2985 RMK AO1
KLHQ 191753Z AUTO 24009KT 5SM HZ OVC008 10/07 A3009 RMK AO2 SLP190 T01000072 10100 20083 50009
KLHW 191758Z AUTO 33009KT 10SM BKN037 24/13 A3001 RMK AO2 SLP165 T02350128 10238 20076 57015
KLHX 191753Z AUTO 20010KT 10SM CLR 18/01 A2971 RMK AO2 SLP018 T01780006 10178 20089 56009
KLHZ 191830Z AUTO 28004KT 10SM CLR 20/06 A2998 RMK AO2
KLIC 191755Z AUTO 18016G24KT 10SM CLR 15/M02 A2971 RMK AO2 SLP024 T01501017 10150 21006 58011
KLIT 191753Z 13009KT 10SM FEW021 SCT200 21/15 A3005 RMK AO2 SLP178 T02110150 10211 20089 58007 $
KLJF 191833Z AUTO 14011G15KT 10SM CLR 13/07 A2985 RMK AO2
KLKR 191835Z AUTO 30005KT 10SM CLR 19/08 A3003 RMK AO2 PWINO
KLKU 191835Z AUTO 29008KT 10SM 24/08 A2991 RMK AO2
KLKV 191835Z AUTO 21017G23KT 10SM BKN029 OVC036 03/M02 A2964 RMK AO1
KLLJ 191755Z AUTO 34004KT 10SM BKN060 OVC070 04/00 A2956 RMK AO2 SLP005 T00390000 10044 21006 51017
KLLQ 191753Z AUTO 11007KT 10SM CLR 23/14 A3005 RMK AO2 SLP174 T02280144 10233 20106 58009
KLMO 191833Z AUTO 05003KT 10SM CLR 15/M03 A2967 RMK AO2 T01501031
KLMT 191753Z 20003KT 10SM OVC049 02/00 A2958 RMK AO2 SNE01 SLP021 P0000 60016 T00170000 10022 20000 52016
KLNC 191835Z AUTO 14013KT 5SM HZ BKN018 BKN028 OVC034 22/19 A2991 RMK AO2 T02170185
KLND 191753Z AUTO 33017G23KT 10SM CLR 05/M01 A2953 RMK AO2 SLP994 T00501006 10050 21022 56006 $
KLNK 191754Z 18020G24KT 10SM CLR 19/10 A2985 RMK AO2 SLP108 T01890100 10189 20039 58013
KLNL 191835Z AUTO 00000KT 10SM CLR 11/M04 A3001 RMK AO2 T01071045
KLNN 191835Z AUTO 24011KT 10SM CLR 10/03 A3000 RMK AO1 T00970032
KLNP 191835Z AUTO 00000KT 10SM BKN026 13/06 A3011 RMK AO2
KLNR 191756Z AUTO 11004KT 10SM CLR 14/02 A3004 RMK AO2 SLP170 I6000 T01390022 10139 21039 58000
KLNS 191753Z 32010KT 10SM CLR 19/05 A2985 RMK AO2 SLP108 T01940050 10194 20094 58009
KLOL 191753Z AUTO 22012KT 10SM CLR 09/M02 A2971 RMK AO2 SLP055 T00941022 10094 20006 51013
KLOM 191835Z AUTO 28009G17KT 10SM CLR 18/03 A2983 RMK AO1
KLOR 191838Z AUTO 34008KT 10SM BKN045 BKN055 23/13 A3005 RMK AO2 SLP158
KLOT 191835Z AUTO 17005KT 10SM CLR 18/06 A3005 RMK AO2 T01760062
KLOU 191813Z 25004KT 9SM OVC015 13/09 A3011 RMK AO2 T01330094
KLOZ 191810Z AUTO VRB04KT 10SM SCT021 13/07 A3011 RMK AO2 T01330072 $
KLPR 191753Z AUTO 27011KT 10SM CLR 15/03 A3001 RMK AO2 SLP164 T01500028 10150 20044 50009
KLQK 191835Z AUTO 35008KT 310V030 10SM CLR 20/07 A3003 RMK AO2 T02010073
KLRD 191756Z 16009KT 9SM FEW028 27/19 A2979 RMK AO2 SLP088 T02720189 10272 20217 58004 $
KLRF 191758Z AUTO 10008KT 10SM SCT020 19/15 A3005 RMK AO2 SLP178 T01930151 10193 20077 58003
KLRJ 191835Z AUTO 19014KT 10SM CLR 16/11 A2981 RMK AO2
KLRO 191835Z AUTO 30006KT 10SM CLR 22/12 A2998 RMK AO2
KLRU 191835Z AUTO 25016G20KT 10SM SCT038 SCT046 11/00 A2996 RMK AO2 T01110000
KLRY 191835Z AUTO 17007KT 10SM CLR 22/11 A2998 RMK AO2
KLSE 191753Z 18006KT 10SM CLR 13/02 A3000 RMK AO2 SLP166 T01280017 10128 21022 58006
KLSF 191758Z AUTO 02005KT 10SM CLR 21/13 A3007 RMK AO2 SLP185 T02110126 10211 20113 58012
KLSV 191802Z AUTO 13008KT 10SM BKN033 13/08 A2983 RMK AO2
KLTS 191838Z AUTO 16006KT 10SM SCT007 BKN032 17/14 A2988 RMK AO2 SLP114
KLUA 191835Z AUTO 32010G19KT 10SM CLR 20/07 A2995 RMK AO2
KLUD 191835Z AUTO 11006KT 1 1/4SM BR OVC003 19/18 A2989 RMK AO2 T01850177
KLUF 191838Z AUTO 14007KT 10SM BKN016 OVC022 13/11 A2993 RMK AO2 CIG 014V020
KLUK 191753Z VRB03KT 7SM OVC014 12/08 A3011 RMK AO2 SLP196 T01170083 10117 20094 50003
KLUL 191835Z AUTO 09004KT 10SM CLR 24/14 A3008 RMK AO2 T02420141
KLUM 191835Z AUTO 12006KT 10SM CLR 13/03 A2996 RMK AO2 T01260033
KLUX 191835Z AUTO 00000KT 7SM SCT047 18/08 A3003 RMK AO2
KLVJ 191805Z AUTO 14015G20KT 8SM BKN017 OVC023 25/20 A2995 RMK AO2 T02500200
KLVK 191753Z 00000KT 10SM SCT065 BKN110 12/08 A2985 RMK AO2 SLP108 60006 T01220078 10122 20078 52006
KLVL 191835Z AUTO 00000KT 10SM CLR 22/07 A2993 RMK AO1 T02150073
KLVM 191753Z AUTO 22022G33KT 10SM SCT120 11/M03 A2944 RMK AO2 PK WND 23033/1746 SLP954 T01111028 10111 20056 58002
KLVN 191835Z AUTO 13010KT 10SM CLR 12/07 A2991 RMK AO2
KLVS 191753Z AUTO 22016KT 10SM CLR 08/M01 A2984 RMK AO2 SLP060 T00781011 10078 20000 53002
KLWA 191837Z AUTO 28005KT 10SM CLR 11/01 A3006 RMK AO2 T01080012
KLWB 191835Z AUTO 00000KT 10SM OVC016 09/06 A3008 RMK AO2 T00900055
KLWC 191752Z AUTO 15012KT 10SM CLR 19/12 A2995 RMK AO2 SLP139 T01890122 10194 20011 58007 $
KLWD 191753Z AUTO 16009G16KT CLR 18/11 A2995 RMK AO2 SLP142 T01780106 10183 20061 58009 $
KLWM 191754Z 23009KT 10SM CLR 11/01 A2967 RMK AO2 SLP047 T01110006 10117 20056 58010 $
KLWS 191832Z 00000KT 10SM SCT009 08/04 A2955 RMK AO2 T00780044 $
KLWT 191754Z AUTO 28017KT 10SM FEW050 BKN075 09/01 A2944 RMK AO2 WSHFT 1734 SLP964 60000 T00940006 10100 20022 51009
KLWV 191753Z AUTO 00000KT 4SM BR OVC010 12/09 A3011 RMK AO2 SLP196 T01170094 10117 20094 58001
KLXL 191832Z AUTO 12008KT 10SM CLR 10/04 A2986 RMK AO2
KLXN 191835Z AUTO 18018G24KT 10SM CLR 17/08 A2973 RMK AO2 T01720076
KLXT 191753Z AUTO 19008KT 10SM CLR 19/12 A2997 RMK AO2 SLP147 T01890117 10194 20083 58007
KLXV 191753Z AUTO 18013KT 10SM OVC055 01/M06 A2978 RMK AO2 SLP015 T00061056 10006 21067 58007
KLXY 191835Z AUTO 15012G21KT 110V170 10SM BKN018 BKN025 OVC031 23/19 A2988 RMK AO2 T02310186
KLYH 191754Z VRB04KT 10SM CLR 19/05 A2998 RMK AO2 SLP146 T01890050 10194 20061 58001
KLYV 191838Z AUTO 18012G16KT 10SM CLR 14/09 A2979 RMK AO2
KLZU 191745Z 31008KT 10SM SCT035 19/11 A3007 RMK VIS APCH RWY 25 ATIS B LL
KLZZ 191835Z AUTO 17009G15KT 10SM SCT026 BKN048 OVC050 24/20 A2985 RMK AO2 T02420200
KM08 191835Z AUTO 00000KT 10SM CLR 21/12 A3009 RMK A01
KM19 191756Z AUTO 10SM OVC002 19/14 A3010 RMK AO2 SLP197 6//// T01940139 10194 20067 TSNO
KM21 191835Z AUTO 00000KT 10SM OVC010 13/11 A3011 RMK AO2 T01260108
KM25 191855Z AUTO 00000KT 10SM OVC007 14/12 A3011 RMK AO2 PWINO
KM30 191835Z AUTO 00000KT 5SM BR OVC003 11/11 A3012 RMK AO2 T01130111
KM33 191835Z AUTO 00000KT OVC019 15/11 A3014 RMK A01
KM91 191835Z AUTO 20004KT 10SM BKN018 16/12 A3011 RMK A01
KMAE 191753Z AUTO 15005KT 10SM FEW085 13/06 A2993 RMK AO2 SLP135 T01280056 10128 20067 51018
KMAF 191753Z 24006KT 10SM CLR 21/01 A2986 RMK AO2 SLP076 T02060011 10206 20128 50002
KMAI 191753Z AUTO 28005KT 10SM FEW036 24/14 A3007 RMK AO2 SLP180 T02390144 10244 20144 58011 $
KMAN 191835Z AUTO 00000KT 10SM BKN055 BKN070 BKN085 07/06 A2961 RMK A01
KMAO 191835Z AUTO 30010G15KT 10SM CLR 20/08 A2999 RMK AO2
KMAW 191835Z AUTO 00000KT 10SM CLR 16/16 A3010 RMK AO2
KMBG 191752Z AUTO 18008KT 10SM CLR 07/02 A2952 RMK AO2 SLP004 T00720017 10072 20033 56012
KMBL 191756Z AUTO 29005KT 10SM CLR 11/01 A3004 RMK AO2 SLP196 T01060006 10106 21039 51012 TSNO
KMBO 191835Z AUTO 00000KT CLR 24/16 A3007 RMK AO2 PWINO
KMBS 191753Z 26008KT 10SM CLR 13/01 A3001 RMK AO2 SLP167 T01330011 10133 20022 51009
KMCB 191753Z AUTO 08004KT 10SM CLR 24/13 A3007 RMK AO2 SLP181 T02390133 10244 20106 58008 $
KMCC 191835Z AUTO 15011KT 10SM FEW065 FEW080 12/07 A2988 RMK AO2
KMCD 191835Z AUTO 26005KT 10SM CLR 05/00 A3000 RMK AO2 T00471001
KMCE 191753Z AUTO 13008KT 10SM BKN080 11/05 A2991 RMK AO2 SLP129 T01110050 10111 20056 51017 TSNO
KMCF 191758Z AUTO 34005KT 10SM CLR 27/20 A3006 RMK AO2 SLP182 T02690196 10272 20194 58009 $
KMCI 191753Z 15008KT 10SM FEW040 SCT160 BKN250 19/11 A2996 RMK AO2 SLP140 T01890111 10189 20072 58006
KMCJ 191835Z AUTO 13013G20KT 010V030 7SM OVC016 23/20 A2990 RMK AO1
KMCK 191753Z AUTO 19009G18KT 10SM CLR 15/08 A2974 RMK AO2 SLP068 T01500078 10150 20083 50002
KMCN 191753Z 35006KT 10SM BKN030 21/12 A3007 RMK AO2 SLP181 T02110122 10211 20089 58007
KMCO 191753Z 30010G16KT 10SM FEW035 25/14 A3006 RMK AO2 SLP177 60009 T02500144 10250 20183 58008
KMCW 191753Z AUTO 15012KT 10SM CLR 11/06 A2993 RMK AO2 SLP139 I6003 T01110061 10111 21017 58014
KMCX 191835Z AUTO 00000KT 10SM CLR 14/07 A3007 RMK AO2 T01350070
KMDD 191835Z AUTO 24014G19KT 10SM CLR 22/02 A2986 RMK AO2 T02190016
KMDH 191759Z 23006KT 7SM OVC010 14/12 A3011 RMK AO2 T01390122
KMDJ 191800Z AUTO 14011KT 6SM BR CLR 23/22 A3006 RMK A01
KMDQ 191835Z AUTO 00000KT 10SM CLR 18/08 A3010 RMK AO2
KMDS 191835Z AUTO 16015G23KT 10SM CLR 13/13 A2972 RMK AO2
KMDT 191756Z 31011KT 10SM FEW190 FEW250 19/04 A2986 RMK AO2 SLP113 T01890039 10194 20100 58007
KMDW 191753Z 18003KT 10SM FEW250 17/M02 A3006 RMK AO2 SLP181 T01721022 10172 20033 51007
KMDZ 191835Z AUTO 17007KT 10SM CLR 08/00 A3000 RMK AO2 T00750000
KMEB 191752Z AUTO 33005G16KT 10SM CLR 21/07 A2999 RMK AO2 SLP152 T02110072 10217 20089 58007 TSNO
KMEH 191756Z AUTO 00000KT 10SM OVC070 02/M01 A2949 RMK AO2 SLP003 I6001 T00221011 10022 21011 53012
KMEI 191758Z 00000KT 10SM CLR 24/14 A3009 RMK AO2 SLP188 T02440144 10244 20072 58009
KMEM 191754Z 00000KT 10SM FEW040 SCT250 22/12 A3010 RMK AO2 SLP192 T02170122 10217 20083 50000
KMER 191745Z 18010KT 7SM BKN080 13/MM A2992
KMEV 191835Z AUTO 22010G16KT 10SM FEW055 10/M02 A2976 RMK AO2
KMEZ 191835Z AUTO 12003KT 7SM OVC011 20/19 A3003 RMK AO2
KMFD 191752Z 25010KT 10SM CLR 14/06 A3003 RMK AO2 SLP169 T01440056 10144 20067 50007
KMFE 191753Z 14016KT 10SM CLR 31/19 A2979 RMK AO2 SLP084 T03060194 10306 20239 58001
KMFI 191754Z AUTO 17005KT 10SM CLR 09/01 A3001 RMK AO2 SLP171 T00890006 10094 21011 51003 $
KMFR 191753Z 00000KT 10SM -RA BKN048 OVC055 06/04 A2963 RMK AO2 SLP036 P0002 60004 T00560039 10061 20039 51021
KMFV 191835Z AUTO 33010G15KT 10SM SCT080 OVC095 17/08 A2989 RMK AO2 T01700075
KMGC 191835Z AUTO 33005KT 10SM CLR 15/01 A3007 RMK AO2
KMGE 191758Z 31008KT 10SM SCT028 BKN036 18/10 A3009 RMK AO2A SLP188 58000 $
KMGG 191833Z AUTO 13006KT 10SM CLR 14/06 A2989 RMK AO2 T01350058
KMGJ 191754Z AUTO 29009KT 10SM CLR 14/01 A2977 RMK AO2 SLP081 T01440011 10144 21011 58010 TSNO
KMGM 191753Z 04006KT 10SM BKN039 23/12 A3008 RMK AO2 SLP185 T02330117 10244 20111 58010 $
KMGN 191835Z AUTO 25007KT 10SM CLR 05/00 A3002 RMK AO2 T00480000
KMGR 191835Z AUTO 33006KT 10SM SCT060 23/13 A3006 RMK AO2
KMGW 191753Z 22007KT 7SM BR BKN015 OVC023 11/07 A3004 RMK AO2 SLP174 T01110072 10111 20089 51005
KMGY 191753Z AUTO 22006KT 5SM BR OVC006 09/07 A3008 RMK AO2 SLP189 T00890072 10089 20078 50005
KMHE 191753Z AUTO 17019G26KT 10SM CLR 14/08 A2968 RMK AO2 PK WND 16027/1728 SLP055 T01390078 10139 20028 58013
KMHK 191752Z 18012KT 10SM OVC012 15/12 A2991 RMK AO2 SLP129 T01500117 10161 20033 58005
KMHL 191855Z AUTO 19004KT 10SM CLR 23/12 A2997 RMK AO2
KMHR 191745Z 16011KT 10SM BKN085 12/08 A2987
KMHS 191756Z AUTO 10006KT 9SM BKN020 OVC027 02/01 A2965 RMK AO2 UPB17E53SNE17B40E50 SLP066 P0001 60008 T00220006 10022 20011 51016
KMHT 191753Z 21006KT 10SM BKN150 12/00 A2963 RMK AO2 SLP049 4/007 T01220000 10122 20022 58012
KMHV 191820Z AUTO 27022KT 10SM CLR 12/04 A2985 RMK A01
KMIA 191753Z 27009KT 10SM BKN035 28/18 A3003 RMK AO2 SLP167 T02780178 10289 20206 58017
KMIB 191758Z AUTO 10011KT 10SM OVC005 01/00 A2955 RMK AO2 SLP028 T00130003 10013 20002 57019
KMIC 191753Z 15011KT 10SM CLR 13/02 A2991 RMK AO2 SLP134 T01330022 10133 21028 56010
KMIE 191753Z VRB03KT 9SM CLR 14/07 A3007 RMK AO2 SLP180 T01440072 10144 20094 50001
KMIS 191835Z AUTO 08009KT 10SM CLR 21/19 A3007 RMK A01
KMIV 191754Z AUTO 28010KT 10SM CLR 21/06 A2984 RMK AO2 SLP105 T02060061 10206 20106 58008
KMIW 191753Z AUTO 16009KT 10SM CLR 17/07 A2996 RMK AO2 SLP148 I6001 T01670067 10167 21028 58005
KMJQ 191835Z AUTO 15010KT 10SM CLR 14/08 A2984 RMK AO2
KMJX 191756Z AUTO 33011KT 10SM FEW001 19/02 A2983 RMK AO2 SLP106 6//// T01890022 10206 20139 58007 PNO $
KMKC 191754Z 19010KT 10SM CLR 20/11 A2995 RMK AO2 SLP140 T02000111 10200 20083 58008
KMKE 191752Z 09004KT 10SM FEW250 14/M01 A3007 RMK AO2 SLP183 T01441006 10144 20044 51009
KMKG 191755Z 31005KT 10SM FEW250 13/M02 A3004 RMK AO2 SLP177 T01331017 10139 21022 50008
KMKJ 191835Z AUTO 26016KT 10SM OVC016 11/07 A3011 RMK AO2 T01120067
KMKL 191753Z 35003KT 10SM CLR 20/13 A3012 RMK AO2 SLP198 T02000133 10200 20056 50003
KMKN 191835Z AUTO 16008KT 7SM -RA BKN020 OVC027 21/19 A2987 RMK AO2 T02060189
KMKO 191753Z AUTO 13011KT 10SM OVC021 19/14 A2999 RMK AO2 SLP154 T01890139 10189 20094 50005
KMKS 191835Z AUTO 02006KT 7SM CLR 20/08 A3000 RMK AO2 LTG DSNT E
KMKT 191756Z AUTO 15017G21KT 10SM 13/06 A2988 RMK AO2 SLP126 T01280056 10128 20006 58010 $
KMKY 191835Z AUTO 26008KT 10SM FEW022 28/19 A3004 RMK AO1
KMLB 191830Z AUTO 03009KT 10SM BKN026 BKN034 BKN080 24/09 A3003 RMK AO2 T02390094
KMLC 191753Z AUTO 13007KT 9SM BKN012 OVC023 19/15 A2997 RMK AO2 SLP145 T01940150 10194 20150 50001
KMLE 191835Z AUTO 16012G20KT 10SM CLR 20/11 A2984 RMK AO2 T01990109
KMLF 191814Z AUTO 20023G27KT 10SM FEW024 BKN070 OVC085 09/03 A2975 RMK AO2 PK WND 20028/1803 T00890033
KMLI 191752Z 13003KT 9SM CLR 20/02 A3002 RMK AO2 SLP166 T02000017 10200 21028 58002
KMLJ 191835Z AUTO 32004KT 10SM SCT043 21/12 A3005 RMK AO2
KMLP 191837Z AUTO VRB04KT 10SM BKN002 BKN007 OVC014 M01/M03 A2948 RMK AO2 SNB1755E28 P0000 T10111028
KMLS 191753Z AUTO 09003KT 10SM CLR 04/00 A2944 RMK AO2 SLP983 T00440000 10044 21006 55003
KMLT 191840Z AUTO 00000KT 1/4SM -RA FG BKN028 OVC050 02/02 A2958 RMK AO2 RAE14B20UPB1755E1758B14E27 P0000 T00220017
KMLU 191753Z 00000KT 10SM CLR 20/15 A3007 RMK AO2 SLP182 T02000150 10200 20117 58006
KMMH 191835Z AUTO 19006G16KT 10SM CLR 06/M05 A2984 RMK AO2 T00571053
KMMI 191835Z AUTO 07008KT 10SM FEW031 16/08 A3013 RMK
KMMK 191753Z AUTO 28007KT 10SM CLR 16/00 A2975 RMK AO2 SLP075 T01560000 10156 21022 58010 TSNO
KMML 191756Z AUTO 18016KT 10SM CLR 14/08 A2979 RMK AO2 SLP093 T01440078 10144 20050 57008
KMMT 191758Z AUTO 30008KT 10SM CLR 21/09 A3002 RMK AO2 SLP168 T02130089 10213 20069 58003 $
KMMU 191745Z 30008G12KT 10SM BKN120 17/03 A2981
KMMV 191753Z AUTO 17014G19KT 10SM FEW018 BKN046 OVC060 08/07 A2951 RMK AO2 RAE30 SLP992 P0001 60009 T00830067 10083 20044 51015
KMNE 191835Z AUTO 14007KT 10SM CLR 24/16 A3002 RMK AO2 T02350163
KMNH 191834Z AUTO 16014G19KT 10SM CLR 11/M06 A2973 RMK AO2
KMNI 191835Z AUTO 10SM CLR 21/08 A3000 RMK AO2
KMNM 191756Z AUTO 11008KT 10SM CLR 08/M01 A3005 RMK AO2 SLP199 6//// T00831006 10100 20022 50009
KMNN 191753Z AUTO 27008KT 10SM CLR 15/04 A3004 RMK AO2 SLP176 T01500044 10156 20078 50005
KMNV 191835Z AUTO 08008KT 10SM BKN027 BKN033 16/10 A3012 RMK A01
KMNZ 191835Z AUTO 18012G16KT 10SM SCT016 BKN043 OVC048 23/19 A2988 RMK AO2 T02300191
KMOB 191756Z 00000KT 10SM FEW010 FEW250 24/14 A3009 RMK AO2 SLP187 T02440139 10250 20106 58005
KMOD 191753Z 15009KT 10SM OVC075 12/05 A2989 RMK AO2 SLP122 T01170050 10117 20067 53010
KMOP 191835Z AUTO 27007KT 10SM CLR 14/00 A3000 RMK AO2 T01380003
KMOR 191835Z AUTO 00000KT 10SM OVC029 16/08 A3011 RMK A01
KMOT 191830Z 09011KT 9SM OVC005 03/01 A2955 RMK AO2 T00330011
KMOX 191833Z AUTO 14020G23KT 10SM CLR 12/07 A2974 RMK AO2
KMPO 191753Z AUTO 28014G19KT 10SM CLR 11/02 A2982 RMK AO2 SLP099 T01110022 10111 20067 58000
KMPV 191751Z AUTO 29015G20KT 10SM BKN045 OVC060 07/00 A2971 RMK AO2 PK WND 29028/1700 SLP066 T00720000 10094 20017 53012 TSNO
KMQB 191835Z AUTO 18006KT 10SM CLR 20/08 A3004 RMK AO2 T01990075
KMQE 191254Z AUTO 25013KT 07/01 A2967 RMK AO1 SLP061 T00670006
KMQI 191830Z AUTO 33003KT 10SM CLR 18/07 A2992 RMK AO2 T01750070
KMQJ 191837Z AUTO 00000KT 7SM CLR 15/08 A3008 RMK AO1
KMQS 191835Z AUTO 30009G15KT 10SM CLR 18/04 A2987 RMK AO2
KMQY 191756Z VRB03KT 9SM SCT023 17/11 A3013 RMK AO2 SLP142 T01670106 10178 20050 58006
KMRB 191753Z 29013KT 10SM CLR 18/05 A2993 RMK AO2 SLP132 T01830050 10183 20133 58003
KMRC 191835Z AUTO 04004KT 10SM CLR 19/14 A3010 RMK
KMRF 191756Z AUTO 21014KT 10SM SCT110 14/M01 A2995 RMK AO2 SLP110 60000 T01441011 10150 20083 50002
KMRH 191758Z AUTO 22007KT 10SM CLR 18/10 A2990 RMK AO2 SLP127 T01830100 10189 20106 58013 TSNO $
KMRJ 191835Z AUTO 15007KT 10SM CLR 15/06 A3002 RMK AO2
KMRN 191830Z AUTO 34006KT 10SM CLR 19/05 A3009 RMK AO2 T01900051
KMRT 191833Z AUTO 23009KT 10SM CLR 15/08 A3005 RMK AO2 T01490075
KMRY 191754Z 11008KT 10SM OVC075 13/06 A2989 RMK AO2 SLP132 T01330056 10133 20078 51008
KMSL 191753Z AUTO 10004KT 10SM CLR 19/11 A3012 RMK AO2 SLP198 T01890106 10194 20056 58005
KMSN 191753Z 17005KT 10SM BKN250 13/02 A3005 RMK AO2 SLP181 T01330017 10133 21028 51008
KMSO 191753Z 12005KT 10SM SCT047 03/01 A2954 RMK AO2 SLP020 T00280006 10028 20006 53012
KMSP 191753Z 14009KT 10SM BKN250 13/03 A2993 RMK AO2 SLP139 T01280033 10128 20011 56010
KMSS 191753Z AUTO 28017G24KT 10SM CLR 08/00 A2977 RMK AO2 SLP083 T00830000 10083 20028 52009
KMSV 191835Z AUTO 30013G17KT 10SM CLR 12/M01 A2980 RMK AO1
KMSY 191753Z 04005KT 10SM FEW008 BKN250 22/18 A3006 RMK AO2 SLP184 T02220178 10222 20128 58002
KMTC 191758Z VRB05KT 10SM FEW200 16/01 A2997 RMK AO2A SLP154 T01640010 10165 20031 51008
KMTH 191753Z AUTO 28008KT 9SM BKN065 28/23 A3005 RMK AO2 SLP176 T02780233 10294 20244 58008
KMTJ 191753Z AUTO 00000KT 10SM OVC100 07/01 A2975 RMK AO2 SLP053 T00720011 10072 21017 58002
KMTN 191745Z 27009KT 10SM SCT120 21/08 A2989
KMTO 191753Z AUTO 20004KT 5SM HZ CLR 14/11 A3008 RMK AO2 SLP185 T01390106 10139 20089 50002
KMTP 191754Z AUTO 26007KT 14/03 A2977 RMK AO1 SLP081 T01390033 10144 20078 58005
KMTV 191835Z AUTO 32010G14KT 10SM CLR 19/05 A3003 RMK AO2 T01850054
KMTW 191756Z AUTO 10SM CLR 11/01 A3006 RMK AO2 SLP204 T01110006 10122 20050 51008 $
KMUI 191758Z AUTO 28013KT 10SM CLR 17/03 A2986 RMK AO2 SLP115 T01720030 10173 20125 58008 $
KMUO 191838Z AUTO 12008KT 10SM FEW047 BKN065 BKN095 08/08 A2963 RMK AO2
KMUT 191835Z AUTO 16009KT 10SM CLR 20/04 A3000 RMK AO2
KMVE 191832Z AUTO 18012KT 10SM CLR 13/07 A2978 RMK AO2
KMVH 191835Z AUTO 30017KT 10SM SCT070 BKN080 BKN120 11/M02 A2944 RMK AO2
KMVL 191754Z AUTO VRB04KT 10SM BKN046 OVC055 08/M02 A2970 RMK AO2 SLP062 T00831017 10094 20022 $
KMVN 191816Z AUTO 19003KT 6SM HZ OVC011 14/11 A3010 RMK AO2
KMVY 191753Z 24010KT 10SM CLR 15/02 A2972 RMK AO2 SLP065 T01500022 10161 20083 58002
KMWA 191745Z 17005KT 5SM BR OVC007 14/14 A3012
KMWC 191745Z 11004KT 10SM SKC 14/M04 A3006
KMWH 191752Z 00000KT 6SM BR BKN004 OVC028 02/01 A2954 RMK AO2 RAB12E25 SLP011 P0001 60007 T00220011 10028 20006 51009
KMWK 191830Z AUTO 30008KT 10SM CLR 18/07 A3005 RMK AO2 T01810071
KMWL 191753Z AUTO 14009KT 6SM HZ BKN015 OVC021 22/18 A2986 RMK AO2 SLP103 T02170178 10217 20161 58002
KMWM 191835Z AUTO 16010KT 10SM CLR 16/08 A2982 RMK AO2
KMWN 191747Z 29069G78KT 0SM FZFG VV000 M04/M04 RMK PK WND 28092/05 SHSNB20E45 VRY LGT ICG 60000 4/028 931000 11037 21047
KMWT 191753Z AUTO 00000KT 10SM OVC011 18/15 A3003 RMK AO2 SLP168 T01780150 10178 20111 55000
KMXF 191758Z AUTO 01008KT 10SM FEW041 22/12 A3007 RMK AO2 SLP185 T02240123 10228 20098 58009
KMXO 191835Z AUTO 14009KT 10SM CLR 17/05 A2999 RMK AO2
KMYF 191753Z 25007KT 10SM BKN014 OVC035 13/09 A2998 RMK AO2 SLP152 60001 T01280094 10128 20111 53030
KMYJ 191855Z AUTO 16007G15KT 10SM CLR 20/10 A3001 RMK AO2 PWINO
KMYL 191751Z AUTO 15008KT 10SM SCT046 OVC070 02/M03 A2956 RMK AO2 SLP018 60009 T00221028 10022 21006 53003
KMYP 191833Z AUTO 18019G30KT 10SM BKN020 BKN027 M01/M06 A2994 RMK AO2
KMYR 191745Z 27009KT 10SM CLR 20/09 A2999
KMYV 191753Z AUTO 16012KT 10SM FEW030 OVC070 11/07 A2986 RMK AO2 SLP115 60002 T01060072 10106 20083 51018
KMYZ 191835Z AUTO 18013KT 10SM CLR 19/12 A2987 RMK AO2
KMZG 191835Z AUTO 12022KT 2 1/2SM BR BKN015 24/22 A2987 RMK A01
KMZH 191833Z AUTO 00000KT 10SM CLR 11/00 A2991 RMK AO2
KMZZ 191835Z AUTO 22004KT 7SM CLR 14/07 A3007 RMK AO2 T01440069
KN03 191835Z AUTO 31009G16KT 258V328 10SM CLR 11/01 A2984 RMK AO2
KN38 191835Z AUTO 31011G21KT 270V350 10SM CLR 14/M03 A2986 RMK AO2
KN60 191752Z AUTO 10008KT 04/01 A2952 RMK AO1 SLP014 T00440011 10044 20000 $
KNAK 191754Z AUTO 33005KT 10SM FEW110 18/06 A2987 RMK AO2 SLP117 T01830056 10189 20122 58005
KNBC 191756Z AUTO 34011KT 10SM CLR 24/11 A3001 RMK AO2 SLP163 T02390111 10239 20094 58014
KNBG 191755Z 11007KT 10SM FEW010 BKN250 24/19 A3006 RMK AO2 SLP179 T02390189 10239 20106 58006 $
KNBT 191756Z AUTO 35005KT 10SM CLR A2990 RMK AO2 SLP131 58014 $
KNCA 191756Z AUTO 32009KT 10SM CLR 21/06 A2992 RMK AO2 SLP133 T02110061 10211 20094 58018
KNDZ 191756Z AUTO 10SM CLR 26/13 A3008 RMK AO2 SLP171 T02560133 10256 20111 58012 $
KNEL 191800Z AUTO 31008KT 10SM CLR A2982 RMK AO2 SLPNO 58003 $
KNEW 191753Z 09008KT 10SM CLR 22/18 A3008 RMK AO2 SLP178 T02220183 10222 20156 58003
KNFE 191756Z AUTO 03010KT 10SM CLR 23/06 A2990 RMK AO2 SLP128 60000 T02280056 10233 20100 58001
KNFG 191756Z AUTO 25005KT 6SM HZ BKN025 OVC034 13/11 A2997 RMK AO2 RAB15E27 SLP148 P0000 60001 T01330106 10133 20122 53030 $
KNFL 191756Z AUTO 16012KT 10SM CLR 11/M01 A2972 RMK AO2 SLP045 T01111006 10111 20033 51008
KNFW 191752Z 13008KT 4SM HZ BKN013 BKN017 OVC022 22/19 A2989 RMK AO2 CIG 008 N SLP107 T02170189 10217 20161 58007 $
KNGP 191756Z AUTO 14020G26KT 7SM OVC032 25/23 A2984 RMK AO2 PK WND 14026/1746 SLP103 T02500228 10256 20222 58005
KNGU 191759Z 04006KT 10SM FEW070 FEW280 21/06 A2992 RMK AO2 SLP132 T02110056 10217 20122 58001
KNHK 191752Z 32010KT 10SM FEW090 19/08 A2989 RMK AO2 SLP122 T01940083 10194 20106 58002
KNID 191756Z AUTO 36004KT 10SM CLR A2983 RMK AO2 SLPNO 51028 $
KNIP 191753Z VRB04KT 10SM SCT036 22/14 A3006 RMK AO2 SLP174 T02220139 10222 20167 58013
KNJK 191756Z AUTO 16004KT 10SM CLR 13/11 A2992 RMK AO2 SLP149 T01330111 10133 20067 51022 $
KNJM 191757Z AUTO 22005KT 10SM CLR 33/08 A2991 RMK AO2 SLP132 T03280078 10339 20117 58015 $
KNKT 191754Z 00000KT 10SM CLR 22/07 A2992 RMK AO2 SLP128 T02170067 10217 20083 58011
KNKX 191755Z 25005KT 2 1/2SM BR SCT013 BKN020 BKN028 15/11 A2998 RMK AO2 SLP148 60009 T01500111 10150 20128 51032 $
KNLC 191756Z AUTO 19004KT 10SM CLR 11/04 A2996 RMK AO2 SLP144 T01110044 10117 20061 51020 $
KNMM 191756Z AUTO 32007KT 10SM CLR 24/12 A3010 RMK AO2 SLP202 T02390122 10239 20078 58009 $
KNOG 191818Z AUTO 16016G25KT 10SM SCT023 BKN031 BKN037 28/21 A2981 RMK AO2 T02780211 $
KNOW 191835Z AUTO 00000KT 10SM SCT010 BKN075 07/04 A2937 RMK AO2 T00740043
KNPA 191756Z 11004KT 10SM FEW250 23/16 A3007 RMK AO2 SLP185 T02330156 10233 20122 58008 $
KNQA 191750Z 08004KT 10SM FEW030 21/14 A3010
KNQI 191756Z AUTO 14018G25KT 9SM SCT024 OVC033 27/22 A2982 RMK AO2 PK WND 15027/1702 SLP093 T02670222 10267 20222 50000 $
KNQX 191753Z 29006KT 10SM FEW025 SCT220 27/21 A3007 RMK AO2 SLP179 T02670211 10272 20194 57009 $
KNRB 191752Z AUTO 08007KT 10SM FEW028 21/15 A3005 RMK AO2 SLP175 T02110150 10228 20167 58012
KNRS 191826Z AUTO 22005KT 6SM HZ SCT023 BKN029 OVC038 A3001 RMK AO2 RAE04UPB04E06 PNO $
KNSE 191756Z AUTO VRB03KT 10SM -RA CLR 24/13 A3007 RMK AO2 SLP170 P0000 60000 T02390128 10239 20100 58013 $
KNSI 191757Z AUTO 29024G28KT 10SM CLR A2997 RMK AO2 PK WND 29028/1756 SLPNO 52030 PWINO $
KNTD 191756Z COR 00000KT 10SM BKN016 BKN035 BKN180 14/11 A2994 RMK AO2 SLP138 T01440106 10150 20094 $
KNTU 191756Z COR 35015KT 10SM FEW150 FEW200 19/06 A2990 RMK AO2 SLP127 T01940056 10200 20094 50001
KNUI 191753Z AUTO 23007KT 10SM OVC090 18/08 A2990 RMK AO2 SLP123 T01830078 10200 20078 50000
KNUQ 191756Z 14008KT 10SM OVC065 11/07 A2987 RMK AO2 RAB04E16 SLP117 P0000 60001 T01110067 10111 20089 51006
KNUW 191756Z 14024G33KT 10SM SCT025 BKN060 BKN110 08/03 A2943 RMK AO2 PK WND 13033/1756 SLP965 T00830033 10089 20061 50004 $
KNXF 191816Z AUTO 23009KT 5SM HZ OVC031 RMK AO2 PNO $
KNXP 191756Z COR 12007KT 10SM FEW060 12/07 A2994 RMK AO2 SLP120 T01220072 10122 20083 53023
KNYC 191751Z AUTO 30006KT 10SM CLR 17/02 A2982 RMK AO2 SLP090 T01720017 10178 20128 58004 $
KNYG 191756Z VRB06KT 10SM SCT100 19/07 A2993 RMK AO2 SLP135 T01940072 10211 20083 58002 $
KNYL 191757Z AUTO 19006KT 10SM CLR 17/11 A2992 RMK AO2 SLP129 T01670106 10167 20122 51022
KNZY 191752Z 25010KT 10SM BKN023 BKN034 BKN048 14/09 A2998 RMK SLP152 T01440094 10144 20122 51031
KO22 191835Z AUTO 15007KT 10SM OVC060 11/06 A2990 RMK AO1
KO54 191835Z AUTO 01006KT 3SM BKN019 BKN024 05/03 A2971 RMK AO1 P0002
KO69 191835Z AUTO 12007KT 090V160 10SM SCT026 OVC044 10/08 A2986 RMK AO1
KO86 191835Z AUTO 28004KT 3SM SCT015 03/02 A2973 RMK AO1
KOAJ 191756Z AUTO 29008KT 10SM CLR 22/07 A2993 RMK AO2 SLP141 T02170072 10217 20067 58015
KOAK 191753Z 14018KT 10SM FEW020 BKN060 OVC085 13/08 A2985 RMK AO2 RAB29E45 SLP108 P0000 60003 T01280083 10128 20106 52006
KOBE 191835Z AUTO 29009G14KT 10SM SCT033 BKN045 BKN060 28/18 A3003 RMK AO2
KOCF 191750Z 35007KT 10SM SCT031 24/15 A3007
KOCH 191835Z 14010G14KT BKN019 OVC026 23/18 A2995 RMK AO1
KOCQ 191835Z AUTO 13005KT 10SM CLR 11/M01 A3004 RMK AO1 T01061006
KOCW 191830Z AUTO 33006KT 300V030 10SM CLR 22/06 A2991 RMK AO2 T02160057
KODO 191753Z AUTO 26011KT 10SM FEW110 21/01 A2987 RMK AO2 SLP078 T02110006 10211 20117 50002 $
KODX 191753Z AUTO 17017G26KT 10SM CLR 16/07 A2972 RMK AO2 PK WND 18028/1658 SLP068 T01610072 10167 20011 58011
KOEB 191835Z AUTO 28004KT 10SM CLR 17/M01 A3003 RMK AO2 T01661014
KOEO 191835Z AUTO 13011KT 10SM CLR 14/03 A2996 RMK AO2 T01390032
KOFF 191758Z AUTO 16012KT 10SM CLR 18/11 A2987 RMK AO2 SLP121 T01820113 10182 20002 58011 $
KOFK 191756Z AUTO 18014G26KT 10SM CLR 16/09 A2979 RMK AO2 PK WND 15026/1753 SLP089 T01610094 10161 20039 58002
KOFP 191754Z AUTO 33006G15KT 10SM FEW065 FEW090 22/06 A2993 RMK AO2 SLP133 T02220061 10222 20072 58003
KOGA 191835Z AUTO 18009KT 10SM CLR 15/02 A2968 RMK AO2 T01470016
KOGB 191753Z AUTO 01009KT 10SM CLR 22/09 A3002 RMK AO2 SLP162 T02170089 10217 20100 58003
KOGD 191753Z 18006KT 10SM BKN036 BKN042 OVC060 08/04 A2969 RMK AO2 RAB38E48 SLP036 P0000 60033 T00830044 10083 20044 53009
KOGS 191835Z AUTO 30008KT 10SM SCT043 SCT050 SCT055 11/01 A2978 RMK AO2 T01050007 TSNO
KOJA 191835Z AUTO 19006KT 5SM BR OVC006 15/15 A2990 RMK AO2
KOJC 191753Z 17010KT 10SM CLR 18/12 A2996 RMK AO2 SLP140 I6000 T01830122 58010 $
KOKB 191752Z AUTO 24006KT 10SM SCT027 OVC035 14/11 A2996 RMK AO2 SLP146 60000 T01440111 10150 20122 51033
KOKC 191752Z 17014KT 10SM BKN015 19/14 A2990 RMK AO2 SLP120 T01890144 10189 20128 58007
KOKK 191756Z AUTO VRB05KT 9SM CLR 14/08 A3008 RMK AO2 SLP191 T01390078 10139 20072 50000
KOKM 191835Z AUTO 15011G19KT 10SM OVC015 19/16 A2994 RMK AO2 T01940155
KOKV 191835Z AUTO 29009G14KT 10SM CLR 17/06 A2995 RMK AO2
KOKZ 191835Z AUTO 34004KT 10SM SCT039 BKN046 21/13 A3004 RMK AO2 T02060131
KOLE 191815Z AUTO 29008G15KT 260V320 10SM CLR 11/01 A2989 RMK AO2
KOLF 191826Z AUTO 09008KT 1 1/4SM BR OVC002 01/00 A2950 RMK AO2 T00110000
KOLG 191835Z AUTO 15005KT 10SM CLR 12/M01 A2994 RMK AO1
KOLM 191754Z 18013KT 10SM -RA FEW010 SCT030 BKN050 06/04 A2945 RMK AO2 SLP973 P0001 60006 T00610044 10061 20039 51015
KOLS 191754Z AUTO 17008KT 10SM FEW020 BKN030 OVC080 09/04 A2997 RMK AO2 RAB11E23 SLP129 P0000 60000 T00940039 10100 20050 53010
KOLU 191835Z AUTO 18014G21KT 10SM CLR 18/11 A2981 RMK AO2 RVRNO
KOLV 191750Z 00000KT 10SM FEW250 A3010
KOLY 191835Z AUTO 20003KT 4SM BR OVC006 11/11 A3011 RMK AO2
KOLZ 191835Z AUTO 14012KT 10SM CLR 15/07 A2997 RMK AO2
KOMA 191752Z COR 16019G24KT 10SM SCT160 BKN250 18/10 A2987 RMK AO2 SLP114 T01780100 10178 20050 58010
KOMH 191835Z AUTO 00000KT 10SM CLR 21/06 A2994 RMK AO2
KOMK 191817Z AUTO 17005KT 8SM UP FEW005 OVC012 02/00 A2953 RMK AO2 RAE1758UPB1758 P0000 T00220000
KOMN 191750Z 03008KT 7SM SCT035 23/18 A3006
KONA 191832Z AUTO 14006KT 10SM CLR 11/02 A2998 RMK AO2
KONL 191835Z AUTO 19016KT 10SM CLR 16/08 A2969 RMK AO2 T01630081
KONM 191835Z AUTO 12005KT 10SM SCT028 BKN038 OVC047 09/02 A2989 RMK AO2 T00870022
KONO 191834Z AUTO 28006KT 3SM BR SCT002 BKN014 BKN030 01/01 A2965 RMK AO2 UPB1758E00RAB00E29 P0003 T00110006
KONP 191835Z AUTO 18017G31KT 3SM RA SCT008 BKN012 OVC029 08/06 RMK AO2 P0003
KONT 191753Z COR 23004KT 10SM FEW020 BKN032 BKN065 13/09 A2994 RMK AO2 SLP137 BKN V OVC T01330094 10133 20100 51029 $
KONX 191840Z AUTO 02005KT 10SM CLR 21/06 A2991 RMK AO2 T02060059
KONZ 191833Z AUTO 29009G14KT 10SM CLR 17/M01 A2998 RMK AO2 T01741007
KOPF 191753Z 32011KT 10SM FEW041 FEW050 30/19 A3003 RMK AO2 SLP169 T03000189 10300 20200 58017
KOPL 191835Z AUTO 10SM OVC012 21/17 A3004 RMK AO2 T02050171 PWINO
KOPN 191835Z AUTO 30008KT 10SM SCT033 SCT038 20/08 A3008 RMK AO2
KOQT 191753Z AUTO 00000KT 10SM BKN030 16/08 A3014 RMK AO2 SLP206 T01560078 10156 20100 58002
KOQU 191755Z 29012KT 15SM BKN170 16/00 A2972
KORB 191833Z AUTO 00000KT 10SM CLR 09/M03 A2989 RMK AO2
KORD 191751Z 14005KT 10SM FEW250 17/M03 A3005 RMK AO2 SLP179 T01721028 10172 20028 51007
KORE 191752Z AUTO 28008G16KT 10SM CLR 12/M01 A2969 RMK AO2 SLP058 T01221006 10122 21044 58008
KORF 191751Z 02007KT 10SM CLR 19/07 A2991 RMK AO2 SLP127 T01940067 10194 20122 50001
KORG 191835Z AUTO 14009G14KT 10SM OVC011 24/21 A3000 RMK AO2 T02370208
KORH 191754Z 26014KT 10SM CLR 12/M01 A2968 RMK AO2 SLP054 T01171011 10117 20044 58008
KORL 191753Z COR VRB03KT 10SM FEW025 24/15 A3005 RMK AO2 SLP179 T02440150 10256 20178 58012
KORS 191835Z AUTO 15006G20KT 9SM BKN021 OVC026 07/04 A2939 RMK AO2
KOSA 191835Z AUTO 09006KT 10SM SCT020 SCT026 23/17 A2997 RMK AO1 T02340172
KOSC 191833Z AUTO 29007KT 10SM CLR 13/M01 A2997 RMK AO2 T01341008
KOSH 191753Z 06004KT 10SM CLR 11/02 A3004 RMK AO2 SLP177 T01060017 10111 20006 50007
KOSU 191815Z 22008KT 8SM SCT015 12/08 A3006 RMK AO2 T01220078
KOTG 191756Z AUTO 16012KT 10SM CLR 12/09 A2982 RMK AO2 SLP107 T01220089 10122 20044 56009
KOTH 191835Z 21008KT 10SM OVC024 11/07 A2959 RMK AO1
KOTM 191753Z AUTO 15006KT 10SM CLR 19/09 A2999 RMK AO2 SLP155 T01940089 10200 20000 58001
KOUN 191835Z AUTO 17012G22KT 10SM BKN021 20/16 A2990 RMK AO2
KOVE 191800Z AUTO 13011KT 10SM FEW018 BKN028 OVC033 10/06 A2986 RMK AO2 T01000061
KOVL 191834Z AUTO 14015G19KT 10SM CLR 13/08 A2981 RMK AO2
KOVS 191753Z AUTO 00000KT 10SM CLR 14/01 A3003 RMK AO2 SLP174 I6001 T01440011 10144 21044 58003
KOWA 191834Z AUTO 14013G18KT 10SM CLR 13/06 A2990 RMK AO2
KOWB 191756Z 19004KT 5SM BR OVC008 11/09 A3012 RMK AO2 SLP213 T01110094 10111 20089 50001
KOWD 191753Z 26010G17KT 10SM CLR 14/01 A2968 RMK AO2 SLP051 T01390011 10139 20000 58009
KOWI 191835Z AUTO 19013G19KT 9SM FEW023 20/14 A2993 RMK AO2
KOWP 191835Z AUTO 16009KT 10SM 19/15 A2993 RMK AO2 T01940153
KOWX 191835Z AUTO 27011KT 10SM CLR 15/05 A3005 RMK AO1
KOXB 191753Z AUTO 33009KT 10SM BKN075 OVC100 17/06 A2987 RMK AO2 SLP116 T01720056 10206 20133 50001
KOXC 191750Z 28008KT 10SM SCT170 14/00 A2978
KOXI 191835Z AUTO 22005KT 10SM CLR 15/M07 A3006 RMK AO1
KOXR 191751Z VRB06KT 6SM HZ BKN019 15/11 A2994 RMK AO2 SLP137 T01500106 10150 20089 53026 $
KOXV 191835Z AUTO 18012KT 10SM CLR 21/08 A2992 RMK AO2
KOZR 191838Z AUTO 27006KT 10SM SCT044 BKN055 24/14 A3005 RMK AO2 SLP177
KOZS 191835Z AUTO 12012G15KT 10SM CLR 23/07 A3000 RMK AO2
KOZW 191834Z AUTO 27008KT 10SM CLR 15/00 A3000 RMK AO2 T01501001
KP28 191756Z AUTO 16009KT 11/11 A2989 RMK AO1 SLP121 T01110106 10111 20067 58002
KP53 191756Z AUTO 34009KT 04/M01 A3004 RMK AO1 SLP179 T00391006 10039 20017 51018
KP58 191751Z AUTO 30010KT 09/01 A2998 RMK AO1 SLP155 T00890006 10094 20028 51016
KP59 191751Z AUTO 03003KT 03/M01 A3005 RMK AO1 SLP181 T00331011 10044 20011 51024 $
KP60 191756Z AUTO VRB04KT 00/M01 A2961 RMK AO1 SLP017 60007 T00001011 10000 21022 51001 $
KP68 191753Z AUTO VRB03KT 04/M01 A2976 RMK AO1 SLP063 T00441011 10044 21028 51016
KP69 191752Z AUTO 00000KT 04/02 A2961 RMK AO1 SLP041 60001 T00390017 10039 20006 50013
KP92 191753Z AUTO 12008KT 090V150 24/21 A3003 RMK AO1 SLP167 T02390206 10239 20172 58001
KPAE 191753Z 12010KT 10SM SCT050 06/04 A2944 RMK AO2 RAE20 SLP971 P0001 60003 T00610044 10061 20044 51018
KPAH 191814Z 19004KT 6SM BR OVC005 13/11 A3011 RMK AO2 T01280111
KPAM 191756Z AUTO 32004KT 10SM CLR 24/16 A3007 RMK AO2 DZB1656 SLP186 P0000 60000 T02410158 10241 20125 58012
KPAN 191835Z AUTO 18007KT 160V220 3SM -DZ BKN003 OVC007 04/03 A2997 RMK AO2
KPAO 191747Z 13010G15KT 10SM SCT025 OVC060 12/08 A2985
KPBF 191753Z AUTO 10007KT 10SM CLR 22/15 A3005 RMK AO2 SLP176 T02170150 10217 20106 58007
KPBG 191753Z AUTO 31008G22KT 10SM SCT050 10/M01 A2971 RMK AO2 SLP061 T01001011 10106 20061 53017
KPBH 191835Z AUTO 00000KT 10SM CLR 12/M01 A2998 RMK AO2 T01151011
KPBI 191753Z 31011KT 10SM SCT036 BKN046 29/18 A3003 RMK AO2 SLP167 T02890178 10294 20217 58016 $
KPBX 191835Z AUTO 25004KT 10SM OVC024 13/07 A3010 RMK AO2 T01340073
KPCM 191835Z AUTO 32006KT 285V345 10SM SCT045 28/16 A3006 RMK AO2
KPCW 191834Z AUTO 28009KT 10SM CLR 18/07 A3000 RMK AO2 $
KPCZ 191835Z AUTO 00000KT 10SM CLR 15/00 A3003 RMK AO2 T01490001
KPDC 191835Z AUTO 20003KT 10SM CLR 15/03 A2999 RMK AO2 T01480027
KPDK 191753Z 31010KT 10SM SCT026 18/09 A3009 RMK AO2 SLP185 T01830094 10189 20111 58001
KPDT 191753Z 26015G23KT 7SM -RA BKN041 BKN055 OVC070 05/03 A2953 RMK AO2 PK WND 26027/1726 RAB38 SLP001 P0000 60000 T00500028 10056 20006 53019
KPDX 191753Z 12010KT 10SM -RA SCT042 BKN065 OVC090 07/04 A2952 RMK AO2 RAE06B36 SLP995 P0000 60001 T00670039 10067 20044 53010
KPEA 191835Z AUTO 15009KT 10SM CLR 20/09 A2995 RMK AO2 T01980094
KPEO 191753Z AUTO 31012G20KT 10SM CLR 14/M01 A2985 RMK AO2 SLP111 T01391006 10144 20039 50000 $
KPEQ 191835Z AUTO 02003KT 10SM -RA SCT065 SCT080 BKN090 19/01 A2985 RMK AO2 T01900008
KPEX 191833Z AUTO 14012G17KT 10SM CLR 12/04 A2984 RMK AO2 T01150043
KPEZ 191835Z AUTO 12011G14KT 10SM SCT028 BKN035 OVC050 26/19 A2981 RMK AO2 T02560190
KPGA 191840Z AUTO 19009G17KT 10SM -RA BKN022 OVC040 07/02 A2983 RMK AO2 P0000 T00720017 TSNO
KPGD 191753Z 28009G14KT 10SM CLR 28/18 A3006 RMK AO2 SLP180 T02780183 10283 20200 58012
KPGV 191830Z AUTO 33008KT 303V003 10SM CLR 23/05 A2995 RMK AO2
KPHD 191753Z AUTO VRB06KT 10SM CLR 16/06 A3002 RMK AO2 SLP168 T01560061 10156 20072 53001
KPHF 191754Z 36007KT 10SM CLR 23/07 A2990 RMK AO2 SLP123 T02280067 10228 20106 58002
KPHL 191754Z 24007KT 10SM SCT140 SCT220 SCT280 19/04 A2984 RMK AO2 SLP105 T01890044 10194 20144 58011
KPHN 191837Z AUTO 29008KT 10SM CLR 14/02 A2999 RMK AO2
KPHP 191755Z AUTO 20006KT 10SM CLR 18/02 A2951 RMK AO2 SLP985 T01830017 10189 20011 58012
KPHT 191835Z AUTO 21005KT 10SM CLR 19/12 A3011 RMK
KPHX 191834Z 15006KT 10SM FEW014 SCT021 OVC031 13/10 A2994 RMK AO2 RAE1755 P0000 T01280100
KPIA 191754Z 18007KT 10SM CLR 14/07 A3006 RMK AO2 SLP181 T01440067 10144 20011 50002
KPIB 191835Z AUTO 08004KT 10SM CLR 24/13 A3009 RMK AO1
KPIE 191753Z 31008KT 10SM CLR 26/17 A3006 RMK AO2 SLP179 T02560167 10267 20194 58008
KPIH 191753Z 22009KT 10SM SCT027 BKN037 06/02 A2967 RMK AO2 SLP038 60007 T00610017 10061 20022 51009
KPIL 191753Z AUTO 16021G30KT 5SM HZ BKN022 BKN028 27/22 A2982 RMK AO2 PK WND 15032/1741 SLP095 T02720217 10283 20228 58000
KPIM 191835Z AUTO 04005KT 10SM BKN034 BKN041 20/12 A3007 RMK AO2 T02040121
KPIR 191753Z AUTO 18015KT 10SM CLR 16/03 A2953 RMK AO2 SLP999 T01560033 10156 20033 58020
KPIT 191751Z 27008KT 10SM CLR 15/06 A2998 RMK AO2 SLP159 T01500056 10156 20067 56003
KPKB 191753Z 26007KT 7SM OVC014 11/08 A3009 RMK AO2 SLP191 T01110078 10111 20083 50008
KPKD 191753Z AUTO 12008KT 10SM OVC110 07/01 A2983 RMK AO2 SLP115 T00720011 10072 20011 58013
KPKV 191835Z AUTO 12017G23KT 7SM BKN018 BKN022 OVC032 22/21 A2988 RMK AO2 T02220212
KPLN 191754Z AUTO 32007KT 10SM CLR 06/M02 A3001 RMK AO2 SLP171 T00561017 10061 21039 51013
KPLR 191835Z AUTO 34006KT 10SM FEW036 20/11 A3010 RMK A01
KPLU 191835Z AUTO VRB05G14KT 6SM -DZ 08/04 A2946 RMK AO2
KPMD 191753Z AUTO 23013G21KT 10SM CLR 12/07 A2988 RMK AO2 SLP112 T01220067 10122 20072 53022
KPMP 191753Z 29010KT 10SM FEW047 SCT075 29/18 A3002 RMK AO2 SLP165 T02940178 10311 20217 58018
KPMU 191835Z AUTO 00000KT 10SM CLR 22/12 A3009 RMK AO2 T02210119
KPMV 191835Z AUTO 16012G18KT 10SM CLR 19/07 A2986 RMK AO2 T01870073
KPNA 191835Z AUTO 13007KT 10SM SCT007 BKN047 OVC120 01/00 A2967 RMK AO2
KPNC 191353Z AUTO 15009KT 1/2SM FG OVC002 12/11 A2991 RMK AO2 SLP125 T01170106
KPNE 191754Z AUTO 30007KT 10SM CLR 19/04 A2985 RMK AO2 SLP108 T01940044 10206 20128 58006 TSNO
KPNM 191834Z AUTO 12008KT 10SM CLR 15/03 A2990 RMK AO2
KPNS 191753Z 01005KT 10SM CLR 24/15 A3008 RMK AO2 SLP186 T02440150 10244 20150 58013
KPNT 191835Z AUTO 21004KT 10SM CLR 19/04 A3005 RMK AO2 T01870043
KPOB 191758Z AUTO 35006KT 10SM CLR 21/07 A2997 RMK AO2 SLP151 T02100072 10210 20088 58005 $
KPOC 191747Z 00000KT 10SM BKN015 OVC029 12/09 A2997
KPOE 191758Z AUTO 10009KT 10SM CLR 24/18 A3001 RMK AO2 SLP162 T02380175 10240 20168 58007
KPOF 191826Z AUTO 13004KT 6SM BR BKN004 14/13 A3008 RMK AO2 T01390133 TSNO
KPOU 191753Z 25010KT 10SM CLR 12/01 A2976 RMK AO2 SLP077 T01170011 10128 21017 58007
KPOV 191841Z AUTO 27012KT 10SM CLR 16/M01 A2999 RMK AO2 T01601010
KPOY 191835Z AUTO 14009KT 10SM CLR 05/00 A2949 RMK AO2
KPPA 191835Z AUTO 18018G23KT 10SM SCT010 16/11 A2982 RMK AO2 T01640111
KPPF 191830Z AUTO 18012G19KT 9SM OVC016 18/13 A2996 RMK AO2 T01780128
KPPO 191835Z AUTO 27005KT 10SM CLR 17/01 A3007 RMK AO2 T01670011
KPPQ 191835Z AUTO 17003KT 10SM CLR 21/10 A3003 RMK AO2 T02140101
KPQI 191833Z AUTO 00000KT 1 3/4SM -SN SCT016 BKN029 OVC035 02/M01 A2958 RMK AO2 VIS 1 1/4V5 UPB01E24SNE01B24 P0000 FZRANO
KPQL 191753Z VRB03KT 10SM CLR 27/13 A3007 RMK AO2 SLP185 T02670133 10267 20100 58010
KPQN 191834Z AUTO 19012KT 10SM SCT085 14/08 A2977 RMK AO2
KPRB 191753Z AUTO 16003KT 10SM CLR A2995 RMK AO2 SLPNO 51020 TSNO
KPRC 191753Z 14003KT 10SM SCT017 OVC024 06/03 A2991 RMK AO2 SLP103 60000 T00610028 10061 20022 51020
KPRG 191835Z AUTO 16004KT 10SM CLR 15/10 A3008 RMK AO2 T01540099
KPRN 191756Z AUTO 01008KT 10SM BKN037 23/12 A3007 RMK AO2 SLP181 T02330122 10244 20089 58007
KPRO 191835Z AUTO 15013KT 10SM CLR 16/10 A2989 RMK AO2 T01620095
KPRS 191835Z AUTO 17005KT 10SM SCT090 18/00 A2994 RMK AO2 T01810000
KPRX 191835Z 13010KT 8SM OVC004 18/16 A2997 RMK AO1
KPSC 191753Z 32005KT 1/4SM -RA FG VV002 02/02 A2957 RMK AO2 RAB50 SLP017 P0000 60003 T00170017 10017 20000 53014 RVRNO $
KPSF 191754Z AUTO 28020G29KT 10SM CLR 10/M01 A2972 RMK AO2 PK WND 28032/1737 SLP059 T01001011 10100 20056 58003
KPSK 191835Z AUTO 30008KT 10SM BKN027 13/06 A3007 RMK AO2 T01340064
KPSM 191758Z 24006KT 10SM FEW050 SCT190 BKN250 11/01 A2962 RMK AO2A SLP033 4/014 T01080008 10109 20058 57010
KPSN 191835Z AUTO 13011G16KT 7SM OVC013 22/19 A2994 RMK AO2 T02210195
KPSO 191835Z AUTO 25006KT 1 1/2SM -SN OVC008 02/02 A2986 RMK AO2 VIS 3/4V3 T00190016
KPSP 191807Z VRB05KT 10SM FEW017 BKN025 16/12 A2993 RMK AO2 T01560122
KPSX 191839Z AUTO 13020G27KT 10SM SCT012 OVC028 26/21 A2987 RMK AO2 PK WND 14031/1802 T02560206
KPTB 191835Z AUTO 04004KT 10SM SCT049 BKN100 21/07 A2993 RMK AO2 T02140071
KPTK 191753Z 27014KT 10SM FEW200 FEW240 14/M01 A2999 RMK AO2 SLP156 T01441006 10144 20017 51009
KPTN 191825Z AUTO 13007KT 10SM OVC011 23/20 A3004 RMK AO2
KPTS 191835Z AUTO 19010G15KT 10SM CLR 22/15 A2995 RMK AO2 T02230147
KPTT 191835Z AUTO 16013G18KT 10SM OVC005 11/08 A2985 RMK AO2 T01050082
KPTV 191756Z AUTO 00000KT 10SM CLR 11/06 A2997 RMK AO2 SLP165 T01060061 10106 20089 53020
KPTW 191754Z AUTO 32013G16KT 10SM CLR 19/04 A2986 RMK AO2 SLP107 T01890039 10189 20122 58006 TSNO
KPUB 191753Z 12009KT 10SM CLR 13/M02 A2969 RMK AO2 SLP031 T01331022 10133 21017 58009
KPUC 191836Z AUTO 19003KT 2 1/2SM UP BR FEW001 BKN014 OVC019 03/03 A2974 RMK AO2 UPE11B24RAB1756E24 P0001 T00280028
KPUJ 191835Z AUTO 36008KT 10SM BKN026 BKN032 18/13 A3008 RMK AO2
KPUW 191753Z AUTO 12011KT 10SM CLR 04/02 A2953 RMK AO2 SLP013 60005 T00440022 10050 20017 51011
KPVB 191835Z AUTO 18005KT 10SM CLR 15/07 A3002 RMK AO1 T01450067
KPVC 191756Z AUTO 24013KT 10SM CLR 15/04 A2968 RMK AO2 SLP051 T01500039 10150 20067 58010
KPVD 191751Z 26007KT 10SM FEW100 FEW150 BKN180 BKN300 16/01 A2972 RMK AO2 SLP063 4/001 T01560006 10156 20072 58006
KPVF 191835Z AUTO 19008KT 10SM OVC060 08/04 A2986 RMK AO1
KPVG 191835Z 01003KT 10SM CLR 22/07 A2989 RMK AO1
KPVJ 191835Z AUTO 16009KT 7SM OVC012 19/17 A2991 RMK AO2 T01900167
KPVU 191758Z 15005KT 10SM -RA BKN039 OVC07047 09/05 A2972
KPVW 191835Z AUTO 18011KT 10SM CLR 19/05 A2981 RMK AO2 T01870054
KPWA 191753Z 19012G20KT 9SM OVC016 19/15 A2990 RMK AO2 SLP117 T01940150 10194 20133 58004
KPWC 191834Z AUTO 12006KT 10SM CLR 07/02 A2990 RMK AO2
KPWG 191840Z AUTO 15016KT 8SM SCT021 BKN027 OVC048 24/19 A2986 RMK AO2
KPWK 191752Z VRB05KT 10SM CLR 17/M02 A3007 RMK AO2 SLP184 T01671017 10167 21011 51005
KPWM 191751Z 25008KT 10SM SCT250 12/01 A2960 RMK AO2 SLP022 T01170011 10122 20028 58013
KPWT 191835Z AUTO 18009KT 10SM BKN017 BKN021 OVC030 06/05 A2947 RMK AO1 P0001
KPXE 191835Z AUTO 33008KT 10SM 23/11 A3006 RMK AO2 T02270112
KPYM 191752Z AUTO 25010G16KT 10SM CLR 14/01 A2969 RMK AO2 SLP055 T01390006 10150 20050 58008
KPYX 191835Z AUTO 16020G26KT 10SM CLR 21/12 A2979 RMK AO2 T02060118
KPZQ 191834Z AUTO 34010G15KT 10SM CLR 07/M01 A3001 RMK AO2 T00671013
KRAC 191753Z AUTO 04006KT 10SM CLR 14/M01 A3007 RMK AO2 SLP185 T01441006 10144 20044 50007
KRAL 191840Z 29003KT 10SM SCT020 BKN025 OVC038 13/09 A2997 RMK AO2 T01330094
KRAP 191752Z 18016G22KT 10SM CLR 19/00 A2952 RMK AO2 SLP985 T01940000 10194 20011 58010
KRAS 191835Z AUTO 12007KT 5SM BR OVC021 22/21 A2984 RMK AO2 T02240210
KRBD 191807Z 15009KT 5SM BR BKN017 BKN025 OVC030 22/19 A2989 RMK AO2 T02170194
KRBG 191753Z AUTO 17010KT 10SM CLR 09/04 A2959 RMK AO2 SLP020 60007 T00890039 10094 20044 51016
KRBL 191754Z AUTO 16023G29KT 10SM OVC010 09/07 A2978 RMK AO2 PK WND 16030/1707 RAE43 CIG 009V014 SLP082 P0000 60000 T00890072 10089 20083 51019
KRBO 191835Z AUTO 15019G26KT 10SM SCT023 SCT028 OVC037 27/21 A2982 RMK AO2 T02710211
KRBW 191835Z AUTO 32007KT 10SM SCT048 22/10 A3001 RMK AO2 LTG DSNT W
KRCA 191758Z AUTO 19015KT 10SM CLR 19/01 A2951 RMK AO2 SLP986 T01870005 10187 20014 57010 $
KRCE 191755Z AUTO 18014G20KT 8SM CLR 20/17 A2990 RMK AO2
KRCM 191835Z AUTO 15009KT 10SM CLR 21/09 A2996 RMK AO2
KRCR 191835Z AUTO 23005KT 7SM CLR 13/08 A3008 RMK AO2
KRCV 191830Z AUTO 00000KT 10SM SCT028 BKN036 OVC050 04/M02 A2980 RMK AO2 T00431019
KRCX 191835Z AUTO 17003KT 10SM CLR 11/01 A3000 RMK AO2 T01100009
KRCZ 191830Z AUTO 27010G16KT 10SM CLR 20/08 A2999 RMK AO2 T01970079
KRDD 191753Z 17022G32KT 10SM OVC015 09/07 A2974 RMK AO2 PK WND 19033/1741 SLP069 T00940067 10094 20083 51015
KRDG 191754Z 28011KT 10SM CLR 19/05 A2985 RMK AO2 SLP111 T01890050 10194 20117 58006
KRDK 191835Z AUTO 17017KT 10SM CLR 20/10 A2987 RMK AO2
KRDM 191756Z 19012KT 10SM SCT045 04/M02 A2952 RMK AO2 SLP003 60008 T00391017 10050 20000 53015
KRDR 191758Z AUTO 15007KT 10SM BKN120 04/02 A2972 RMK AO2 SLP079 T00420021 10042 20004 57013
KRDU 191751Z 33005KT 10SM FEW050 21/05 A2997 RMK AO2 SLP148 T02060050 10211 20067 58002 $
KREO 191752Z AUTO 20022G28KT 08/M04 A2960 RMK AO1 PK WND 20034/1716 SLP020 T00831039 10089 20017 51019 $
KRFD 191754Z 15007KT 10SM SCT250 17/02 A3007 RMK AO2 SLP185 I6000 T01720022 10172 21011 50003
KRFI 191835Z AUTO 15013G16KT 10SM OVC022 24/18 A2996 RMK AO2 T02350177
KRGA 191835Z AUTO 30004KT 10SM BKN021 BKN027 15/08 A3010 RMK AO2
KRGK 191836Z AUTO 14007KT 10SM CLR 12/03 A2994 RMK AO2
KRHI 191753Z AUTO 00000KT 10SM CLR 10/M01 A3001 RMK AO2 SLP174 T01001011 10100 21022 50004 TSNO
KRHP 191830Z AUTO 07007G15KT 10SM SCT032 15/08 A3010 RMK AO2 T01480077
KRHV 191747Z 14016KT 10SM SCT050 BKN080 12/06 A2989
KRIC 191754Z 30009KT 10SM FEW050 FEW250 22/08 A2992 RMK AO2 SLP133 T02220078 10222 20094 58001
KRIL 191753Z AUTO 29005KT 10SM BKN095 06/01 A2973 RMK AO2 SLP058 T00610006 10067 21022 56007 $
KRIV 191828Z AUTO 19005KT 10SM BKN025 OVC030 13/11 A2995 RMK AO2 BKN V OVC
KRIW 191753Z AUTO 31009KT 10SM CLR 04/00 A2955 RMK AO2 SLP002 T00440000 10044 21022 56001
KRKD 191756Z AUTO 21009KT 10SM FEW070 12/01 A2957 RMK AO2 SLP016 T01220011 10122 21011 57012
KRKP 191808Z AUTO 13013KT 6SM HZ BKN008 BKN013 OVC018 24/21 A2986 RMK AO2 T02390211
KRKR 191835Z AUTO 18009G16KT 10SM BKN027 23/15 A2999 RMK AO2 T02250146
KRKS 191754Z AUTO 29007KT 10SM OVC065 05/M01 A2967 RMK AO2 SLP025 T00501011 10061 20033 53007
KRLD 191835Z AUTO 00000KT 1/4SM FG OVC001 03/03 A2957 RMK AO2 T00270027
KRME 191753Z 30010KT 10SM CLR 08/01 A2983 RMK AO2 SLP105 T00780011 10078 21067 58001
KRMG 191753Z AUTO 02008G19KT 10SM BKN033 19/09 A3009 RMK AO2 SLP185 T01890094 10189 20100 58007
KRMN 191835Z AUTO 32013G18KT 10SM CLR 21/07 A2996 RMK AO2 LTG DSNT S T02090073
KRMY 191833Z AUTO 29006KT 10SM CLR 17/M02 A3002 RMK AO2 T01721021
KRNC 191835Z AUTO 00000KT 6SM FEW027 17/10 A3011 RMK
KRND 191816Z AUTO 16016KT 10SM SCT026 BKN060 25/20 A2985 RMK AO2 SLP101
KRNH 191835Z AUTO 16006KT 10SM CLR 13/04 A2995 RMK AO2 T01300035
KRNM 191839Z 24011KT 3SM -RA BR BKN007 OVC013 11/10 A2998 RMK AO2 RAB07 CIG 005V009 P0001 T01060100 $
KRNO 191755Z 01007KT 10SM SCT025 SCT075 SCT200 09/M03 A2973 RMK AO2 SLP049 CCSL DSNT N AND SE ROTOR CLDS ALQDS MTN TOPS OBSCD SW T00941028 10094 20028 53008
KRNP 191835Z AUTO 27008KT 10SM CLR 14/00 A3001 RMK AO2 T01371002
KRNT 191753Z 16003KT 10SM BKN065 BKN075 BKN090 07/07 A2945 RMK AO2 SLP978 60000 T00720072 10072 20039 51015 $
KRNV 191835Z AUTO 15006KT 090V170 10SM CLR 23/15 A3006 RMK AO2 T02270153
KROA 191754Z COR 30015KT 10SM FEW040 17/06 A3003 RMK AO2 SLP166 T01670056 10172 20117 50001
KROC 191754Z 28016G20KT 10SM FEW046 FEW160 14/02 A2986 RMK AO2 SLP117 T01390017 10144 20044 58001 $
KROG 191758Z 16008KT 10SM CLR 22/14 A3001 RMK AO2 SLP156 T02170144 10217 20078 58003
KROS 191838Z AUTO 14008KT 10SM CLR 14/02 A2991 RMK AO2
KROW 191751Z 19018KT 10SM CLR 15/M02 RMK AO2 SLPNO T01501017 10150 20056 $
KROX 191834Z AUTO 07008KT 10SM CLR 03/00 A2981 RMK AO2
KRPD 191835Z AUTO 00000KT 10SM CLR 12/02 A2998 RMK AO2 T01170023
KRPH 191835Z AUTO 14008KT 7SM SCT019 BKN030 BKN040 22/18 A2984 RMK AO2 T02200176
KRPJ 191835Z AUTO 18006KT 10SM CLR 17/06 A3005 RMK AO2 T01710063
KRPX 191755Z AUTO 20009G13KT 10SM 11/00 A2940
KRQB 191834Z AUTO 28008KT 10SM CLR 13/M01 A3001 RMK AO2 T01261010
KRQE 191800Z AUTO 22016G23KT 10SM FEW014 BKN020 BKN029 05/M01 A2989 RMK AO2 T00501006 TSNO
KRRT 191834Z AUTO 06009KT 10SM CLR 03/00 A2984 RMK AO2
KRSL 191753Z AUTO 18013KT 10SM CLR 16/10 A2983 RMK AO2 SLP098 T01610100 10161 20061 58000
KRSN 191835Z AUTO 20007KT 10SM CLR 26/14 A3006 RMK AO2 T02560138
KRSP 191754Z AUTO 30008G23KT 230V350 10SM CLR A2991 RMK AO2 PK WND 33027/1702 SLPNO 50000 $
KRST 191754Z 15012KT 10SM CLR 09/06 A2996 RMK AO2 SLP155 I6000 T00890056 10094 21006 58009
KRSV 191835Z AUTO 00000KT 7SM SCT015 14/10 A3010 RMK AO2 T01430096
KRSW 191753Z 29007KT 10SM FEW045 SCT055 27/18 A3005 RMK AO2 SLP172 T02720178 10283 20217 58012
KRTN 191753Z AUTO 20008KT 10SM FEW120 07/00 A2980 RMK AO2 SLP057 T00720000 10072 20006 58003
KRTS 191835Z AUTO 23017G21KT 10SM CLR 07/M02 A2974 RMK AO2
KRUE 191753Z AUTO VRB05KT 10SM FEW017 20/14 A3003 RMK AO2 SLP164 T02000139 10200 20106 58011
KRUG 191835Z AUTO 10015G20KT 10SM 02/01 A2958 RMK AO2
KRUQ 191830Z AUTO 36006KT 10SM SCT050 20/07 A3001 RMK AO2 T01950065
KRUT 191756Z AUTO 29009KT 260V330 10SM BKN070 12/00 A2970 RMK AO2 SLP077 T01170000 10117 20017 55002 $
KRVS 191827Z 17009KT 10SM OVC016 19/14 A2994 RMK AO2 T01890144
KRWF 191753Z AUTO 15013KT 10SM CLR 13/06 A2983 RMK AO2 SLP108 T01280061 10133 20011 55007
KRWI 191753Z AUTO 32009KT 290V020 10SM CLR 21/06 A2994 RMK AO2 SLP139 T02110061 10211 20089 58004
KRWL 191753Z AUTO 20015G23KT 10SM CLR 08/M01 A2967 RMK AO2 PK WND 21029/1703 SLP012 T00831011 10089 20011 55007 TSNO $
KRXE 191753Z AUTO 20011G19KT 10SM OVC008 02/01 A2965 RMK AO2 RAE18B20E21UPB18E20 CIG 007V010 SLP044 P0001 60002 T00220011 10033 20000 51010
KRYN 191658Z 13007KT 10SM BKN039 11/07 A2997
KRYT 191753Z AUTO 29007G16KT 240V360 10SM CLR 18/06 A2989 RMK AO2 SLP117 T01780056 10178 20122 58003 TSNO $
KRYV 191835Z AUTO 19005KT 10SM CLR 15/02 A3004 RMK AO2 T01520019
KRYW 191835Z AUTO 16006G21KT 10SM BKN026 BKN036 OVC060 24/18 A2988 RMK AO2 T02430182
KRYY 191747Z 33008KT 10SM SCT025 BKN031 16/09 A3011
KRZL 191835Z AUTO 16004KT 10SM CLR 15/08 A3008 RMK AO2
KRZN 191835Z AUTO 15009KT 10SM CLR 13/00 A2994 RMK AO2 T01321005
KRZR 191835Z AUTO 05008G14KT 10SM SCT030 17/09 A3010 RMK A01
KRZT 191834Z AUTO 26006KT 10SM OVC013 10/07 A3009 RMK AO2
KS25 191835Z AUTO 10004KT 10SM FEW008 02/02 A2950 RMK AO2
KS32 191835Z AUTO 11012KT 9SM CLR 03/02 A2965 RMK AO2
KS39 191835Z AUTO 20023G28KT 10SM SCT044 SCT055 SCT070 04/M02 A2955 RMK AO2
KSAA 191835Z AUTO 14010G14KT 10SM SCT060 08/M02 A2970 RMK AO2
KSAC 191753Z 15009KT 10SM BKN070 12/08 A2985 RMK AO2 SLP109 60006 T01170083 10117 20083 51009
KSAD 191751Z AUTO 11008KT 10SM FEW038 13/02 A2993 RMK AO2 SLP114 T01330022 10133 20067 51014
KSAF 191753Z 25012KT 10SM BKN015 BKN037 06/00 A2986 RMK AO2 SLP080 60000 T00610000 10067 20028 50008
KSAN 191751Z 28009KT 10SM BKN019 BKN030 15/10 A3000 RMK AO2 SLP158 60001 T01500100 10150 20128 51031
KSAR 191835Z AUTO 00000KT 10SM CLR 15/13 A3009 RMK AO2 T01470127
KSAT 191751Z 15012G22KT 8SM SCT024 BKN030 OVC049 24/19 A2986 RMK AO2 SLP095 T02390189 10239 20200 58000 $
KSAV 191753Z 31009KT 10SM SCT040 24/11 A3003 RMK AO2 SLP167 T02390111 10239 20083 58016 $
KSAW 191745Z 00000KT 10SM SKC 04/M02 A3003
KSAZ 191832Z AUTO 12006KT 10SM CLR 08/04 A2984 RMK AO2
KSBA 191753Z 24006KT 10SM FEW035 14/08 A2994 RMK AO2 SLP137 T01440083 10144 20072 51030
KSBD 191750Z 00000KT 02SM DZ OVC019 12/10 A2995
KSBM 191753Z AUTO 18004KT 10SM CLR 12/00 A3005 RMK AO2 SLP178 T01220000 10122 20022 50006
KSBN 191754Z 34005KT 10SM CLR 16/00 A3007 RMK AO2 SLP184 T01610000 10161 21017 50004
KSBO 191835Z AUTO 28004KT 10SM SCT041 BKN048 23/11 A3003 RMK AO2 TSNO
KSBP 191756Z 00000KT 10SM CLR 14/06 A2996 RMK AO2 SLP143 T01440061 10144 20072 51020
KSBY 191754Z 31006KT 10SM BKN075 BKN095 OVC110 18/07 A2988 RMK AO2 SLP120 T01780067 10189 20100 50000
KSCD 191835Z AUTO 01003KT 10SM CLR 21/12 A3010 RMK AO2 T02110123
KSCF 191835Z AUTO 11011KT 2SM BR BKN004 20/20 A3003 RMK A01
KSCH 191756Z 27016G22KT 10SM CLR 11/01 A2976
KSCK 191755Z 14013KT 10SM OVC075 12/07 A2987 RMK AO2 SLP114 60001 T01170072 10117 20061 51011
KSCR 191830Z AUTO 31006KT 10SM SCT050 20/07 A2999 RMK AO2 T01990069
KSDA 191835Z AUTO 16014G21KT 10SM CLR 19/10 A2988 RMK AO2
KSDB 191753Z AUTO 21013KT 10SM OVC006 06/04 A2991 RMK AO2 SLP111 T00610039 10061 20028 51025
KSDF 191839Z 31003KT 5SM HZ OVC017 14/09 A3010 RMK AO2 T01440094 $
KSDL 191753Z 14007KT 7SM BKN006 OVC012 10/09 A2994 RMK AO2 RAE53 CIG 004V009 SLP132 P0004 60013 T01000089 10106 20094 53017
KSDM 191832Z 23006KT 9SM BKN008 BKN019 OVC024 12/11 A3000 RMK AO2 RAE26 P0001 T01220111
KSDY 191831Z AUTO 03006KT 5SM BR BKN007 03/01 A2949 RMK AO2
KSEA 191753Z 19009KT 10SM BKN055 BKN075 07/04 A2945 RMK AO2 SLP979 6//// T00720044 10072 20044 51015 $
KSEE 191820Z VRB05KT 4SM BR BKN014 OVC030 13/10 A3000
KSEG 191753Z AUTO 28007KT 10SM CLR 16/06 A2987 RMK AO2 SLP114 T01610056 10161 20006 58011
KSEM 191835Z AUTO 00000KT 10SM SCT041 22/12 A3008 RMK AO2 TSNO
KSEP 191835Z AUTO 16011G16KT 7SM OVC045 22/17 A2990 RMK AO2 T02200171
KSET 191754Z AUTO 22005KT 10SM CLR 19/11 A3006 RMK AO2 SLP178 T01890106 10189 20028 50001 $
KSEZ 191835Z AUTO 20003KT 2 1/2SM RA BKN003 OVC007 05/03 A2993 RMK AO2 P0002
KSFB 191753Z 36009KT 10SM CLR 25/16 A3005 RMK AO2 SLP176 60000 T02500156 10256 20178 58010
KSFF 191834Z 07005KT 10SM BKN011 04/02 A2955 RMK AO2 T00390017
KSFM 191756Z AUTO 25012G17KT 10SM CLR 12/02 A2962 RMK AO2 SLP040 T01170022 10117 20006 58012
KSFO 191756Z 13009KT 10SM FEW028 SCT060 OVC090 12/08 A2985 RMK AO2 SLP106 60000 T01220078 10122 20100 51008
KSFQ 191835Z AUTO 00000KT 10SM CLR 22/07 A2991 RMK AO2 LTG DSNT S T02190067
KSFY 191835Z AUTO 25004KT 10SM CLR 16/05 A3003 RMK AO2 T01560051
KSFZ 191756Z AUTO 26008G16KT 10SM CLR 13/01 A2971 RMK AO2 SLP081 T01330006 10139 20056 58008
KSGF 191752Z 17010KT 10SM CLR 21/12 A3001 RMK AO2 SLP158 T02060122 10206 20056 58000
KSGH 191821Z AUTO 27008KT 6SM HZ OVC010 10/07 A3007 RMK AO2
KSGJ 191758Z 04009KT 10SM FEW043 22/16 A3006 RMK AO2 SLP180 T02220161 10228 20172 58009
KSGR 191753Z 14016G22KT 10SM BKN016 BKN023 OVC031 24/21 A2992 RMK AO2 SLP133 T02390206 10244 20211 58007
KSGS 191834Z AUTO 16007KT 10SM CLR 12/04 A2992 RMK AO2 T01190039
KSGT 191835Z AUTO 10005KT 10SM CLR 21/12 A3007 RMK AO1
KSGU 191756Z AUTO 26007KT 10SM SCT026 OVC043 10/07 A2984 RMK AO2 SLP100 60005 T01000072 10100 20078 51024
KSHD 191835Z AUTO 30005KT 10SM CLR 19/06 A2998 RMK AO2 T01890060
KSHL 191835Z AUTO 17014G20KT 10SM CLR 15/13 A2980 RMK AO2
KSHM 191758Z AUTO 17012G18KT 10SM CLR 11/M05 A2974 RMK AO2 SLP043 T01141048 10114 20021 58006 $
KSHN 191753Z AUTO 15009KT 10SM FEW019 FEW044 BKN075 06/04 A2941 RMK AO2 RAE1655B21E36 SLP964 P0000 60019 T00610039 10067 20044 53009
KSHR 191753Z AUTO VRB05KT 10SM CLR 06/00 A2944 RMK AO2 SLP981 T00610000 10061 21017 55008
KSHV 191837Z 12007KT 10SM FEW014 22/16 A2998 RMK AO2 T02170161
KSIF 191830Z AUTO 02005KT 10SM CLR 21/07 A3000 RMK AO2 T02050065
KSIK 191835Z AUTO 14003KT 10SM BKN005 14/13 A3011 RMK AO2
KSIY 191753Z AUTO 20006KT 10SM BKN048 OVC060 06/03 A2961 RMK AO2 RAB22E32 SLP041 P0000 60012 T00610033 10061 20028 53011
KSJC 191753Z 13010KT 10SM FEW015 SCT065 OVC130 12/06 A2987 RMK AO2 RAB06E19 SLP114 P0000 60000 T01170056 10117 20089 51006
KSJN 191754Z AUTO VRB03KT 10SM SCT060 08/M02 A2989 RMK AO2 SLP083 T00781022 10078 21039 51011 TSNO
KSJS 191835Z AUTO 28004KT 10SM OVC024 14/08 A3010 RMK AO2 T01380075
KSJT 191751Z 20012KT 7SM SCT025 BKN033 OVC060 22/16 A2986 RMK AO2 SLP099 T02220156 10222 20167 55000 $
KSJX 191836Z AUTO 29004KT 10SM CLR 07/00 A3004 RMK AO2 T00731001
KSKA 191829Z 16007KT 3/4SM R23/P6000FT BR VV001 00/00 A2952 RMK AO2A VIS M1/4V3/4
KSKF 191838Z AUTO 14011KT 10SM SCT023 BKN028 25/20 A2981 RMK AO2 SLP089 $
KSKX 191835Z AUTO 25013G19KT 10SM 06/M02 A2983 RMK AO1
KSLB 191835Z AUTO 17018KT 10SM CLR 16/11 A2983 RMK AO2
KSLC 191754Z 18007KT 10SM -RA FEW030 BKN045 BKN060 08/06 A2969 RMK AO2 SLP035 P0001 60011 T00780056 10094 20061 53006
KSLE 191756Z 18014G21KT 10SM BKN030 OVC037 08/04 A2951 RMK AO2 RAB08E38 SLP994 P0001 60022 T00830044 10083 20039 53011
KSLG 191835Z AUTO 21014KT 10SM FEW026 21/13 A2999 RMK AO1
KSLH 191834Z AUTO 31006KT 10SM CLR 07/M01 A2999 RMK AO2 T00711009
KSLI 191810Z 16003KT 3SM -DZ BR FEW011 OVC023 13/12 A2997 RMK AO2A
KSLK 191751Z AUTO 30009G17KT 250V330 10SM BKN036 07/M01 A2970 RMK AO2 SLP067 T00671006 10072 20011 50011
KSLN 191753Z 16016KT 5SM HZ OVC007 14/11 A2989 RMK AO2 SLP119 T01390111 10144 20061 56006
KSLO 191835Z AUTO 23003KT 7SM CLR 17/11 A3008 RMK AO2 T01660110
KSLR 191835Z AUTO 14007KT 5SM HZ OVC017 23/18 A2996 RMK AO2 T02250183
KSME 191835Z AUTO 00000KT 10SM CLR 15/07 A3013 RMK AO2
KSMF 191753Z 16012KT 10SM BKN075 12/09 A2984 RMK AO2 SLP105 60006 T01170089 10117 20083 51010
KSMN 191835Z AUTO 15007KT 10SM FEW030 BKN050 OVC075 04/01 A2956 RMK AO1 P0002
KSMO 191751Z 13004KT 10SM OVC022 13/12 A2995 RMK AO2 SLP143 T01280117 10128 20111 51035 $
KSMP 191806Z AUTO VRB05KT 1 1/2SM BR OVC002 M01/ A2940 RMK AO2 T1011 PNO $
KSMQ 191753Z AUTO VRB05KT 10SM CLR 18/02 A2980 RMK AO2 SLP091 T01780017 10194 20017 58006
KSMX 191751Z 00000KT 10SM BKN200 11/07 A2996 RMK AO2 SLP148 T01110067 10117 20050 51021
KSNA 191804Z 19007KT 10SM SCT028 BKN034 OVC044 15/11 A2996 RMK AO2 T01500106
KSNC 191835Z AUTO 28009G15KT 10SM CLR 16/M01 A2975 RMK AO2
KSNH 191835Z AUTO 00000KT CLR 20/12 A3010 RMK A01
KSNK 191835Z AUTO 20010G18KT 10SM SCT027 SCT033 SCT040 20/13 A2984 RMK AO2 T02040134
KSNL 191835Z AUTO 15010KT 10SM OVC012 19/15 A2992 RMK AO2 T01850151
KSNS 191753Z 12016KT 10SM FEW070 BKN090 OVC110 10/06 A2990 RMK AO2 SLP133 T01000061 10100 20072 53009
KSNT 191751Z AUTO 00000KT M01/M03 A2960 RMK AO1 SLP997 60003 T10111028 10000 21017 51020
KSNY 191753Z AUTO 00000KT 10SM CLR 14/M01 A2968 RMK AO2 SLP032 T01391006 10139 21022 58001
KSOA 191835Z AUTO VRB04KT 9SM BKN029 BKN035 BKN049 23/16 A2987 RMK AO2
KSOP 191756Z AUTO VRB06KT 10SM CLR 21/07 A2999 RMK AO2 SLP172 T02060072 10206 20078 58002
KSOW 191835Z AUTO 19014KT 5SM -RA FEW002 SCT008 BKN012 02/00 A2992 RMK AO2
KSPA 191835Z AUTO 31006KT 280V340 10SM CLR 20/05 A3003 RMK AO2
KSPB 191753Z AUTO 16006KT 5SM RA BR BKN018 OVC028 06/05 A2950 RMK AO2 RAE11B32 SLP990 P0003 60008 T00610050 10067 20050 52013
KSPD 191756Z AUTO 20016G22KT 12/04 A2977 RMK AO1 PK WND 19028/1736 SLP050 T01220044 10128 20061 56006
KSPF 191835Z AUTO 24008G15KT 10SM CLR 17/M01 A2953 RMK AO2
KSPG 191806Z 17006KT 10SM SCT030 BKN039 BKN046 23/20 A3004 RMK AO2 T02280200
KSPI 191752Z 17006KT 6SM HZ CLR 15/09 A3007 RMK AO2 SLP182 T01500094 10150 20050 58001
KSPR 191835Z AUTO 13015KT 10SM CLR 24/21 A3001 RMK A01
KSPS 191752Z AUTO 18020G25KT 10SM BKN036 OVC043 23/14 A2987 RMK AO2 PK WND 19026/1722 SLP106 T02280144 10239 20117 58004
KSPW 191753Z AUTO 17013KT 10SM CLR 15/10 A2984 RMK AO2 SLP111 T01500100 10150 20011 58011 $
KSQE 191835Z AUTO 13008KT 8SM CLR 24/22 A3003 RMK A01
KSQI 191756Z AUTO VRB04KT 10SM CLR 17/07 A3006 RMK AO2 SLP200 T01670072 10167 21017 50004
KSQL 191755Z 13008KT 10SM SCT025 BKN060 BKN150 12/08 A2987
KSRB 191835Z AUTO 00000KT 10SM CLR 17/09 A3010 RMK A01
KSRC 191756Z AUTO 12004KT 10SM OVC020 16/14 A3010 RMK AO2 SLP201 6//// T01610139 10161 20072 58006
KSRQ 191804Z 27011KT 10SM SCT022 26/19 A3004 RMK AO2 T02560189
KSRR 191835Z AUTO 24018G25KT 10SM CLR 06/M05 A2991 RMK AO2
KSSC 191758Z AUTO 32010KT 10SM CLR 21/08 A2999 RMK AO2 SLP156 T02080081 10208 20101 58003 $
KSSF 191753Z 16010KT 8SM SCT025 BKN036 OVC055 26/19 A2983 RMK AO2 SLP093 T02560194 10261 20211 50000
KSSI 191753Z AUTO 30009KT 10SM FEW036 23/13 A3003 RMK AO2 SLP170 T02280128 10228 20144 58014
KSTC 191753Z 14012KT 10SM CLR 11/06 A2989 RMK AO2 SLP136 I6000 T01110056 10111 21006 56010
KSTE 191835Z AUTO 13004KT 10SM CLR 11/M02 A3002 RMK AO2 T01101017
KSTJ 191753Z 17013KT 10SM CLR 19/12 A2995 RMK AO2 SLP140 T01890117 10189 20011 58008
KSTK 191810Z AUTO 17003KT CLR 11/M02 A2966 RMK AO2 PWINO
KSTL 191751Z 00000KT 10SM FEW250 20/11 A3007 RMK AO2 SLP179 T02000106 10200 20056 50004 $
KSTP 191753Z 16010KT 10SM CLR 12/04 A2994 RMK AO2 SLP142 I6000 T01170039 10117 21022 56011
KSTS 191753Z 14011KT 9SM BKN019 BKN033 OVC046 10/08 A2980 RMK AO2 RAE04B36E47 SLP086 P0000 60010 T01000083 10100 20083 53008
KSUA 191747Z 32011KT 7SM BKN035 28/19 A3004
KSUE 191756Z AUTO 05003KT 10SM CLR 09/M01 A3005 RMK AO2 SLP200 6//// T00941006 10100 20022 50009
KSUN 191749Z 12008KT 10SM SCT005 BKN020 OVC050 01/01 A2965
KSUS 191754Z 30004KT 10SM FEW250 19/12 A3005 RMK AO2 SLP176 T01940117 10200 20028 58001
KSUT 191835Z AUTO 24006KT 10SM CLR 21/10 A2995 RMK AO2 T02070103
KSUU 191758Z AUTO 17004KT 10SM FEW080 11/09 A2983 RMK AO2 SLP108 60007 T01140085 10114 20082 50008 $
KSUW 191835Z AUTO 07010KT 10SM CLR 05/00 A2998 RMK AO2 T00510000
KSUX 191752Z 16015KT 10SM CLR 16/10 A2983 RMK AO2 SLP104 T01560100 10156 20022 55007
KSVC 191835Z AUTO 22004KT 10SM SCT038 OVC055 06/00 A2996 RMK AO2 T00630000
KSVH 191830Z AUTO 30008KT 10SM SCT050 20/07 A3002 RMK AO2 T02030074
KSVN 191758Z AUTO 28012G19KT 10SM SCT042 24/14 A3000 RMK AO2 SLP162 T02380139 10238 20083 57015
KSWF 191745Z 28015KT 20SM SCT120 13/03 A2979
KSWO 191836Z 16012KT 10SM OVC016 19/14 A2990 RMK AO2 T01940139
KSWW 191835Z AUTO 15011KT 10SM BKN020 OVC026 20/15 A2988 RMK AO2 T01950154
KSXT 191756Z AUTO 18008KT 1/4SM -SN FZFG VV002 M01/M01 A2954 RMK AO2 SLP024 P0005 60042 T10061006 11006 21011 51021
KSYF 191835Z AUTO 19018G23KT 10SM CLR 19/01 A2968 RMK AO2 T01910006
KSYI 191835Z AUTO VRB03KT 10SM FEW028 19/12 A3011 RMK
KSYM 191830Z AUTO 24004KT 10SM OVC013 11/07 A3013 RMK AO2
KSYN 191834Z AUTO 14007KT 10SM CLR 14/06 A2991 RMK AO2 T01380060
KSYR 191754Z COR 28014KT 10SM FEW040 FEW150 09/01 A2984 RMK AO2 SLP104 4/005 933015 T00890006 10089 20044 51004
KSZL 191758Z 18009KT 10SM SCT100 22/11 A2997 RMK AO2A SLP149 T02150109 10215 20059 55008
KSZT 191835Z AUTO 18006KT 10SM SCT013 SCT019 BKN038 01/01 A2954 RMK AO2
KT20 191835Z AUTO 16013G21KT 10SM SCT024 BKN031 OVC044 25/21 A2986 RMK AO2 T02510206
KT35 191835Z AUTO 16011G15KT 10SM BKN031 BKN038 OVC047 26/19 A2986 RMK AO2 T02550191
KT65 191835Z AUTO 17019G33KT 7SM SCT026 31/20 A2976 RMK AO2 T03050204
KT70 191819Z AUTO 13007KT 6SM HZ SCT026 BKN038 25/18 A2973 RMK AO2 RAE19 SLP057
KT82 191835Z AUTO 16013G19KT 10SM BKN020 23/17 A2985 RMK AO2 T02320168
KTAD 191754Z AUTO 19017KT 10SM CLR 14/M02 A2974 RMK AO2 SLP013 T01391017 10144 20067 58008
KTAN 191752Z AUTO 23009KT 10SM CLR 14/01 A2970 RMK AO2 SLP056 T01440006 10150 20078 58005
KTAZ 191835Z AUTO 00000KT 10SM CLR 15/11 A3006 RMK AO2 T01520105
KTBN 191758Z AUTO 15014G18KT 10SM CLR 22/09 A3002 RMK AO2 SLP164 T02160090 10216 20050 58009
KTBR 191835Z AUTO 33010KT 300V360 10SM SCT043 SCT050 23/13 A3002 RMK AO2 LTG DSNT E T02260133
KTBX 191835Z AUTO 14016KT 10SM CLR 02/00 A2963 RMK AO2 PWINO
KTCC 191753Z AUTO 23006KT 10SM BKN120 14/02 A2980 RMK AO2 SLP057 T01390017 10139 20056 55004
KTCL 191753Z 03005KT 10SM CLR 22/12 A3011 RMK AO2 SLP194 T02170117 10222 20078 58005
KTCM 191837Z AUTO 17010KT 10SM SCT034 BKN055 08/07 A2946 RMK AO2 RAB18E37
KTCS 191753Z AUTO 20008KT 10SM CLR 10/00 A2990 RMK AO2 SLP090 T01000000 10100 20033 51012
KTDF 191830Z AUTO 31008KT 260V340 10SM CLR 19/06 A3000 RMK AO2
KTDR 191756Z AUTO 35007KT 10SM CLR 24/16 A3007 RMK AO2 SLP186 60001 T02390161 10239 20120 58011 $
KTDZ 191753Z AUTO 25008KT 10SM CLR 16/02 A3002 RMK AO2 SLP164 T01610022 10161 20039 50004
KTEB 191751Z 28010KT 10SM CLR 17/03 A2979 RMK AO2 SLP088 T01720028 10178 20061 58006
KTEW 191824Z AUTO 28008KT 10SM CLR 15/01 A3001 RMK AO2 T01520012
KTEX 191835Z AUTO 29007KT 3/4SM -SN BKN003 OVC007 00/M01 A2984 RMK AO2 T10051012
KTFP 191835Z AUTO 11008KT 10SM SCT009 SCT022 OVC031 26/22 A2984 RMK AO2 T02600223
KTGI 191843Z AUTO 30006KT 10SM OVC070 12/07 A2990 RMK AO1
KTHA 191835Z AUTO 12004KT 10SM CLR 18/09 A3011 RMK
KTHV 191753Z AUTO 30011G17KT 250V320 10SM CLR 19/06 A2988 RMK AO2 SLP118 T01940056 10194 20122 58006
KTIF 191835Z AUTO 19014G20KT 10SM CLR 18/04 A2966 RMK AO2 T01780038
KTIK 191758Z AUTO 16015G20KT 10SM OVC015 19/15 A2990 RMK AO2 SLP128 T01870145 10188 20129 58008
KTIP 191835Z AUTO 17004KT 7SM CLR 16/10 A3007 RMK AO2 T01570101
KTIW 191753Z 18008KT 10SM SCT030 BKN046 BKN060 06/04 A2946 RMK AO2 RAE1656 SLP977 P0000 60005 T00610044 10067 20033 53018
KTIX 191750Z 32008KT 7SM SCT030 24/14 A3006
KTKC 191833Z AUTO 17012G16KT 10SM CLR 15/10 A2979 RMK AO2 T01450095
KTKI 191753Z 12005KT 5SM BR OVC009 20/19 A2992 RMK AO2 SLP133 T02000189 10200 20139 58004
KTKV 191835Z AUTO 00000KT 10SM CLR 13/M03 A3000 RMK AO2 T01261029
KTKX 191835Z AUTO 00000KT 6SM HZ CLR 19/15 A3008 RMK AO2
KTLH 191753Z 00000KT 10SM BKN036 24/14 A3008 RMK AO2 SLP183 FU SE OF AP T02390144 10239 20156 58011
KTMA 191835Z AUTO 32007KT 10SM CLR 23/12 A3004 RMK AO2 T02290120
KTMB 191753Z 29009KT 10SM SCT045 31/18 A3002 RMK AO2 SLP166 T03110183 10311 20183 58019
KTME 191835Z AUTO 14018G21KT 7SM SCT024 BKN028 OVC040 25/20 A2992 RMK AO2
KTMK 191835Z AUTO 20011G24KT 3SM -RA SCT016 BKN021 OVC034 07/05 A2949 RMK AO2 P0009
KTNB 191835Z AUTO 30013G18KT 10SM SCT010 SCT020 08/05 A3009 RMK AO2 T00840047
KTNU 191835Z AUTO 16010KT 9SM CLR 19/10 A2993 RMK AO2 PWINO
KTOA 191750Z VRB05KT 10SM BKN040 BKN050 14/08 A2996
KTOB 191834Z AUTO 14010KT 10SM CLR 10/07 A2993 RMK AO2
KTOC 191834Z AUTO 34004KT 10SM CLR 22/09 A3004 RMK AO2
KTOI 191753Z AUTO 34012G17KT 10SM SCT038 23/13 A3009 RMK AO2 SLP185 T02280128 10233 20117 58009
KTOL 191752Z 27009KT 10SM CLR 16/02 A3001 RMK AO2 SLP163 T01560017 10161 20017 50005
KTOP 191753Z 16011KT 10SM CLR 18/12 A2993 RMK AO2 SLP132 T01830117 10183 20033 58008
KTOR 191753Z AUTO 16007KT 10SM CLR 12/01 A2964 RMK AO2 SLP028 T01170006 10122 21017 58002
KTPA 191753Z 27009KT 10SM FEW037 26/18 A3006 RMK AO2 SLP179 T02560178 10261 20200 58010
KTPF 191835Z AUTO 26006KT 10SM SCT037 SCT044 BKN100 27/18 A3004 RMK AO2
KTPH 191756Z AUTO 17006KT 10SM OVC017 04/01 A2982 RMK AO2 SLP092 T00390011 10039 20017 51020 $
KTPL 191751Z AUTO 14017G22KT 9SM BKN019 OVC031 23/19 A2987 RMK AO2 SLP122 T02330194 10233 20189 58007
KTQE 191754Z AUTO 15014KT 10SM CLR 17/11 A2983 RMK AO2 SLP100 T01720106 10172 20011
KTQH 191835Z AUTO 16008KT 10SM BKN018 20/13 A2999 RMK AO2
KTRI 191803Z 27008KT 10SM BKN024 OVC030 13/07 A3012 RMK AO2 T01280072
KTRK 191745Z 21015G27KT 10SM SCT026 BKN045 02/M02 A2978 RMK NOSPECI
KTRL 191753Z AUTO 14008KT 8SM OVC018 22/18 A2993 RMK AO2 SLP130 T02220178 10222 20161 58002
KTRM 191805Z AUTO 16005KT 5SM BR FEW017 OVC037 14/13 A2990 RMK AO2 T01440128
KTSP 191835Z AUTO 31011KT M1/4SM FG OVC002 04/04 A2993 RMK AO2
KTTA 191840Z AUTO 29005KT 10SM CLR 20/06 A2997 RMK AO2 T02010062
KTTD 191753Z 08011KT 10SM FEW049 OVC080 06/04 A2953 RMK AO2 SLP999 60002 T00610039 10067 20044 51011
KTTF 191831Z AUTO 28015G19KT 10SM CLR 17/04 A2999 RMK AO2 T01650037
KTTN 191753Z 28007KT 10SM CLR 18/03 A2983 RMK AO2 SLP095 T01780033 10189 20133 58006
KTTS 191758Z AUTO 04007KT 10SM SCT031 24/17 A3004 RMK AO2 SLP177 60000 T02380173 10245 20184 57011
KTUL 191753Z 15010KT 9SM OVC010 17/14 A2995 RMK AO2 SLP138 60000 T01720144 10172 20094 58002
KTUP 191753Z 33007KT 10SM CLR 21/11 A3012 RMK AO2 SLP196 T02060106 10206 20072 50002
KTUS 191753Z 19004KT 10SM -RA OVC033 11/07 A2999 RMK AO2 SLP139 P0001 60002 T01110067 10111 20089 51022
KTVC 191753Z 04005KT 10SM FEW250 09/M01 A3003 RMK AO2 SLP173 T00891011 10089 21017 51015
KTVF 191756Z AUTO 11011KT 10SM CLR 04/01 A2979 RMK AO2 SLP102 T00390006 10039 20011 56015
KTVI 191835Z AUTO 35006KT 10SM BKN040 BKN045 BKN055 24/16 A3006 RMK AO2
KTVL 191753Z AUTO 19017G26KT 10SM FEW026 03/M03 A2977 RMK AO2 PK WND 18027/1727 SLP065 60003 T00331028 10033 21022 53011
KTVR 191753Z AUTO 06006KT 10SM CLR 24/14 A3006 RMK AO2 SLP187 T02390144 10239 20078 58013
KTVY 191835Z AUTO 17007G14KT 10SM SCT060 SCT070 BKN110 10/05 A2971 RMK AO2
KTWF 191753Z 18007KT 10SM SCT055 OVC080 07/02 A2965 RMK AO2 SLP022 60001 T00720017 10072 20033 51010
KTWM 191834Z AUTO 10005KT 10SM CLR 08/01 A2996 RMK AO2
KTXK 191753Z 13005KT 8SM OVC007 17/16 A3002 RMK AO2 SLP164 T01720161 10172 20128 58003
KTYQ 191835Z AUTO 23004KT 10SM CLR 15/08 A3008 RMK AO2 T01450077
KTYR 191814Z 16014G20KT 5SM BR SCT022 SCT030 OVC038 24/18 A2993 RMK AO2 T02390183
KTYS 191753Z 00000KT 10SM SCT021 SCT027 14/08 A3013 RMK AO2 SLP200 T01440083 10150 20094 50002
KTZR 191750Z 25008KT 5SM BR OVC008 09/07 A3009
KU42 191835Z AUTO 16003KT 4SM BKN037 OVC046 09/09 A2972 RMK AO1 P0003 T00880088
KU68 191835Z AUTO 00000KT 10SM CLR 05/00 A2952 RMK AO2
KUAO 191753Z 19014G23KT 10SM -RA FEW036 BKN047 OVC055 08/06 A2953 RMK AO2 RAB40 SLP000 P0001 60005 T00830061 10083 20050 53014
KUBE 191835Z AUTO 14008KT 10SM CLR 10/02 A2996 RMK AO2
KUCP 191756Z AUTO 25010G17KT 10SM CLR 16/04 A2998 RMK AO2 SLP169 T01560044 10156 20044 51002
KUCY 191835Z AUTO 00000KT 10SM CLR 19/13 A3010 RMK
KUDG 191756Z AUTO 32005KT 10SM CLR 19/09 A3001 RMK AO2 SLP168 T01940089 10200 20094 58004
KUES 191745Z 08005KT 10SM SKC 15/M03 A3006
KUGN 191755Z 09007KT 10SM CLR 14/M01 A3005 RMK AO2 SLP179 I6000 T01441006 10150 21006 51005 $
KUIL 191753Z AUTO 13006KT 8SM -RA FEW021 OVC028 05/04 A2933 RMK AO2 RAE02B24 SLP934 P0003 60010 T00500039 10050 20028 53004
KUIN 191754Z AUTO 00000KT 10SM CLR 19/09 A3003 RMK AO2 SLP166 T01940094 10200 20044 58001
KUKF 191830Z AUTO 00000KT 10SM CLR 17/06 A3008 RMK AO2
KUKI 191756Z AUTO 16011G18KT 130V190 10SM OVC020 09/08 A2978 RMK AO2 RAB18E55 SLP081 P0001 60018 T00940078 10094 20072 51009
KUKT 191835Z AUTO 31012G16KT 10SM CLR 18/02 A2984 RMK AO1
KULM 191833Z AUTO 16016KT 10SM CLR 13/07 A2985 RMK AO2
KUNI 191830Z AUTO 25006KT 10SM OVC018 13/09 A3008 RMK AO2 T01270085
KUNO 191753Z AUTO 15007KT 10SM CLR 17/12 A3008 RMK AO2 SLP182 T01720122 10178 20039 50002
KUNU 191835Z AUTO 16004KT 10SM CLR 14/01 A3005 RMK AO2 T01410012
KUNV 191753Z 27015KT 10SM SKC 17/03 A2989
KUOX 191835Z AUTO 09005KT 10SM CLR 22/09 A3010 RMK AO2
KUSE 191835Z AUTO 28011G18KT 10SM CLR 17/01 A3002 RMK AO2
KUTA 191835Z AUTO 00000KT 10SM CLR 21/13 A3010 RMK AO2 TSNO
KUTS 191753Z AUTO 15009KT 7SM OVC010 22/19 A2994 RMK AO2 CIG 008V013 SLP133 T02220194 10228 20206 58006
KUUU 191753Z AUTO VRB05KT 10SM CLR 16/02 A2973 RMK AO2 SLP066 T01560022 10156 20083 58002
KUVA 191835Z AUTO 14008KT 7SM SCT024 SCT032 BKN041 25/18 A2981 RMK AO2 T02460182
KUXL 191835Z AUTO 12008KT 10SM OVC013 24/20 A3000 RMK AO2 T02360203
KUYF 191835Z AUTO 25008KT 10SM BKN011 12/09 A3006 RMK AO2
KUZA 191754Z AUTO 32010G15KT 10SM FEW046 19/07 A3004 RMK AO2 SLP167 T01940072 10194 20039 50005
KVAD 191758Z AUTO 31007KT 10SM FEW037 SCT046 24/14 A3004 RMK AO2 SLP174 T02400141 10243 20158 58010 $
KVAF 191835Z AUTO 13016KT 4SM BR CLR 24/23 A2992 RMK A01
KVAY 191754Z AUTO 29008KT 10SM CLR 19/03 A2984 RMK AO2 SLP102 T01890028 10189 20144 58007 TSNO
KVBG 191758Z AUTO 32007KT 8SM OVC130 12/M43 A2997 RMK AO2 SLP152 T01221427 10123 20071 52024
KVBS 191625Z AUTO 15014KT M1/4SM FG OVC003 19/19 A3001 RMK A01
KVBT 191835Z AUTO 22011KT 10SM CLR 22/13 A3000 RMK AO1
KVBW 191835Z AUTO 33009G14KT 230V040 10SM SCT060 20/06 A2996 RMK AO2 T01950062
KVCB 191753Z AUTO 15006KT 10SM FEW011 BKN075 11/09 A2986 RMK AO2 SLP109 60005 T01060089 10111 20083 51007
KVCT 191832Z 14015KT 8SM SCT012 BKN020 OVC039 23/21 A2988 RMK AO2 PK WND 13027/1755 T02330206
KVCV 191835Z AUTO 23010KT 10SM CLR 12/05 A2989 RMK AO2
KVDF 191835Z AUTO 30008KT 255V315 10SM SCT042 28/15 A3005 RMK AO2
KVDI 191835Z AUTO 30006G14KT 10SM CLR 23/15 A3003 RMK AO2
KVEL 191833Z AUTO 14003KT 7SM -RA OVC003 03/02 A2973 RMK AO2 P0001 T00280022
KVER 191835Z AUTO 15007KT 10SM CLR 22/08 A2998 RMK AO2 T02240084
KVES 191835Z AUTO 27008KT 10SM CLR 15/07 A3005 RMK AO2
KVGT 191753Z AUTO 07005KT 10SM CLR 13/08 A2982 RMK AO2 SLP112 T01280083 10128 20083 53022
KVIH 191753Z AUTO 15012KT 10SM CLR 21/10 A3002 RMK AO2 SLP162 T02110100 10211 20056 58007 $
KVIS 191756Z AUTO 00000KT 10SM CLR 12/05 A2996 RMK AO2 SLP156 T01170050 10117 20078 51020
KVJI 191835Z AUTO 27005KT 10SM OVC018 12/09 A3011 RMK AO2 T01160085
KVKS 191835Z AUTO VRB05KT 10SM CLR 27/10 A3002 RMK A01
KVKY 191835Z AUTO 09009KT 10SM FEW012 22/19 A3008 RMK A01
KVLD 191753Z VRB05KT 10SM SCT038 24/14 A3006 RMK AO2 SLP185 T02390139 10250 20156 58012
KVLL 191835Z AUTO 29010G15KT 250V310 10SM CLR 17/M02 A3000 RMK AO2 T01671024
KVNC 191835Z AUTO VRB05KT 10SM SCT060 23/22 A3006 RMK AO2
KVNY 191837Z 14007KT 9SM SCT008 BKN014 OVC030 12/11 A2996 RMK AO2 T01220111
KVOA 191835Z AUTO 05011KT 10SM CLR 21/18 A3007 RMK A01
KVOK 191758Z VRB03KT 10SM FEW150 BKN250 15/04 A3002 RMK AO2A SLP174 50003
KVPC 191753Z AUTO 36008KT 10SM FEW028 OVC036 17/09 A3011 RMK AO2 SLP189 T01670094 10167 20089 58003
KVPS 191755Z 31003KT 10SM FEW250 24/14 A3006 RMK AO2A SLP185 T02370140 10239 20112 58013 $
KVPZ 191756Z AUTO 21004KT 10SM CLR 16/03 A3007 RMK AO2 SLP184 T01610033 10161 20017 50006
KVQQ 191750Z 36007KT 10SM SCT045 24/14 A3006
KVQT 191835Z AUTO 14014KT 8SM CLR 24/21 A3000 RMK A01
KVRB 191753Z 01011KT 10SM BKN035 BKN042 OVC049 24/18 A3005 RMK AO2 SLP174 T02390183 10278 20206 57012
KVSF 191754Z AUTO 32014G22KT 10SM CLR 12/M02 A2968 RMK AO2 SLP054 T01221022 10122 21039 55000
KVTA 191837Z AUTO 25009KT 10SM SCT016 12/07 A3005 RMK AO2 T01170067
KVTI 191835Z AUTO 15012KT 10SM CLR 17/04 A2997 RMK AO2
KVTN 191752Z AUTO 22013KT 10SM CLR 14/02 A2963 RMK AO2 SLP035 T01390022 10139 20050 58000
KVTP 191834Z AUTO 03012G22KT 10SM CLR 04/M05 A2984 RMK AO2
KVUJ 191830Z AUTO 29007KT 10SM SCT049 20/07 A3005 RMK AO2 LTG DSNT SE T01960072
KVUO 191836Z AUTO 11010KT 10SM BKN028 OVC047 08/06 A2952 RMK AO2 RAE14 P0000 T00780061
KVVG 191835Z AUTO 00000KT 10SM 25/20 A2995 RMK A01
KVVV 191833Z AUTO 14013KT 10SM CLR 12/07 A2973 RMK AO2
KVWU 191833Z AUTO 12006KT 10SM SCT042 BKN050 OVC070 08/00 A2985 RMK AO2
KVYS 191835Z AUTO 18006KT 10SM CLR 18/01 A3005 RMK AO2 T01800010
KW13 191835Z AUTO 29005KT 10SM SCT050 19/05 A2997 RMK AO1 T01900045
KW22 191835Z AUTO 22007G12KT 6SM BR BKN006 OVC012 09/08 A3006 RMK AO2 PWINO
KW29 191820Z AUTO 01007KT 7SM CLR 20/07 A2989 RMK AO2 TSNO
KW31 191835Z AUTO 00000KT 10SM CLR 21/07 A2994 RMK AO1 T02050065
KW43 191835Z AUTO 20015G22KT 10SM CLR 14/00 A2950 RMK AO2
KW63 191835Z AUTO 00000KT 10SM CLR 20/06 A2996 RMK AO1
KW75 191835Z AUTO 29003KT 10SM SCT075 OVC090 19/08 A2991 RMK AO1 T01930082
KW78 191835Z AUTO 26003KT 10SM CLR 21/05 A2997 RMK AO1 T02070052
KW81 191835Z AUTO 00000KT 10SM CLR 22/07 A2994 RMK AO1 T02160071
KW96 191835Z AUTO 31005KT 10SM BKN055 OVC070 21/08 A2991 RMK AO1 T02120077
KW99 191830Z AUTO 26008KT 10SM SCT043 16/07 A3001 RMK AO2 T01600073
KWAL 191754Z AUTO 32007KT 10SM OVC070 18/07 A2989 RMK AO2 SLP117 T01780067 10200 20117 50001
KWDG 191745Z 16007KT 2 1/2SM FG OVC005 15/15 A2990
KWDR 191736Z AUTO 34011G16KT 10SM SCT035 20/10 A3009 RMK AO1
KWHP 191750Z 00000KT 3SM BR BKN20 11/10 A2997
KWJF 191756Z 25014KT 10SM CLR 12/07 A2990 RMK AO2 SLP124 T01170072 10117 20072 52025
KWLD 191754Z AUTO 16011KT 4SM BR OVC004 14/13 A2994 RMK AO2 SLP138 T01390128 10139 20078 50001
KWMC 191756Z AUTO 18008KT 10SM CLR 09/M02 A2968 RMK AO2 SLP037 T00941017 10094 20022 51012 $
KWRB 191758Z AUTO 31010KT 10SM FEW029 SCT036 20/13 A3006 RMK AO2 SLP181 T02040132 10204 20092 58005
KWRI 191758Z AUTO 31011KT 10SM BKN200 19/02 A2981 RMK AO2 SLP094 T01850023 10206 20140 57007
KWRL 191753Z AUTO 16017KT 10SM CLR 08/02 A2949 RMK AO2 SLP990 T00780017 10083 20017 55008
KWST 191753Z AUTO 24008KT 10SM CLR 12/02 A2976 RMK AO2 SLP077 T01170022 10156 20022 58003
KWVI 191753Z AUTO 11003KT 10SM -RA FEW033 BKN090 OVC100 11/07 A2991 RMK AO2 RAB41 SLP127 P0000 60000 T01110072 10111 20067 51011 $
KWVL 191756Z AUTO 30003KT 10SM OVC060 11/M01 A2955 RMK AO2 SLP044 T01111006 10117 21006 55003
KWWD 191756Z AUTO 29009KT 10SM CLR 17/06 A2987 RMK AO2 SLP115 T01720061 10172 20122 58003 $
KWWR 191835Z AUTO 16014G21KT 10SM SCT026 17/10 A2987 RMK AO2
KWYS 191825Z AUTO 22012G18KT 2 1/2SM -SN FEW013 00/M01 A2962 RMK AO2
KX60 191835Z AUTO 00000G11KT 10SM CLR 26/14 A3005 RMK A01
KXBP 191835Z AUTO 11006KT 5SM BR BKN007 BKN014 OVC026 20/18 A2990 RMK AO2 T01970180
KXIH 191835Z AUTO 15016KT 1 3/4SM BR CLR 21/19 A2994 RMK A01
KXLL 191835Z AUTO 30007G17KT 250V340 10SM CLR 18/01 A2985 RMK AO2
KXMR 191758Z AUTO 33007KT 10SM FEW028 24/17 A3004 RMK AO2 SLP176 60003 T02410171 10241 20190 58008 $
KXNA 191753Z 21010KT 10SM CLR 22/14 A3000 RMK AO2 SLP153 T02220139 10222 20067 51001
KXPY 191835Z AUTO 08009KT 1/4SM FG OVC003 21/20 A3005 RMK A01
KXSA 191835Z AUTO 32005KT 10SM BKN085 21/00 A2993 RMK AO2 T02060000
KXVG 191836Z AUTO 14005KT 10SM CLR 08/00 A2987 RMK AO2
KY19 191835Z AUTO 13006KT 10SM CLR 05/02 A2952 RMK AO2
KY23 191835Z AUTO 14006KT 10SM CLR 12/03 A2997 RMK AO2 T01160026
KY31 191834Z AUTO 32005KT 10SM CLR 12/00 A2998 RMK AO2 T01230002
KY49 191835Z AUTO 13007KT 10SM -RA SCT070 BKN090 06/00 A2984 RMK AO2 T00560002
KY50 191756Z AUTO 19006KT 10SM CLR 14/01 A3004 RMK AO2 SLP201 6//// T01440011 10144 21028 50003
KY51 191835Z AUTO 18007KT 10SM CLR 14/03 A3001 RMK AO1 T01390028
KY63 191838Z AUTO 12012G19KT 10SM CLR 11/06 A2975 RMK AO2 T01060057
KY70 191834Z AUTO 29007KT 10SM CLR 16/M01 A3001 RMK AO2 T01571013
KYIP 191753Z AUTO 28010KT 10SM CLR 17/01 A3000 RMK AO2 SLP158 T01720006 10172 20061 50006
KYKM 191758Z 12003KT 6SM BR SCT002 OVC007 03/02 A2953 RMK AO2 T00280017
KYKN 191835Z AUTO 15017KT 10SM CLR 14/09 A2972 RMK AO1
KYNG 191751Z 29010KT 10SM FEW250 14/03 A2999 RMK AO2 SLP157 T01440033 10150 20050 51008
KZPH 191835Z AUTO 32004G15KT 10SM CLR 26/15 A3005 RMK AO2 T02640147
KZZV 191818Z AUTO 26010KT 10SM SCT017 12/07 A3006 RMK AO2 T01220067